PC1161 / TC-ANP 7700 Squawk Report (12th of September, 2019)

Aircraft B738 Reg No. TC-ANP Age 8 years old
Model 737 Jet engines 2 First flight 24-04-11
Registered 01-06-17 Rollout 14-04-11 Delivered 06-05-11
Construction No. 40722 Line No. 3637 Series 82R
ADSHEX 4B85D0 Airline name Pegasus Airlines Owner N/A
Airfield based Istanbul-Sabiha Gokcen~Istanbul~TC First tracked 2017-07-13 04:17:00

Flight history for TC-ANP

Route Flight No Date Playback
???? PC4195 2019-10-18 05:17:00
Sabiha Gokcen (SAW) - Antalya (AYT) PC2008 2019-10-18 03:53:00
Adana (ADA) - Sabiha Gokcen (SAW) PC2099 2019-10-18 02:57:00
Sabiha Gokcen (SAW) - Adana (ADA) PC2100 2019-10-17 22:10:00
Orly (ORY) - Sabiha Gokcen (SAW) PC1134 2019-10-17 21:09:00
Sabiha Gokcen (SAW) - Orly (ORY) PC1133 2019-10-17 11:04:00
Sharjah Intl (SHJ) - Sabiha Gokcen (SAW) PC747 2019-10-17 06:06:00
Sabiha Gokcen (SAW) - Sharjah Intl (SHJ) PC746 2019-10-17 01:38:00
Frankfurt Main (FRA) - Sabiha Gokcen (SAW) PC996 2019-10-16 20:00:00
Sabiha Gokcen (SAW) - Frankfurt Main (FRA) PC995 2019-10-16 15:53:00
Hatay Airport (HTY) - Sabiha Gokcen (SAW) PC2131 2019-10-16 09:35:00
Sabiha Gokcen (SAW) - Zurich (ZRH) PC947 2019-10-16 08:20:00
Merzifon (MZH) - Sabiha Gokcen (SAW) PC2781 2019-10-15 20:59:00
Sabiha Gokcen (SAW) - Adnan Menderes (ADB) PC2218 2019-10-15 20:22:00
Geneve Cointrin (GVA) - Sabiha Gokcen (SAW) PC954 2019-10-15 15:58:00
Sabiha Gokcen (SAW) - Geneve Cointrin (GVA) PC953 2019-10-15 11:04:00
???? N/A 2019-10-15 06:24:00
???? PC264 2019-10-15 06:00:00
Pristina (PRN) - Sabiha Gokcen (SAW) PC342 2019-10-15 04:02:00
???? PC277 2019-10-14 20:06:00
Time Lat Lon Altitude Heading Speed Vertical Rate
2019-09-12 13:18:45 GMT 51.889149 0.251164 0 132 10 0
2019-09-12 13:18:36 GMT 51.889435 0.250663 0 132 12 0
2019-09-12 13:18:24 GMT 51.889732 0.249786 0 101 12 0
2019-09-12 13:18:13 GMT 51.889893 0.248993 0 129 10 0
2019-09-12 13:18:03 GMT 51.890190 0.248454 0 123 11 0
2019-09-12 13:17:51 GMT 51.890224 0.247564 0 50 12 0
2019-09-12 13:17:40 GMT 51.889778 0.246849 0 42 14 0
2019-09-12 13:17:28 GMT 51.889252 0.246079 0 42 14 0
2019-09-12 13:17:16 GMT 51.888725 0.245262 0 42 13 0
2019-09-12 13:17:08 GMT 51.888336 0.244687 0 42 13 0
2019-09-12 13:16:57 GMT 51.887924 0.244038 0 42 12 0
2019-09-12 13:16:38 GMT 51.887180 0.242939 0 42 11 0
2019-09-12 13:16:35 GMT 51.887077 0.242767 0 42 11 0
2019-09-12 13:16:25 GMT 51.886745 0.242275 0 42 10 0
2019-09-12 13:16:12 GMT 51.886368 0.241718 0 42 9 0
2019-09-12 13:15:50 GMT 51.885761 0.240790 0 42 9 0
2019-09-12 13:15:42 GMT 51.885529 0.240459 0 42 9 0
2019-09-12 13:15:30 GMT 51.885170 0.240021 0 14 9 0
2019-09-12 13:15:21 GMT 51.884777 0.240103 0 323 11 0
2019-09-12 13:14:42 GMT 51.883484 0.240383 0 42 6 0
2019-09-12 13:14:27 GMT 51.883129 0.239843 0 42 9 0
2019-09-12 13:14:20 GMT 51.882889 0.239491 0 42 11 0
2019-09-12 13:14:13 GMT 51.882626 0.239101 0 42 11 0
2019-09-12 13:14:01 GMT 51.882225 0.238495 0 42 10 0
2019-09-12 13:13:50 GMT 51.881893 0.237988 0 45 9 0
2019-09-12 13:13:40 GMT 51.881607 0.237542 0 132 8 0
2019-09-12 13:12:55 GMT 51.881504 0.236950 0 132 0 0
2019-09-12 13:12:20 GMT 51.881504 0.236967 0 132 0 0
2019-09-12 13:11:53 GMT 51.881504 0.236950 0 132 0 0
2019-09-12 13:11:38 GMT 51.881504 0.236931 0 132 1 0
2019-09-12 13:11:27 GMT 51.881607 0.236568 0 132 9 0
2019-09-12 13:11:22 GMT 51.881744 0.236336 0 135 10 0
2019-09-12 13:11:10 GMT 51.882072 0.235748 0 132 9 0
2019-09-12 13:11:00 GMT 51.882328 0.235315 0 137 8 0
2019-09-12 13:10:48 GMT 51.882610 0.234928 0 191 7 0
2019-09-12 13:10:36 GMT 51.882935 0.234909 0 191 5 0
2019-09-12 13:10:28 GMT 51.883083 0.234963 0 191 4 0
2019-09-12 13:10:07 GMT 51.883156 0.235004 0 191 0 0
2019-09-12 13:09:56 GMT 51.883312 0.235055 0 194 12 0
2019-09-12 13:09:44 GMT 51.884121 0.235348 0 191 22 0
2019-09-12 13:09:31 GMT 51.885601 0.236149 0 208 34 0
2019-09-12 13:09:02 GMT 51.894619 0.249311 0 224 148 -64
2019-09-12 13:08:57 GMT 51.897274 0.253078 75 222 146 -832
2019-09-12 13:08:49 GMT 51.901417 0.259199 200 223 143 -704
2019-09-12 13:08:46 GMT 51.902847 0.261383 225 224 143 -512
2019-09-12 13:08:42 GMT 51.904816 0.264359 250 225 144 -832
2019-09-12 13:08:35 GMT 51.907837 0.269165 350 223 144 -704
2019-09-12 13:08:32 GMT 51.909328 0.271362 1,250 224 157 -1024
2019-09-12 13:08:23 GMT 51.913845 0.278190 475 223 147 -704
2019-09-12 13:08:20 GMT 51.915161 0.280151 500 223 148 -768
2019-09-12 13:08:15 GMT 51.918129 0.284624 575 223 152 -960
2019-09-12 13:08:09 GMT 51.920830 0.288705 675 224 156 -1088
2019-09-12 13:08:03 GMT 51.924088 0.293655 800 224 159 -832
2019-09-12 13:08:00 GMT 51.925781 0.296249 800 224 159 -832
2019-09-12 13:07:57 GMT 51.927391 0.298750 950 224 159 -768
2019-09-12 13:07:53 GMT 51.929768 0.302281 925 223 155 -704
2019-09-12 13:07:49 GMT 51.931953 0.305498 950 223 157 -896
2019-09-12 13:07:46 GMT 51.934158 0.308762 1,000 223 154 -768
2019-09-12 13:07:43 GMT 51.936676 0.312500 1,075 223 152 -576
2019-09-12 13:07:36 GMT 51.938782 0.315475 1,200 223 146 -704
2019-09-12 13:07:30 GMT 51.941620 0.319595 1,200 224 146 -704
2019-09-12 13:07:26 GMT 51.943817 0.322876 1,275 223 154 -896
2019-09-12 13:07:21 GMT 51.946243 0.326462 1,300 223 150 -768
2019-09-12 13:07:18 GMT 51.947708 0.328598 1,325 223 150 -768
2019-09-12 13:07:15 GMT 51.949459 0.331159 1,375 223 154 -896
2019-09-12 13:07:12 GMT 51.950821 0.333176 1,425 224 157 -448
2019-09-12 13:07:09 GMT 51.952698 0.336075 1,425 224 157 -448
2019-09-12 13:07:05 GMT 51.954437 0.338771 1,475 225 155 -960
2019-09-12 13:07:02 GMT 51.956253 0.341753 1,550 225 156 -832
2019-09-12 13:06:58 GMT 51.958008 0.344543 1,600 225 156 -896
2019-09-12 13:06:55 GMT 51.959793 0.347325 1,650 223 156 -512
2019-09-12 13:06:52 GMT 51.961395 0.349731 1,675 222 157 192
2019-09-12 13:06:48 GMT 51.963192 0.352426 1,675 222 158 256
2019-09-12 13:06:45 GMT 51.965744 0.356064 1,650 222 160 192
2019-09-12 13:06:41 GMT 51.967148 0.358154 1,650 264 160 -704
2019-09-12 13:06:38 GMT 51.968765 0.360641 1,650 226 160 -64
2019-09-12 13:06:34 GMT 51.972733 0.366786 1,650 227 158 128
2019-09-12 13:06:31 GMT 51.972733 0.366786 1,650 226 160 -64
2019-09-12 13:06:27 GMT 51.974762 0.370026 1,650 228 160 -128
2019-09-12 13:06:21 GMT 51.979294 0.378189 1,650 229 158 64
2019-09-12 13:06:18 GMT 51.979294 0.378189 1,650 229 158 128
2019-09-12 13:06:12 GMT 51.981953 0.382952 1,650 228 158 64
2019-09-12 13:06:09 GMT 51.983643 0.385895 1,650 226 158 128
2019-09-12 13:06:06 GMT 51.985165 0.388445 1,650 226 158 64
2019-09-12 13:06:03 GMT 51.986794 0.391113 1,650 264 162 -384
2019-09-12 13:06:00 GMT 51.988235 0.393546 1,650 227 157 -64
2019-09-12 13:05:57 GMT 51.989399 0.395586 1,650 229 157 -192
2019-09-12 13:05:54 GMT 51.993076 0.402963 1,675 236 158 -768
2019-09-12 13:05:50 GMT 51.993076 0.402963 1,700 239 157 -832
2019-09-12 13:05:47 GMT 51.994080 0.405502 1,725 240 157 -896
2019-09-12 13:05:43 GMT 51.995316 0.410843 1,825 261 160 -832
2019-09-12 13:05:39 GMT 51.995731 0.415362 1,850 264 160 -704
2019-09-12 13:05:36 GMT 51.995869 0.418265 1,900 265 160 -832
2019-09-12 13:05:32 GMT 51.996151 0.423052 1,975 265 161 -1152
2019-09-12 13:05:28 GMT 51.996460 0.428085 2,025 264 162 -384
2019-09-12 13:05:25 GMT 51.996689 0.431442 1,975 264 164 -640
2019-09-12 13:05:21 GMT 51.997082 0.437099 2,050 264 163 -640
2019-09-12 13:05:17 GMT 51.997360 0.441415 2,175 264 161 -1152
2019-09-12 13:05:14 GMT 51.997826 0.448242 2,925 266 157 -1088
2019-09-12 13:05:11 GMT 51.997826 0.448242 2,275 265 160 -1088
2019-09-12 13:05:08 GMT 51.998245 0.454442 2,250 264 159 -832
2019-09-12 13:05:05 GMT 51.998337 0.456085 2,275 264 158 -832
2019-09-12 13:04:58 GMT 51.998898 0.463858 2,325 264 159 -896
2019-09-12 13:04:54 GMT 51.999207 0.468826 2,425 265 158 -896
2019-09-12 13:04:50 GMT 51.999435 0.473099 2,475 266 157 -1024
2019-09-12 13:04:47 GMT 51.999619 0.477295 2,500 267 156 -1280
2019-09-12 13:04:43 GMT 51.999733 0.480809 2,600 267 156 -1152
2019-09-12 13:04:40 GMT 51.999893 0.484772 2,650 267 156 -1088
2019-09-12 13:04:37 GMT 52.000031 0.488586 2,675 267 156 -1024
2019-09-12 13:04:33 GMT 52.000168 0.494156 2,800 269 157 -1024
2019-09-12 13:04:27 GMT 52.000168 0.500259 2,900 272 156 -1216
2019-09-12 13:04:23 GMT 52.000076 0.505447 2,950 272 156 -1216
2019-09-12 13:04:19 GMT 52.000031 0.510101 3,075 271 154 -1216
2019-09-12 13:04:15 GMT 52.000011 0.516279 3,125 270 154 -1088
2019-09-12 13:04:12 GMT 52.000031 0.517502 3,175 271 154 -1024
2019-09-12 13:04:09 GMT 52.000031 0.521622 3,200 270 154 -1024
2019-09-12 13:04:06 GMT 52.000031 0.524902 3,300 270 156 -960
2019-09-12 13:04:03 GMT 52.000031 0.529556 3,400 270 156 -1216
2019-09-12 13:03:59 GMT 52.000011 0.533072 3,400 270 157 -1216
2019-09-12 13:03:56 GMT 52.000031 0.537033 3,475 270 158 -1216
2019-09-12 13:03:53 GMT 52.000076 0.540314 3,625 269 160 -1152
2019-09-12 13:03:50 GMT 52.000076 0.542755 3,550 269 160 -1280
2019-09-12 13:03:47 GMT 52.000153 0.546334 3,625 269 160 -1088
2019-09-12 13:03:43 GMT 52.000259 0.552292 3,800 268 161 -1472
2019-09-12 13:03:39 GMT 52.000351 0.556641 3,825 268 161 -1472
2019-09-12 13:03:36 GMT 52.000431 0.560224 3,950 268 161 -1216
2019-09-12 13:03:33 GMT 52.000526 0.564069 4,025 268 162 -1152
2019-09-12 13:03:29 GMT 52.000664 0.568464 4,200 268 165 -1216
2019-09-12 13:03:25 GMT 52.000900 0.578079 4,125 268 166 -1216
2019-09-12 13:03:22 GMT 52.000900 0.578079 4,175 268 167 -1216
2019-09-12 13:03:19 GMT 52.000992 0.581055 4,350 268 170 -1152
2019-09-12 13:03:14 GMT 52.001179 0.587376 4,325 268 171 -1152
2019-09-12 13:03:11 GMT 52.001312 0.592270 4,400 268 172 -1280
2019-09-12 13:03:08 GMT 52.001549 0.599226 4,500 268 175 -960
2019-09-12 13:03:02 GMT 52.001644 0.602365 4,625 268 176 -960
2019-09-12 13:02:59 GMT 52.001781 0.608172 4,600 269 179 -1088
2019-09-12 13:02:56 GMT 52.001827 0.610918 4,650 270 181 -1280
2019-09-12 13:02:53 GMT 52.001816 0.621033 4,775 271 184 -1216
2019-09-12 13:02:50 GMT 52.001816 0.623779 4,875 270 186 -1088
2019-09-12 13:02:47 GMT 52.001816 0.623779 4,900 270 187 -1024
2019-09-12 13:02:42 GMT 52.001827 0.630223 4,925 270 189 -1088
2019-09-12 13:02:39 GMT 52.001816 0.640259 5,250 270 194 -2048
2019-09-12 13:02:36 GMT 52.001816 0.640259 5,050 270 193 -1280
2019-09-12 13:02:32 GMT 52.001816 0.644913 5,200 270 194 -2048
2019-09-12 13:02:29 GMT 52.001816 0.651855 5,250 270 195 -2048
2019-09-12 13:02:25 GMT 52.001827 0.655099 5,350 271 197 -1472
2019-09-12 13:02:21 GMT 52.001781 0.661534 5,450 271 206 -192
2019-09-12 13:02:18 GMT 52.001736 0.666870 5,550 271 199 -1600
2019-09-12 13:02:15 GMT 52.001690 0.676444 5,675 271 206 -192
2019-09-12 13:02:11 GMT 52.001690 0.676444 5,675 271 201 -1152
2019-09-12 13:02:08 GMT 52.001678 0.681610 5,700 271 203 -512
2019-09-12 13:02:05 GMT 52.001541 0.691605 5,750 269 215 -704
2019-09-12 13:02:00 GMT 52.001541 0.691605 5,750 271 213 -512
2019-09-12 13:01:57 GMT 52.001549 0.697083 5,800 266 216 -832
2019-09-12 13:01:54 GMT 52.001678 0.701904 5,825 266 216 -832
2019-09-12 13:01:51 GMT 52.002136 0.707703 5,875 258 218 -768
2019-09-12 13:01:45 GMT 52.003784 0.717486 5,975 247 221 -1024
2019-09-12 13:01:42 GMT 52.005203 0.722656 6,025 243 222 -1088
2019-09-12 13:01:39 GMT 52.006393 0.726242 6,050 239 224 -1024
2019-09-12 13:01:36 GMT 52.009789 0.735064 6,225 237 226 -1088
2019-09-12 13:01:32 GMT 52.011520 0.739288 6,200 237 226 -1088
2019-09-12 13:01:29 GMT 52.013580 0.744400 6,225 237 226 -1088
2019-09-12 13:01:26 GMT 52.013580 0.744400 6,275 237 226 -1024
2019-09-12 13:01:23 GMT 52.014954 0.747833 6,325 238 227 -1024
2019-09-12 13:01:20 GMT 52.017014 0.752945 6,450 237 228 -1024
2019-09-12 13:01:17 GMT 52.018341 0.756454 6,400 238 228 -1024
2019-09-12 13:01:14 GMT 52.022499 0.766375 6,500 230 231 -1088
2019-09-12 13:01:08 GMT 52.023697 0.768814 6,550 230 231 -1088
2019-09-12 13:01:05 GMT 52.026672 0.773849 6,700 217 238 -1088
2019-09-12 13:01:02 GMT 52.028961 0.777054 6,675 215 239 -1088
2019-09-12 13:00:57 GMT 52.033401 0.781860 6,750 203 246 -1088
2019-09-12 13:00:54 GMT 52.036606 0.784531 6,850 203 246 -1088
2019-09-12 13:00:51 GMT 52.039993 0.786667 6,875 195 251 -1024
2019-09-12 13:00:46 GMT 52.048428 0.789839 7,000 184 258 -1088
2019-09-12 13:00:40 GMT 52.051731 0.790309 7,050 177 263 -1088
2019-09-12 13:00:37 GMT 52.056110 0.790309 7,125 176 264 -1088
2019-09-12 13:00:34 GMT 52.059769 0.789795 7,175 171 268 -1088
2019-09-12 13:00:31 GMT 52.065372 0.788034 7,250 163 273 -1088
2019-09-12 13:00:28 GMT 52.066589 0.787506 7,250 163 273 -1088
2019-09-12 13:00:25 GMT 52.073273 0.783463 7,450 137 289 -960
2019-09-12 13:00:19 GMT 52.077198 0.780186 7,450 148 282 -1024
2019-09-12 13:00:16 GMT 52.080963 0.776367 7,650 142 286 -1024
2019-09-12 13:00:13 GMT 52.084305 0.772171 7,550 137 289 -960
2019-09-12 13:00:10 GMT 52.087921 0.766983 7,600 134 289 -960
2019-09-12 13:00:07 GMT 52.089798 0.763855 7,650 90 295 0
2019-09-12 13:00:04 GMT 52.092419 0.758920 7,700 123 293 -1024
2019-09-12 13:00:00 GMT 52.096516 0.749581 7,750 121 293 -1088
2019-09-12 12:59:54 GMT 52.100052 0.739136 7,900 90 295 0
2019-09-12 12:59:51 GMT 52.101452 0.733887 8,025 109 294 -960
2019-09-12 12:59:48 GMT 52.102707 0.728001 7,950 106 295 -896
2019-09-12 12:59:45 GMT 52.103779 0.721174 8,000 101 294 -640
2019-09-12 12:59:42 GMT 52.104431 0.715053 8,000 96 294 -64
2019-09-12 12:59:38 GMT 52.104897 0.703596 8,000 84 292 0
2019-09-12 12:59:35 GMT 52.104897 0.698260 8,000 89 296 -64
2019-09-12 12:59:32 GMT 52.104897 0.692060 8,000 89 296 -64
2019-09-12 12:59:28 GMT 52.104858 0.683594 8,000 89 296 0
2019-09-12 12:59:25 GMT 52.104801 0.676052 8,000 89 296 0
2019-09-12 12:59:22 GMT 52.104675 0.663223 8,000 88 295 64
2019-09-12 12:59:19 GMT 52.104675 0.663223 8,000 88 295 64
2019-09-12 12:59:16 GMT 52.104523 0.655648 8,000 88 295 64
2019-09-12 12:59:12 GMT 52.104385 0.647723 8,000 87 294 0
2019-09-12 12:59:09 GMT 52.104244 0.641523 8,000 87 294 0
2019-09-12 12:59:06 GMT 52.103851 0.628815 8,000 86 292 64
2019-09-12 12:59:00 GMT 52.103268 0.616098 8,000 85 291 0
2019-09-12 12:58:57 GMT 52.102753 0.607834 8,000 55 281 0
2019-09-12 12:58:54 GMT 52.102753 0.607834 8,000 82 291 -64
2019-09-12 12:58:51 GMT 52.102112 0.599976 8,000 82 290 -64
2019-09-12 12:58:46 GMT 52.101402 0.592712 8,000 74 288 0
2019-09-12 12:58:43 GMT 52.100189 0.583801 8,025 70 288 0
2019-09-12 12:58:40 GMT 52.099274 0.578842 8,025 66 286 0
2019-09-12 12:58:36 GMT 52.096848 0.569305 8,025 61 284 0
2019-09-12 12:58:30 GMT 52.093689 0.560455 8,025 55 281 0
2019-09-12 12:58:27 GMT 52.091217 0.555038 8,000 48 278 64
2019-09-12 12:58:24 GMT 52.088650 0.550337 8,000 45 276 0
2019-09-12 12:58:21 GMT 52.085129 0.545044 8,025 342 229 0
2019-09-12 12:58:18 GMT 52.082336 0.541534 8,025 26 264 -64
2019-09-12 12:58:14 GMT 52.078781 0.537938 8,025 28 265 -64
2019-09-12 12:58:11 GMT 52.075058 0.534897 8,025 22 261 -64
2019-09-12 12:58:08 GMT 52.072357 0.533142 8,025 18 257 -64
2019-09-12 12:58:05 GMT 52.068741 0.531311 8,025 342 229 0
2019-09-12 12:58:02 GMT 52.064621 0.529938 8,025 8 250 0
2019-09-12 12:57:58 GMT 52.059128 0.529251 8,025 353 238 0
2019-09-12 12:57:55 GMT 52.057800 0.529251 8,025 356 240 64
2019-09-12 12:57:52 GMT 52.053596 0.529698 8,025 347 233 0
2019-09-12 12:57:46 GMT 52.046539 0.532074 8,000 343 230 0
2019-09-12 12:57:42 GMT 52.042923 0.534058 8,000 342 229 0
2019-09-12 12:57:39 GMT 52.038391 0.537415 8,000 332 223 64
2019-09-12 12:57:32 GMT 52.034134 0.541534 8,000 314 217 0
2019-09-12 12:57:29 GMT 52.031525 0.544662 8,000 318 218 0
2019-09-12 12:57:26 GMT 52.028824 0.548553 8,000 312 216 -64
2019-09-12 12:57:22 GMT 52.026455 0.552612 8,000 311 216 -64
2019-09-12 12:57:18 GMT 52.023754 0.558184 8,000 302 214 0
2019-09-12 12:57:15 GMT 52.022453 0.561480 8,000 298 214 64
2019-09-12 12:57:09 GMT 52.019669 0.570297 8,000 291 213 64
2019-09-12 12:57:06 GMT 52.017609 0.581020 8,000 286 214 64
2019-09-12 12:57:02 GMT 52.017609 0.581020 8,000 282 214 128
2019-09-12 12:56:58 GMT 52.017014 0.587006 8,000 275 215 128
2019-09-12 12:56:55 GMT 52.016739 0.591507 7,975 275 221 -64
2019-09-12 12:56:51 GMT 52.016464 0.597992 7,975 275 220 -64
2019-09-12 12:56:48 GMT 52.016327 0.602570 7,975 274 219 0
2019-09-12 12:56:45 GMT 52.016098 0.608444 7,975 274 220 0
2019-09-12 12:56:40 GMT 52.015640 0.617676 7,975 275 222 -128
2019-09-12 12:56:37 GMT 52.015144 0.626064 8,025 276 225 -1024
2019-09-12 12:56:31 GMT 52.014446 0.638149 8,100 277 226 -960
2019-09-12 12:56:28 GMT 52.014446 0.638149 8,200 277 226 -960
2019-09-12 12:56:25 GMT 52.014259 0.641523 8,175 276 226 -960
2019-09-12 12:56:22 GMT 52.013901 0.647278 8,250 277 226 -960
2019-09-12 12:56:16 GMT 52.013233 0.656355 8,350 279 225 -960
2019-09-12 12:56:13 GMT 52.012768 0.661691 8,350 280 214 -448
2019-09-12 12:56:09 GMT 52.012257 0.667027 8,425 281 224 -960
2019-09-12 12:56:06 GMT 52.011700 0.673070 8,450 280 225 -960
2019-09-12 12:56:03 GMT 52.011108 0.678711 8,525 280 225 -960
2019-09-12 12:56:00 GMT 52.010696 0.682755 8,675 281 224 -960
2019-09-12 12:55:57 GMT 52.010208 0.687038 8,575 281 224 -896
2019-09-12 12:55:54 GMT 52.009418 0.694336 8,625 281 223 -896
2019-09-12 12:55:51 GMT 52.009048 0.697937 8,650 281 223 -896
2019-09-12 12:55:48 GMT 52.008499 0.702515 8,725 280 219 -1024
2019-09-12 12:55:44 GMT 52.007603 0.710658 8,775 281 220 -960
2019-09-12 12:55:41 GMT 52.007263 0.713577 8,950 280 219 -1024
2019-09-12 12:55:38 GMT 52.006672 0.719134 8,875 280 217 -960
2019-09-12 12:55:35 GMT 52.006157 0.724234 8,925 280 216 -960
2019-09-12 12:55:32 GMT 52.005039 0.735064 9,000 280 214 -448
2019-09-12 12:55:28 GMT 52.005039 0.735064 9,000 280 214 64
2019-09-12 12:55:25 GMT 52.004623 0.739537 9,000 280 214 64
2019-09-12 12:55:22 GMT 52.003830 0.746765 9,000 280 213 64
2019-09-12 12:55:16 GMT 52.003178 0.753427 9,000 280 214 64
2019-09-12 12:55:13 GMT 52.002666 0.758527 9,000 278 214 0
2019-09-12 12:55:10 GMT 52.002274 0.763321 9,000 278 214 0
2019-09-12 12:55:07 GMT 52.001827 0.768729 9,000 277 215 64
2019-09-12 12:55:04 GMT 52.001411 0.774458 9,000 276 215 0
2019-09-12 12:55:01 GMT 52.000900 0.783157 9,000 276 215 0
2019-09-12 12:54:55 GMT 52.000671 0.787659 9,000 275 216 0
2019-09-12 12:54:52 GMT 52.000443 0.792236 9,000 276 218 0
2019-09-12 12:54:49 GMT 52.000122 0.797424 9,000 277 218 0
2019-09-12 12:54:46 GMT 51.999828 0.801610 9,000 278 218 -128
2019-09-12 12:54:43 GMT 51.999409 0.807495 9,050 277 219 -1024
2019-09-12 12:54:40 GMT 51.999023 0.812378 9,025 277 219 -1024
2019-09-12 12:54:37 GMT 51.998657 0.816956 9,075 277 220 -1024
2019-09-12 12:54:34 GMT 51.998245 0.822830 9,150 277 220 -1088
2019-09-12 12:54:31 GMT 51.997604 0.832672 9,250 276 220 -1088
2019-09-12 12:54:28 GMT 51.997192 0.838547 9,275 276 220 -1088
2019-09-12 12:54:21 GMT 51.996849 0.844142 9,350 276 220 -1088
2019-09-12 12:54:18 GMT 51.996521 0.849400 9,475 278 219 -1024
2019-09-12 12:54:15 GMT 51.996243 0.853952 9,450 276 220 -960
2019-09-12 12:54:12 GMT 51.995911 0.858841 9,550 277 219 -960
2019-09-12 12:54:09 GMT 51.995682 0.862122 9,550 277 219 -1024
2019-09-12 12:54:06 GMT 51.995171 0.869646 9,575 278 219 -1024
2019-09-12 12:54:03 GMT 51.994518 0.877494 9,675 278 220 -1088
2019-09-12 12:53:57 GMT 51.993668 0.887604 9,800 279 220 -1280
2019-09-12 12:53:54 GMT 51.993668 0.887604 9,850 278 220 -1344
2019-09-12 12:53:50 GMT 51.993122 0.893816 9,875 278 220 -1280
2019-09-12 12:53:47 GMT 51.992706 0.899074 9,950 278 220 -1280
2019-09-12 12:53:43 GMT 51.992157 0.905914 10,050 278 220 -1152
2019-09-12 12:53:40 GMT 51.991776 0.910845 10,100 277 220 -1088
2019-09-12 12:53:37 GMT 51.991379 0.916443 10,150 277 220 -1088
2019-09-12 12:53:34 GMT 51.991150 0.919724 10,200 277 221 -1216
2019-09-12 12:53:31 GMT 51.990738 0.925674 10,225 277 221 -1216
2019-09-12 12:53:28 GMT 51.990463 0.930252 10,375 276 221 -1152
2019-09-12 12:53:24 GMT 51.990005 0.937500 10,475 276 221 -1280
2019-09-12 12:53:21 GMT 51.989723 0.941764 10,475 276 222 -1344
2019-09-12 12:53:18 GMT 51.989399 0.947728 10,650 276 221 -1280
2019-09-12 12:53:15 GMT 51.989090 0.952682 10,550 276 224 -1216
2019-09-12 12:53:10 GMT 51.988678 0.960617 10,700 275 221 -1088
2019-09-12 12:53:07 GMT 51.988468 0.964914 10,700 275 222 -1152
2019-09-12 12:53:04 GMT 51.988144 0.971584 10,850 275 222 -1216
2019-09-12 12:53:01 GMT 51.987991 0.974579 10,825 275 222 -1216
2019-09-12 12:52:58 GMT 51.987762 0.978622 10,875 276 222 -1280
2019-09-12 12:52:55 GMT 51.986980 0.990888 11,000 276 223 -1216
2019-09-12 12:52:52 GMT 51.986980 0.990888 11,050 276 223 -1216
2019-09-12 12:52:48 GMT 51.986343 1.001205 11,150 276 224 -1216
2019-09-12 12:52:42 GMT 51.986000 1.006191 11,925 276 225 -1088
2019-09-12 12:52:39 GMT 51.985611 1.012573 11,375 276 224 -1152
2019-09-12 12:52:35 GMT 51.985245 1.018600 11,375 276 224 -1088
2019-09-12 12:52:32 GMT 51.984879 1.024551 11,425 276 225 -1088
2019-09-12 12:52:29 GMT 51.984421 1.031952 11,500 276 226 -960
2019-09-12 12:52:23 GMT 51.984047 1.037659 11,525 276 226 -960
2019-09-12 12:52:20 GMT 51.983597 1.044769 11,625 277 228 -832
2019-09-12 12:52:17 GMT 51.983368 1.048813 11,650 277 228 -832
2019-09-12 12:52:14 GMT 51.982929 1.055315 11,700 277 229 -832
2019-09-12 12:52:10 GMT 51.982601 1.060102 11,725 277 230 -768
2019-09-12 12:52:07 GMT 51.982090 1.067008 11,775 277 231 -768
2019-09-12 12:52:04 GMT 51.981354 1.076279 11,850 278 233 -1088
2019-09-12 12:52:01 GMT 51.981354 1.076279 12,000 279 236 -896
2019-09-12 12:51:58 GMT 51.980881 1.082546 11,925 278 235 -1088
2019-09-12 12:51:55 GMT 51.980507 1.086783 11,975 279 235 -960
2019-09-12 12:51:52 GMT 51.980164 1.090927 12,075 279 236 -640
2019-09-12 12:51:49 GMT 51.979671 1.096514 12,050 278 237 -576
2019-09-12 12:51:46 GMT 51.979202 1.101837 12,125 279 239 -512
2019-09-12 12:51:43 GMT 51.978607 1.108246 12,100 279 241 -640
2019-09-12 12:51:39 GMT 51.978012 1.114731 12,125 280 245 -576
2019-09-12 12:51:36 GMT 51.977295 1.121626 12,175 280 246 -576
2019-09-12 12:51:33 GMT 51.976913 1.125641 12,200 280 248 -576
2019-09-12 12:51:29 GMT 51.976086 1.133397 12,250 280 252 -576
2019-09-12 12:51:25 GMT 51.975109 1.142343 12,300 280 255 -576
2019-09-12 12:51:22 GMT 51.974579 1.147232 12,425 278 265 -1536
2019-09-12 12:51:17 GMT 51.973480 1.157913 12,375 280 261 -704
2019-09-12 12:51:14 GMT 51.972977 1.162567 12,375 279 262 -832
2019-09-12 12:51:11 GMT 51.972454 1.168396 12,900 278 266 -1472
2019-09-12 12:51:08 GMT 51.971897 1.174674 12,475 279 264 -1344
2019-09-12 12:51:05 GMT 51.970825 1.186829 12,600 278 265 -1600
2019-09-12 12:51:02 GMT 51.970825 1.186829 12,675 278 265 -1600
2019-09-12 12:50:59 GMT 51.969955 1.197891 12,825 278 266 -1472
2019-09-12 12:50:56 GMT 51.969955 1.197891 12,875 278 266 -1472
2019-09-12 12:50:53 GMT 51.969452 1.204147 12,900 278 266 -1472
2019-09-12 12:50:50 GMT 51.968868 1.211635 13,900 277 267 -1408
2019-09-12 12:50:46 GMT 51.968544 1.215637 13,000 278 266 -1536
2019-09-12 12:50:43 GMT 51.968033 1.221915 13,125 277 266 -1472
2019-09-12 12:50:40 GMT 51.967438 1.230240 13,175 277 267 -1408
2019-09-12 12:50:37 GMT 51.967163 1.234207 13,225 277 267 -1280
2019-09-12 12:50:33 GMT 51.966614 1.242218 13,325 277 269 -1216
2019-09-12 12:50:27 GMT 51.965752 1.254560 13,425 277 269 -1216
2019-09-12 12:50:24 GMT 51.965424 1.259766 13,575 277 268 -1344
2019-09-12 12:50:21 GMT 51.964874 1.267776 13,650 278 270 -896
2019-09-12 12:50:18 GMT 51.964508 1.272583 13,625 278 269 -1152
2019-09-12 12:50:15 GMT 51.964050 1.278152 13,775 278 270 -896
2019-09-12 12:50:12 GMT 51.963612 1.284145 13,725 278 270 -896
2019-09-12 12:50:09 GMT 51.963181 1.289368 13,750 278 270 -896
2019-09-12 12:50:06 GMT 51.962631 1.296230 13,875 278 270 -896
2019-09-12 12:50:03 GMT 51.962074 1.303371 13,875 278 270 -768
2019-09-12 12:49:59 GMT 51.961487 1.311035 13,900 278 270 -832
2019-09-12 12:49:56 GMT 51.961002 1.317025 13,950 278 270 -768
2019-09-12 12:49:52 GMT 51.960350 1.325030 14,050 278 284 -1024
2019-09-12 12:49:49 GMT 51.959793 1.331863 14,050 278 271 -704
2019-09-12 12:49:46 GMT 51.959244 1.338348 14,075 278 272 -768
2019-09-12 12:49:43 GMT 51.958862 1.342765 14,100 278 272 -960
2019-09-12 12:49:40 GMT 51.958511 1.347198 14,425 278 273 -832
2019-09-12 12:49:37 GMT 51.957417 1.360578 14,225 278 272 -960
2019-09-12 12:49:34 GMT 51.957417 1.360578 14,575 278 272 -768
2019-09-12 12:49:31 GMT 51.956909 1.366653 14,350 278 273 -704
2019-09-12 12:49:28 GMT 51.956314 1.373901 14,325 278 273 -704
2019-09-12 12:49:25 GMT 51.955788 1.379961 14,375 278 273 -704
2019-09-12 12:49:22 GMT 51.955490 1.383591 14,425 278 273 -768
2019-09-12 12:49:19 GMT 51.954998 1.389692 14,425 278 273 -832
2019-09-12 12:49:16 GMT 51.954346 1.397400 14,475 278 273 -768
2019-09-12 12:49:13 GMT 51.953835 1.403425 14,500 278 274 -768
2019-09-12 12:49:10 GMT 51.953339 1.409531 14,575 278 276 -640
2019-09-12 12:49:07 GMT 51.952904 1.414804 14,575 278 275 -640
2019-09-12 12:49:04 GMT 51.952206 1.422965 14,625 278 276 -640
2019-09-12 12:48:58 GMT 51.951416 1.432419 14,650 278 277 -704
2019-09-12 12:48:55 GMT 51.950855 1.439366 14,700 278 277 -704
2019-09-12 12:48:52 GMT 51.950108 1.448469 14,750 278 278 -768
2019-09-12 12:48:49 GMT 51.949738 1.453413 14,775 278 279 -832
2019-09-12 12:48:44 GMT 51.948807 1.464539 14,850 278 279 -960
2019-09-12 12:48:41 GMT 51.948433 1.469107 14,875 278 279 -960
2019-09-12 12:48:38 GMT 51.947968 1.474915 14,975 278 281 -896
2019-09-12 12:48:35 GMT 51.947342 1.482849 15,150 278 281 -832
2019-09-12 12:48:31 GMT 51.946617 1.491551 15,000 278 281 -832
2019-09-12 12:48:28 GMT 51.946247 1.496573 15,050 278 281 -960
2019-09-12 12:48:23 GMT 51.945408 1.506539 15,200 278 281 -832
2019-09-12 12:48:20 GMT 51.944801 1.514073 15,175 278 282 -832
2019-09-12 12:48:17 GMT 51.944477 1.518232 15,225 278 282 -832
2019-09-12 12:48:14 GMT 51.943871 1.525766 15,275 278 282 -832
2019-09-12 12:48:11 GMT 51.943405 1.531651 15,325 278 282 -832
2019-09-12 12:48:08 GMT 51.942802 1.539185 15,350 278 284 -1024
2019-09-12 12:48:05 GMT 51.942398 1.543808 15,375 278 284 -1024
2019-09-12 12:48:02 GMT 51.941849 1.550598 15,425 278 284 -1024
2019-09-12 12:47:59 GMT 51.940334 1.569554 15,575 278 285 -960
2019-09-12 12:47:54 GMT 51.940334 1.569554 15,575 278 284 -1024
2019-09-12 12:47:51 GMT 51.939972 1.574173 15,625 278 285 -960
2019-09-12 12:47:48 GMT 51.939468 1.580124 15,650 278 285 -896
2019-09-12 12:47:45 GMT 51.938873 1.587677 15,700 278 285 -832
2019-09-12 12:47:42 GMT 51.938423 1.593253 15,750 278 286 -832
2019-09-12 12:47:39 GMT 51.937866 1.600002 15,800 278 287 -960
2019-09-12 12:47:36 GMT 51.936890 1.611930 15,825 278 287 -1088
2019-09-12 12:47:33 GMT 51.936890 1.611930 15,875 278 287 -1088
2019-09-12 12:47:30 GMT 51.936283 1.619620 15,900 278 287 -1216
2019-09-12 12:47:27 GMT 51.935818 1.624721 16,075 278 288 -1152
2019-09-12 12:47:20 GMT 51.934608 1.639239 16,100 278 288 -1152
2019-09-12 12:47:17 GMT 51.934021 1.646500 16,175 278 288 -1152
2019-09-12 12:47:11 GMT 51.932465 1.665268 16,325 278 288 -1088
2019-09-12 12:47:05 GMT 51.931999 1.670864 16,375 278 289 -960
2019-09-12 12:47:02 GMT 51.931255 1.680280 16,450 278 289 -1088
2019-09-12 12:46:58 GMT 51.930698 1.687186 16,600 278 290 -640
2019-09-12 12:46:55 GMT 51.930084 1.695328 16,575 278 303 -960
2019-09-12 12:46:52 GMT 51.929672 1.700919 16,675 277 288 -1536
2019-09-12 12:46:49 GMT 51.929348 1.705157 16,800 277 288 -1152
2019-09-12 12:46:46 GMT 51.928848 1.711578 16,825 277 289 -704
2019-09-12 12:46:43 GMT 51.928253 1.719284 16,825 277 289 -704
2019-09-12 12:46:39 GMT 51.927719 1.726580 16,850 277 289 -640
2019-09-12 12:46:36 GMT 51.927204 1.733486 16,975 278 291 -640
2019-09-12 12:46:33 GMT 51.926647 1.740391 17,025 278 297 -448
2019-09-12 12:46:29 GMT 51.925995 1.749023 17,050 278 293 -512
2019-09-12 12:46:26 GMT 51.925575 1.754281 17,000 278 295 -448
2019-09-12 12:46:23 GMT 51.924911 1.762619 17,050 278 297 -512
2019-09-12 12:46:16 GMT 51.923676 1.777649 17,075 278 299 -640
2019-09-12 12:46:13 GMT 51.923035 1.785660 17,200 278 302 -832
2019-09-12 12:46:10 GMT 51.921799 1.800842 17,250 278 304 -1088
2019-09-12 12:46:06 GMT 51.921799 1.800842 17,225 278 304 -1088
2019-09-12 12:46:00 GMT 51.920837 1.812592 17,300 278 304 -1088
2019-09-12 12:45:56 GMT 51.918915 1.836166 17,450 278 306 -1280
2019-09-12 12:45:50 GMT 51.918915 1.836166 17,550 278 306 -1408
2019-09-12 12:45:46 GMT 51.918175 1.844761 17,650 279 307 -1536
2019-09-12 12:45:38 GMT 51.916443 1.864243 17,875 279 306 -1536
2019-09-12 12:45:31 GMT 51.915024 1.879654 17,975 279 306 -1344
2019-09-12 12:45:28 GMT 51.914589 1.884626 18,000 279 306 -1344
2019-09-12 12:45:25 GMT 51.913799 1.892787 18,075 279 306 -1536
2019-09-12 12:45:22 GMT 51.913193 1.899144 18,325 279 305 -1344
2019-09-12 12:45:18 GMT 51.912094 1.910477 18,325 279 305 -1920
2019-09-12 12:45:15 GMT 51.911499 1.916733 18,375 279 305 -1792
2019-09-12 12:45:12 GMT 51.910995 1.922150 18,850 279 305 -1344
2019-09-12 12:45:09 GMT 51.909561 1.937988 18,600 278 305 -1024
2019-09-12 12:45:05 GMT 51.909561 1.937988 18,625 278 306 -960
2019-09-12 12:45:02 GMT 51.908981 1.944733 18,650 278 307 -1024
2019-09-12 12:44:59 GMT 51.908478 1.951141 18,700 278 306 -960
2019-09-12 12:44:56 GMT 51.907883 1.958389 18,750 278 307 -1024
2019-09-12 12:44:52 GMT 51.905594 1.985703 18,875 278 306 -1024
2019-09-12 12:44:46 GMT 51.905594 1.985703 19,050 278 306 -1024
2019-09-12 12:44:42 GMT 51.903931 2.005240 19,000 278 306 -1024
2019-09-12 12:44:35 GMT 51.903931 2.005240 19,075 279 307 -1024
2019-09-12 12:44:32 GMT 51.903000 2.016148 20,075 268 310 -1088
2019-09-12 12:44:26 GMT 51.901978 2.037582 19,250 274 307 -1088
2019-09-12 12:44:22 GMT 51.901978 2.037582 19,325 273 307 -1088
2019-09-12 12:44:19 GMT 51.901886 2.042236 19,350 270 307 -1024
2019-09-12 12:44:16 GMT 51.901886 2.048645 19,500 268 309 -1024
2019-09-12 12:44:13 GMT 51.901974 2.056405 19,425 268 310 -1024
2019-09-12 12:44:09 GMT 51.902206 2.069275 19,550 269 308 -1024
2019-09-12 12:44:06 GMT 51.902252 2.072963 19,600 269 308 -1024
2019-09-12 12:44:02 GMT 51.902390 2.079849 19,850 268 309 -1024
2019-09-12 12:43:59 GMT 51.902626 2.091326 19,725 268 309 -1024
2019-09-12 12:43:56 GMT 51.902710 2.095490 19,725 268 309 -1024
2019-09-12 12:43:53 GMT 51.902893 2.102890 19,800 268 309 -1024
2019-09-12 12:43:50 GMT 51.903046 2.109767 19,825 268 309 -1024
2019-09-12 12:43:47 GMT 51.903187 2.116281 19,925 268 309 -1024
2019-09-12 12:43:44 GMT 51.903351 2.123184 20,000 268 309 -1024
2019-09-12 12:43:41 GMT 51.903488 2.130585 19,975 268 309 -1024
2019-09-12 12:43:38 GMT 51.903648 2.136605 20,000 268 310 -1024
2019-09-12 12:43:33 GMT 51.903931 2.147670 20,075 268 310 -1024
2019-09-12 12:43:30 GMT 51.904175 2.156448 20,175 268 310 -1024
2019-09-12 12:43:27 GMT 51.904312 2.162018 20,325 268 310 -1088
2019-09-12 12:43:23 GMT 51.904579 2.171683 20,425 268 313 -832
2019-09-12 12:43:20 GMT 51.904720 2.178196 20,400 268 310 -1024
2019-09-12 12:43:17 GMT 51.904907 2.185135 20,600 268 319 -832
2019-09-12 12:43:13 GMT 51.905273 2.200928 20,450 268 324 -832
2019-09-12 12:43:10 GMT 51.905273 2.200928 20,725 268 317 -704
2019-09-12 12:43:07 GMT 51.905464 2.207860 20,775 268 319 -832
2019-09-12 12:43:01 GMT 51.905792 2.221906 21,075 268 313 -832
2019-09-12 12:42:58 GMT 51.906143 2.234573 20,650 268 316 -768
2019-09-12 12:42:55 GMT 51.906464 2.246857 21,075 268 324 -832
2019-09-12 12:42:50 GMT 51.906464 2.246857 20,725 268 318 -768
2019-09-12 12:42:47 GMT 51.906769 2.258711 20,775 268 319 -832
2019-09-12 12:42:43 GMT 51.907104 2.272491 20,825 268 320 -832
2019-09-12 12:42:40 GMT 51.907375 2.282567 20,950 268 322 -832
2019-09-12 12:42:35 GMT 51.907375 2.282567 20,925 268 324 -832
2019-09-12 12:42:32 GMT 51.907608 2.292219 21,275 263 331 -1088
2019-09-12 12:42:28 GMT 51.907837 2.302399 21,025 268 325 -832
2019-09-12 12:42:23 GMT 51.908112 2.313080 21,225 264 329 -1088
2019-09-12 12:42:19 GMT 51.908443 2.321333 21,150 266 326 -1088
2019-09-12 12:42:16 GMT 51.908913 2.330122 21,200 264 328 -1088
2019-09-12 12:42:11 GMT 51.909794 2.341814 21,350 264 329 -1088
2019-09-12 12:42:08 GMT 51.910629 2.353058 21,375 263 330 -1088
2019-09-12 12:42:05 GMT 51.910912 2.356489 21,450 263 332 -1088
2019-09-12 12:42:02 GMT 51.911453 2.363815 21,450 263 332 -1088
2019-09-12 12:41:59 GMT 51.912827 2.381592 21,725 264 355 -1536
2019-09-12 12:41:55 GMT 51.913521 2.391017 21,700 264 335 -1088
2019-09-12 12:41:51 GMT 51.913521 2.391017 22,125 264 335 -1088
2019-09-12 12:41:47 GMT 51.914429 2.403412 21,800 264 336 -1152
2019-09-12 12:41:44 GMT 51.914795 2.408447 21,825 264 337 -1152
2019-09-12 12:41:41 GMT 51.915569 2.418954 21,850 264 338 -1152
2019-09-12 12:41:38 GMT 51.916122 2.426453 22,225 264 343 -1152
2019-09-12 12:41:35 GMT 51.916397 2.430496 23,200 264 355 -1536
2019-09-12 12:41:32 GMT 51.917103 2.440063 22,000 264 340 -1152
2019-09-12 12:41:29 GMT 51.917988 2.453169 22,100 264 342 -1088
2019-09-12 12:41:23 GMT 51.918686 2.463370 22,275 264 347 -1344
2019-09-12 12:41:19 GMT 51.919464 2.475052 22,250 264 345 -1152
2019-09-12 12:41:16 GMT 51.920315 2.487932 22,300 264 345 -1088
2019-09-12 12:41:13 GMT 51.920315 2.487932 22,400 264 347 -1408
2019-09-12 12:41:10 GMT 51.920780 2.495074 22,625 264 347 -1408
2019-09-12 12:41:06 GMT 51.921478 2.505951 22,625 264 352 -1600
2019-09-12 12:41:03 GMT 51.922131 2.515791 22,600 264 348 -1536
2019-09-12 12:41:00 GMT 51.922531 2.522507 22,725 264 348 -1536
2019-09-12 12:40:57 GMT 51.923061 2.530308 22,700 264 348 -1536
2019-09-12 12:40:54 GMT 51.923481 2.536508 22,800 264 350 -1600
2019-09-12 12:40:51 GMT 51.924179 2.546866 22,850 264 353 -1536
2019-09-12 12:40:47 GMT 51.924740 2.555263 23,000 264 351 -1600
2019-09-12 12:40:43 GMT 51.925438 2.565622 23,050 264 351 -1600
2019-09-12 12:40:39 GMT 51.926239 2.577667 23,175 264 352 -1600
2019-09-12 12:40:35 GMT 51.926743 2.584991 23,550 264 354 -1536
2019-09-12 12:40:31 GMT 51.927486 2.595991 23,350 264 353 -1536
2019-09-12 12:40:28 GMT 51.928043 2.604388 25,125 264 360 -1472
2019-09-12 12:40:25 GMT 51.929123 2.620697 23,750 264 356 -1536
2019-09-12 12:40:22 GMT 51.929901 2.632294 23,675 264 355 -1536
2019-09-12 12:40:17 GMT 51.929901 2.632294 23,700 264 355 -1536
2019-09-12 12:40:14 GMT 51.930416 2.640172 23,750 264 355 -1536
2019-09-12 12:40:11 GMT 51.931629 2.658142 24,050 264 357 -1536
2019-09-12 12:40:08 GMT 51.931629 2.658142 23,975 264 356 -1536
2019-09-12 12:40:05 GMT 51.932049 2.664498 24,025 264 356 -1536
2019-09-12 12:40:01 GMT 51.933537 2.686785 24,325 264 357 -1536
2019-09-12 12:39:58 GMT 51.934067 2.694702 24,250 264 357 -1536
2019-09-12 12:39:55 GMT 51.934067 2.694702 24,275 264 358 -1536
2019-09-12 12:39:52 GMT 51.934937 2.707443 24,825 264 359 -1536
2019-09-12 12:39:49 GMT 51.935394 2.713852 24,425 264 358 -1536
2019-09-12 12:39:43 GMT 51.936218 2.725525 24,550 264 358 -1600
2019-09-12 12:39:40 GMT 51.936794 2.733555 24,600 264 358 -1600
2019-09-12 12:39:34 GMT 51.937775 2.747367 24,775 264 359 -1600
2019-09-12 12:39:31 GMT 51.938286 2.754822 25,025 264 359 -1536
2019-09-12 12:39:28 GMT 51.938873 2.762833 25,125 264 359 -1536
2019-09-12 12:39:25 GMT 51.939377 2.770309 25,050 264 359 -1536
2019-09-12 12:39:22 GMT 51.940193 2.781503 25,025 264 359 -1536
2019-09-12 12:39:19 GMT 51.941265 2.797512 25,150 264 359 -1536
2019-09-12 12:39:16 GMT 51.941265 2.797512 25,250 264 359 -1472
2019-09-12 12:39:13 GMT 51.941872 2.806065 25,300 264 359 -1472
2019-09-12 12:39:09 GMT 51.942474 2.814619 25,450 264 360 -1472
2019-09-12 12:39:06 GMT 51.943039 2.822571 25,450 264 360 -1472
2019-09-12 12:39:01 GMT 51.943909 2.835388 25,600 264 360 -1536
2019-09-12 12:38:58 GMT 51.944412 2.842941 25,625 264 360 -1536
2019-09-12 12:38:55 GMT 51.945641 2.861625 25,775 264 360 -1536
2019-09-12 12:38:51 GMT 51.945641 2.861625 25,825 264 360 -1536
2019-09-12 12:38:48 GMT 51.946152 2.869644 26,100 264 361 -1536
2019-09-12 12:38:45 GMT 51.946712 2.877712 26,225 264 361 -1536
2019-09-12 12:38:42 GMT 51.947296 2.886810 26,025 264 361 -1536
2019-09-12 12:38:39 GMT 51.947845 2.895432 26,125 264 361 -1536
2019-09-12 12:38:35 GMT 51.948669 2.908249 26,250 264 361 -1536
2019-09-12 12:38:32 GMT 51.948994 2.913103 26,375 265 361 -1408
2019-09-12 12:38:29 GMT 51.949459 2.920637 26,350 265 360 -1472
2019-09-12 12:38:26 GMT 51.949905 2.927628 26,400 265 361 -1472
2019-09-12 12:38:23 GMT 51.950668 2.939941 26,525 265 361 -1472
2019-09-12 12:38:20 GMT 51.951088 2.946376 26,650 265 362 -1088
2019-09-12 12:38:17 GMT 51.952297 2.966858 26,700 265 361 -1216
2019-09-12 12:38:13 GMT 51.952297 2.966858 27,075 265 363 -1088
2019-09-12 12:38:09 GMT 51.953018 2.978210 26,800 265 363 -1088
2019-09-12 12:38:06 GMT 51.953339 2.983627 26,875 265 364 -1152
2019-09-12 12:38:02 GMT 51.954712 3.006439 27,175 265 365 -1152
2019-09-12 12:37:55 GMT 51.955124 3.013000 27,100 265 366 -1152
2019-09-12 12:37:52 GMT 51.955605 3.021162 27,100 265 367 -1152
2019-09-12 12:37:49 GMT 51.956207 3.031049 27,575 265 370 -1088
2019-09-12 12:37:46 GMT 51.956863 3.041458 27,300 265 369 -1088
2019-09-12 12:37:42 GMT 51.957870 3.059082 27,300 265 370 -1088
2019-09-12 12:37:39 GMT 51.957870 3.059082 27,600 265 371 -1088
2019-09-12 12:37:36 GMT 51.958347 3.067383 27,400 265 372 -1088
2019-09-12 12:37:33 GMT 51.958740 3.073502 27,600 265 374 -1088
2019-09-12 12:37:30 GMT 51.959232 3.081822 27,550 265 375 -1088
2019-09-12 12:37:27 GMT 51.959656 3.089066 27,575 265 375 -1088
2019-09-12 12:37:24 GMT 51.960396 3.100813 27,900 264 378 -1216
2019-09-12 12:37:20 GMT 51.961166 3.112564 27,700 264 379 -1280
2019-09-12 12:37:17 GMT 51.961700 3.120980 27,850 265 379 -1344
2019-09-12 12:37:14 GMT 51.962677 3.139648 27,900 268 380 -1472
2019-09-12 12:37:10 GMT 51.962677 3.139648 27,900 267 380 -1472
2019-09-12 12:37:07 GMT 51.962952 3.147583 27,975 270 382 -1408
2019-09-12 12:37:04 GMT 51.963142 3.157314 28,050 270 382 -1408
2019-09-12 12:37:01 GMT 51.963181 3.164673 28,375 272 383 -1408
2019-09-12 12:36:58 GMT 51.963135 3.172684 28,150 271 383 -1408
2019-09-12 12:36:55 GMT 51.963005 3.180150 28,625 273 383 -1536
2019-09-12 12:36:52 GMT 51.962723 3.189850 28,325 274 383 -1536
2019-09-12 12:36:49 GMT 51.962357 3.197861 28,475 278 383 -2240
2019-09-12 12:36:46 GMT 51.961842 3.206438 28,600 278 383 -2240
2019-09-12 12:36:43 GMT 51.960537 3.222447 28,675 279 384 -2240
2019-09-12 12:36:40 GMT 51.959465 3.233747 29,225 279 384 -2240
2019-09-12 12:36:37 GMT 51.959465 3.233747 29,050 279 384 -2240
2019-09-12 12:36:33 GMT 51.957745 3.251953 29,100 279 384 -2240
2019-09-12 12:36:27 GMT 51.956863 3.261566 30,050 279 385 -2176
2019-09-12 12:36:24 GMT 51.955215 3.278656 29,425 279 384 -2240
2019-09-12 12:36:21 GMT 51.955215 3.278656 29,700 279 384 -2240
2019-09-12 12:36:18 GMT 51.954437 3.286591 29,525 279 384 -2240
2019-09-12 12:36:15 GMT 51.953384 3.297958 29,675 279 384 -2240
2019-09-12 12:36:12 GMT 51.952530 3.306414 29,775 279 384 -2240
2019-09-12 12:36:08 GMT 51.951786 3.314418 29,975 279 384 -2240
2019-09-12 12:36:04 GMT 51.950527 3.328073 30,125 279 387 -1984
2019-09-12 12:36:01 GMT 51.949970 3.333723 30,300 279 385 -2176
2019-09-12 12:35:58 GMT 51.948898 3.345101 30,200 279 384 -2240
2019-09-12 12:35:54 GMT 51.947983 3.354721 30,450 279 385 -2176
2019-09-12 12:35:51 GMT 51.947315 3.362130 30,550 279 385 -2176
2019-09-12 12:35:48 GMT 51.945694 3.379745 30,600 279 385 -2112
2019-09-12 12:35:45 GMT 51.945694 3.379745 30,725 279 385 -2112
2019-09-12 12:35:42 GMT 51.944641 3.391190 30,875 279 385 -2112
2019-09-12 12:35:39 GMT 51.944057 3.397443 31,550 279 387 -1984
2019-09-12 12:35:36 GMT 51.943176 3.407135 31,025 279 386 -2048
2019-09-12 12:35:33 GMT 51.942535 3.414001 31,100 279 386 -2048
2019-09-12 12:35:30 GMT 51.940659 3.434525 31,275 279 387 -1920
2019-09-12 12:35:27 GMT 51.940659 3.434525 31,300 279 387 -1920
2019-09-12 12:35:24 GMT 51.940155 3.440247 31,525 279 388 -1984
2019-09-12 12:35:21 GMT 51.939121 3.451120 31,475 279 388 -1984
2019-09-12 12:35:18 GMT 51.937447 3.469482 31,700 279 389 -1984
2019-09-12 12:35:15 GMT 51.936676 3.478165 31,875 279 389 -1984
2019-09-12 12:35:11 GMT 51.936676 3.478165 32,025 279 390 -1856
2019-09-12 12:35:08 GMT 51.935959 3.485648 31,925 279 390 -1984
2019-09-12 12:35:05 GMT 51.935120 3.494829 32,025 279 391 -1664
2019-09-12 12:35:02 GMT 51.934067 3.506927 32,150 279 391 -1664
2019-09-12 12:34:57 GMT 51.933071 3.517901 32,250 279 393 -1408
2019-09-12 12:34:54 GMT 51.932232 3.527239 32,325 279 393 -1408
2019-09-12 12:34:51 GMT 51.931396 3.536499 32,425 279 396 -1344
2019-09-12 12:34:48 GMT 51.930588 3.545303 32,475 279 396 -1344
2019-09-12 12:34:45 GMT 51.929626 3.555832 32,550 279 398 -1472
2019-09-12 12:34:42 GMT 51.929077 3.561707 32,675 279 399 -2624
2019-09-12 12:34:39 GMT 51.928436 3.568802 33,100 279 399 -2752
2019-09-12 12:34:36 GMT 51.927158 3.582328 32,825 279 399 -2688
2019-09-12 12:34:33 GMT 51.926331 3.591232 32,925 279 399 -2688
2019-09-12 12:34:30 GMT 51.925781 3.597107 33,375 279 399 -2688
2019-09-12 12:34:27 GMT 51.925003 3.605347 33,250 279 399 -2816
2019-09-12 12:34:24 GMT 51.923996 3.615952 34,275 279 396 -960
2019-09-12 12:34:20 GMT 51.922806 3.628922 33,800 279 394 -960
2019-09-12 12:34:17 GMT 51.921295 3.645401 33,800 279 398 -2624
2019-09-12 12:34:14 GMT 51.921295 3.645401 33,900 279 397 -1792
2019-09-12 12:34:11 GMT 51.920547 3.653033 34,050 279 397 -2112
2019-09-12 12:34:08 GMT 51.919895 3.660095 34,100 279 397 -1024
2019-09-12 12:34:04 GMT 51.918503 3.674774 34,100 279 397 -1024
2019-09-12 12:34:00 GMT 51.917404 3.686523 34,225 279 396 -960
2019-09-12 12:33:57 GMT 51.916779 3.692897 34,200 279 396 -960
2019-09-12 12:33:54 GMT 51.915661 3.704668 34,250 279 396 -960
2019-09-12 12:33:51 GMT 51.914612 3.715744 34,300 279 396 -960
2019-09-12 12:33:47 GMT 51.913754 3.724522 34,700 279 393 -960
2019-09-12 12:33:44 GMT 51.912918 3.733292 34,425 280 395 -960
2019-09-12 12:33:41 GMT 51.912231 3.740234 34,475 280 394 -960
2019-09-12 12:33:38 GMT 51.911179 3.750763 34,500 279 394 -960
2019-09-12 12:33:35 GMT 51.910400 3.758850 34,600 279 394 -960
2019-09-12 12:33:32 GMT 51.909561 3.767604 34,600 279 394 -960
2019-09-12 12:33:29 GMT 51.908798 3.775177 34,650 279 393 -960
2019-09-12 12:33:26 GMT 51.907791 3.785629 34,750 279 393 -960
2019-09-12 12:33:23 GMT 51.906921 3.794937 34,775 279 393 -960
2019-09-12 12:33:19 GMT 51.905701 3.807155 34,825 280 392 -960
2019-09-12 12:33:16 GMT 51.905090 3.813477 34,875 279 389 -960
2019-09-12 12:33:13 GMT 51.904266 3.821640 34,900 280 392 -960
2019-09-12 12:33:10 GMT 51.903324 3.831482 34,975 280 392 -960
2019-09-12 12:33:07 GMT 51.902534 3.839565 35,025 279 391 -960
2019-09-12 12:33:04 GMT 51.901566 3.849335 35,125 279 391 -960
2019-09-12 12:33:01 GMT 51.900578 3.859183 35,425 279 391 -960
2019-09-12 12:32:58 GMT 51.899872 3.866653 35,125 279 391 -960
2019-09-12 12:32:54 GMT 51.899094 3.874741 35,225 279 390 -960
2019-09-12 12:32:51 GMT 51.898251 3.883432 35,250 279 390 -960
2019-09-12 12:32:48 GMT 51.897217 3.894348 35,300 279 390 -960
2019-09-12 12:32:45 GMT 51.896481 3.901794 35,350 279 389 -960
2019-09-12 12:32:42 GMT 51.895271 3.914507 35,575 279 388 -960
2019-09-12 12:32:39 GMT 51.894424 3.923111 35,450 279 389 -960
2019-09-12 12:32:36 GMT 51.892868 3.939118 35,525 279 387 -960
2019-09-12 12:32:33 GMT 51.892090 3.947135 35,625 279 387 -960
2019-09-12 12:32:30 GMT 51.891449 3.954039 35,600 280 387 -960
2019-09-12 12:32:24 GMT 51.890579 3.963169 35,700 279 387 -960
2019-09-12 12:32:21 GMT 51.889435 3.974601 35,750 279 387 -960
2019-09-12 12:32:18 GMT 51.888657 3.982618 35,775 279 387 -1024
2019-09-12 12:32:15 GMT 51.888107 3.988334 35,825 279 387 -1024
2019-09-12 12:32:12 GMT 51.887009 3.999766 35,925 280 387 -960
2019-09-12 12:32:09 GMT 51.886147 4.008331 35,925 280 387 -960
2019-09-12 12:32:06 GMT 51.885544 4.014612 36,000 280 387 -960
2019-09-12 12:32:03 GMT 51.884766 4.022629 36,025 280 387 -1024
2019-09-12 12:32:00 GMT 51.883911 4.031143 36,075 280 387 -1024
2019-09-12 12:31:57 GMT 51.883026 4.040298 36,125 280 387 -1024
2019-09-12 12:31:54 GMT 51.881958 4.050598 36,250 280 388 -1024
2019-09-12 12:31:51 GMT 51.881104 4.059226 36,225 280 388 -1024
2019-09-12 12:31:48 GMT 51.880417 4.066055 36,250 280 388 -1024
2019-09-12 12:31:44 GMT 51.879116 4.079208 36,350 280 388 -1024
2019-09-12 12:31:41 GMT 51.878326 4.087296 36,400 280 390 -1024
2019-09-12 12:31:38 GMT 51.877396 4.096451 37,125 280 392 -960
2019-09-12 12:31:35 GMT 51.876789 4.102173 36,500 280 390 -1024
2019-09-12 12:31:32 GMT 51.875610 4.114231 36,550 280 390 -1024
2019-09-12 12:31:28 GMT 51.874741 4.122849 36,600 280 391 -960
2019-09-12 12:31:25 GMT 51.873642 4.133829 36,650 280 391 -960
2019-09-12 12:31:22 GMT 51.872818 4.141920 36,700 280 391 -960
2019-09-12 12:31:19 GMT 51.872089 4.149399 36,850 280 393 -960
2019-09-12 12:31:16 GMT 51.871307 4.156915 36,800 280 392 -960
2019-09-12 12:31:13 GMT 51.870392 4.166194 36,825 280 392 -960
2019-09-12 12:31:10 GMT 51.869293 4.177170 36,900 280 393 -960
2019-09-12 12:31:07 GMT 51.867645 4.193957 36,975 280 397 -896
2019-09-12 12:31:04 GMT 51.867645 4.193957 37,000 280 394 -960
2019-09-12 12:31:01 GMT 51.866821 4.202122 37,075 280 395 -960
2019-09-12 12:30:55 GMT 51.865082 4.219567 37,175 280 396 -896
2019-09-12 12:30:52 GMT 51.864220 4.228363 37,200 280 397 -896
2019-09-12 12:30:49 GMT 51.863342 4.237085 37,200 280 392 -576
2019-09-12 12:30:46 GMT 51.861511 4.255792 37,300 280 397 -896
2019-09-12 12:30:43 GMT 51.861511 4.255792 37,325 280 397 -896
2019-09-12 12:30:40 GMT 51.859707 4.273911 37,400 280 396 -896
2019-09-12 12:30:37 GMT 51.859707 4.273911 37,400 280 395 -1024
2019-09-12 12:30:34 GMT 51.858810 4.282589 37,500 280 395 -1024
2019-09-12 12:30:31 GMT 51.857983 4.291382 37,750 280 394 -1088
2019-09-12 12:30:28 GMT 51.857346 4.297733 37,525 280 394 -1088
2019-09-12 12:30:25 GMT 51.856213 4.308777 37,550 280 394 -1088
2019-09-12 12:30:22 GMT 51.855331 4.317404 37,675 280 393 -1088
2019-09-12 12:30:19 GMT 51.854553 4.325496 37,700 280 393 -1088
2019-09-12 12:30:16 GMT 51.853729 4.333587 37,775 280 393 -1152
2019-09-12 12:30:13 GMT 51.852863 4.342270 37,825 280 392 -1088
2019-09-12 12:30:10 GMT 51.852024 4.350357 37,900 280 392 -960
2019-09-12 12:30:07 GMT 51.851231 4.358444 37,925 280 392 -768
2019-09-12 12:30:04 GMT 51.850300 4.367676 37,950 280 392 -576
2019-09-12 12:30:01 GMT 51.849369 4.376907 38,000 280 392 -64
2019-09-12 12:29:58 GMT 51.848373 4.386663 38,000 280 392 -64
2019-09-12 12:29:55 GMT 51.847778 4.392453 38,000 280 392 -64
2019-09-12 12:29:52 GMT 51.846954 4.400470 38,000 280 391 0
2019-09-12 12:29:49 GMT 51.845856 4.410862 38,000 280 391 0
2019-09-12 12:29:46 GMT 51.844116 4.428158 38,000 280 390 0
2019-09-12 12:29:43 GMT 51.844116 4.428158 38,000 280 391 0
2019-09-12 12:29:40 GMT 51.843018 4.438477 38,000 281 393 0
2019-09-12 12:29:37 GMT 51.842247 4.445953 38,000 280 391 0
2019-09-12 12:29:34 GMT 51.841461 4.453397 38,000 280 390 0
2019-09-12 12:29:31 GMT 51.840431 4.463196 38,000 280 390 0
2019-09-12 12:29:28 GMT 51.838852 4.478710 38,000 280 390 0
2019-09-12 12:29:22 GMT 51.837524 4.491330 38,000 280 390 0
2019-09-12 12:29:19 GMT 51.836929 4.497046 38,000 280 390 0
2019-09-12 12:29:16 GMT 51.835033 4.514847 38,000 280 390 0
2019-09-12 12:29:13 GMT 51.835033 4.514847 38,000 280 390 0
2019-09-12 12:29:10 GMT 51.834137 4.523472 38,000 280 390 0
2019-09-12 12:29:07 GMT 51.833450 4.530301 38,000 280 390 0
2019-09-12 12:29:04 GMT 51.832565 4.538956 38,000 280 390 0
2019-09-12 12:29:01 GMT 51.831573 4.548711 38,000 280 390 0
2019-09-12 12:28:58 GMT 51.830383 4.560143 38,000 280 390 0
2019-09-12 12:28:55 GMT 51.829926 4.564745 38,000 280 390 64
2019-09-12 12:28:52 GMT 51.827911 4.584268 38,000 280 390 0
2019-09-12 12:28:49 GMT 51.827911 4.584268 38,000 280 390 0
2019-09-12 12:28:46 GMT 51.827026 4.592896 38,000 280 390 0
2019-09-12 12:28:43 GMT 51.825439 4.608393 38,000 280 390 64
2019-09-12 12:28:40 GMT 51.825439 4.608393 38,000 280 390 64
2019-09-12 12:28:37 GMT 51.823700 4.625541 38,000 280 390 64
2019-09-12 12:28:34 GMT 51.822739 4.634746 38,000 280 390 64
2019-09-12 12:28:31 GMT 51.821953 4.642181 38,000 280 390 64
2019-09-12 12:28:28 GMT 51.820816 4.653081 38,000 280 390 64
2019-09-12 12:28:25 GMT 51.820816 4.653081 38,000 280 390 0
2019-09-12 12:28:22 GMT 51.820221 4.658797 38,000 280 390 0
2019-09-12 12:28:19 GMT 51.819065 4.669647 38,000 280 390 0
2019-09-12 12:28:16 GMT 51.817886 4.680547 38,000 280 390 0
2019-09-12 12:28:13 GMT 51.817249 4.686890 38,000 280 389 0
2019-09-12 12:28:10 GMT 51.816055 4.697769 38,000 280 390 0
2019-09-12 12:28:07 GMT 51.815460 4.703485 38,000 280 389 0
2019-09-12 12:28:04 GMT 51.813629 4.720632 38,000 280 390 0
2019-09-12 12:28:01 GMT 51.813629 4.720632 38,000 280 390 0
2019-09-12 12:27:58 GMT 51.812733 4.729233 38,000 280 390 0
2019-09-12 12:27:55 GMT 51.811848 4.737244 38,000 280 390 0
2019-09-12 12:27:52 GMT 51.810684 4.748688 38,000 280 390 0
2019-09-12 12:27:49 GMT 51.809875 4.756115 38,000 280 390 0
2019-09-12 12:27:46 GMT 51.809242 4.762421 38,000 280 390 0
2019-09-12 12:27:43 GMT 51.808319 4.771036 38,025 280 390 0
2019-09-12 12:27:40 GMT 51.807129 4.782542 38,000 280 390 0
2019-09-12 12:27:37 GMT 51.806305 4.790559 38,000 280 390 0
2019-09-12 12:27:34 GMT 51.805481 4.798576 38,000 280 390 0
2019-09-12 12:27:31 GMT 51.804726 4.805984 38,000 280 390 0
2019-09-12 12:27:28 GMT 51.802910 4.823227 38,000 280 390 0
2019-09-12 12:27:25 GMT 51.802002 4.831757 38,000 280 390 0
2019-09-12 12:27:22 GMT 51.801178 4.839849 38,000 280 390 0
2019-09-12 12:27:19 GMT 51.801178 4.839849 38,000 280 390 0
2019-09-12 12:27:16 GMT 51.800259 4.848404 38,000 280 390 0
2019-09-12 12:27:13 GMT 51.799255 4.858110 38,000 280 390 0
2019-09-12 12:27:10 GMT 51.798660 4.863826 38,000 280 390 64
2019-09-12 12:27:07 GMT 51.797424 4.875332 38,000 280 390 64
2019-09-12 12:27:04 GMT 51.795788 4.890747 38,000 280 390 0
2019-09-12 12:27:01 GMT 51.794720 4.901047 38,000 280 389 0
2019-09-12 12:26:58 GMT 51.794720 4.901047 38,000 280 390 0
2019-09-12 12:26:55 GMT 51.793461 4.912491 38,000 280 390 0
2019-09-12 12:26:52 GMT 51.792572 4.921058 38,000 280 389 0
2019-09-12 12:26:49 GMT 51.792019 4.926224 38,000 280 389 0
2019-09-12 12:26:46 GMT 51.790649 4.939394 38,000 280 389 0
2019-09-12 12:26:43 GMT 51.790054 4.945110 38,000 280 389 0
2019-09-12 12:26:40 GMT 51.789227 4.952545 38,000 280 389 0
2019-09-12 12:26:37 GMT 51.788589 4.958843 38,000 280 389 0
2019-09-12 12:26:34 GMT 51.786106 4.982300 38,000 280 389 0
2019-09-12 12:26:31 GMT 51.786106 4.982300 38,000 280 389 0
2019-09-12 12:26:28 GMT 51.784756 4.994888 38,000 280 389 0
2019-09-12 12:26:25 GMT 51.784756 4.994888 38,000 280 389 0
2019-09-12 12:26:22 GMT 51.783546 5.006332 38,000 280 389 0
2019-09-12 12:26:19 GMT 51.782661 5.014343 38,000 280 389 0
2019-09-12 12:26:16 GMT 51.781998 5.020603 38,000 280 389 0
2019-09-12 12:26:13 GMT 51.781128 5.028621 38,000 280 389 0
2019-09-12 12:26:10 GMT 51.780239 5.037155 38,000 280 389 0
2019-09-12 12:26:07 GMT 51.779297 5.045694 38,000 280 389 0
2019-09-12 12:26:04 GMT 51.778378 5.054321 38,000 280 389 0
2019-09-12 12:26:01 GMT 51.777493 5.062256 38,000 280 389 64
2019-09-12 12:25:58 GMT 51.776321 5.073160 38,000 280 389 64
2019-09-12 12:25:55 GMT 51.775589 5.079989 38,000 280 389 64
2019-09-12 12:25:52 GMT 51.774353 5.091421 38,000 280 389 0
2019-09-12 12:25:49 GMT 51.773445 5.100021 38,000 280 389 0
2019-09-12 12:25:46 GMT 51.772697 5.106812 38,000 280 389 0
2019-09-12 12:25:43 GMT 51.770836 5.123978 38,000 280 390 0
2019-09-12 12:25:37 GMT 51.769718 5.134277 38,000 280 390 0
2019-09-12 12:25:34 GMT 51.768951 5.141750 38,000 280 390 0
2019-09-12 12:25:31 GMT 51.768139 5.149155 38,000 280 390 0
2019-09-12 12:25:28 GMT 51.767212 5.157784 38,000 280 390 0
2019-09-12 12:25:25 GMT 51.765335 5.174932 38,000 280 391 0
2019-09-12 12:25:19 GMT 51.764275 5.184631 38,000 280 391 0
2019-09-12 12:25:16 GMT 51.763527 5.191498 38,000 281 390 0
2019-09-12 12:25:13 GMT 51.762451 5.201284 38,000 281 390 0
2019-09-12 12:25:10 GMT 51.761478 5.209885 38,000 281 390 0
2019-09-12 12:25:06 GMT 51.759293 5.229863 38,000 281 390 64
2019-09-12 12:25:03 GMT 51.759293 5.229863 38,000 281 392 0
2019-09-12 12:25:00 GMT 51.758011 5.241369 38,000 280 391 0
2019-09-12 12:24:56 GMT 51.756912 5.251688 38,000 281 390 0
2019-09-12 12:24:53 GMT 51.756218 5.257950 38,000 280 391 0
2019-09-12 12:24:50 GMT 51.754917 5.269470 38,000 280 391 0
2019-09-12 12:24:47 GMT 51.754349 5.274625 38,000 280 391 0
2019-09-12 12:24:44 GMT 51.753288 5.284348 38,000 280 391 0
2019-09-12 12:24:41 GMT 51.752171 5.294724 38,000 280 391 0
2019-09-12 12:24:38 GMT 51.751236 5.303279 38,000 280 391 0
2019-09-12 12:24:35 GMT 51.750401 5.310745 38,000 280 391 0
2019-09-12 12:24:32 GMT 51.749451 5.319387 38,000 281 392 0
2019-09-12 12:24:29 GMT 51.748631 5.326843 38,000 281 393 0
2019-09-12 12:24:26 GMT 51.747528 5.336609 38,000 281 392 0
2019-09-12 12:24:23 GMT 51.746582 5.345230 38,000 281 393 0
2019-09-12 12:24:20 GMT 51.745514 5.355018 38,000 281 393 0
2019-09-12 12:24:17 GMT 51.744675 5.362473 38,000 281 393 0
2019-09-12 12:24:14 GMT 51.743729 5.371127 38,000 281 393 0
2019-09-12 12:24:11 GMT 51.742722 5.380332 38,000 281 393 0
2019-09-12 12:24:08 GMT 51.741741 5.388947 38,000 281 393 0
2019-09-12 12:24:05 GMT 51.741165 5.394139 38,000 281 393 0
2019-09-12 12:24:02 GMT 51.740295 5.402156 38,000 281 393 0
2019-09-12 12:23:59 GMT 51.738949 5.414276 38,000 281 393 0
2019-09-12 12:23:55 GMT 51.737869 5.424054 38,000 281 394 0
2019-09-12 12:23:52 GMT 51.736622 5.434952 38,000 281 394 0
2019-09-12 12:23:49 GMT 51.735970 5.440750 38,000 281 394 0
2019-09-12 12:23:46 GMT 51.734943 5.449982 38,000 281 394 0
2019-09-12 12:23:43 GMT 51.733921 5.459213 38,000 281 394 0
2019-09-12 12:23:40 GMT 51.731964 5.476456 38,000 281 394 0
2019-09-12 12:23:37 GMT 51.731964 5.476456 38,000 281 394 0
2019-09-12 12:23:33 GMT 51.730709 5.488052 38,000 281 394 0
2019-09-12 12:23:30 GMT 51.728806 5.504744 38,000 281 394 0
2019-09-12 12:23:27 GMT 51.727497 5.516891 38,000 281 394 0
2019-09-12 12:23:24 GMT 51.727497 5.516891 38,000 281 394 0
2019-09-12 12:23:21 GMT 51.725876 5.531319 38,000 281 395 0
2019-09-12 12:23:18 GMT 51.725876 5.531319 38,000 281 395 0
2019-09-12 12:23:15 GMT 51.724655 5.542297 38,000 281 395 0
2019-09-12 12:23:12 GMT 51.724007 5.548019 38,000 281 395 0
2019-09-12 12:23:09 GMT 51.722900 5.557820 38,000 281 395 0
2019-09-12 12:23:06 GMT 51.722050 5.565338 38,000 281 395 0
2019-09-12 12:23:03 GMT 51.720097 5.582657 38,000 281 395 0
2019-09-12 12:22:57 GMT 51.718929 5.593033 38,000 281 395 0
2019-09-12 12:22:53 GMT 51.717487 5.605774 38,000 281 395 0
2019-09-12 12:22:50 GMT 51.716835 5.611572 38,000 281 395 0
2019-09-12 12:22:47 GMT 51.714741 5.630035 38,000 281 396 0
2019-09-12 12:22:44 GMT 51.713654 5.639846 38,000 281 395 64
2019-09-12 12:22:41 GMT 51.713654 5.639846 38,000 281 395 64
2019-09-12 12:22:37 GMT 51.711548 5.658330 38,000 281 395 0
2019-09-12 12:22:31 GMT 51.710770 5.665234 38,000 281 396 0
2019-09-12 12:22:28 GMT 51.708664 5.683792 38,000 281 395 0
2019-09-12 12:22:25 GMT 51.708664 5.683792 38,000 281 397 0
2019-09-12 12:22:22 GMT 51.707294 5.695953 38,000 281 396 0
2019-09-12 12:22:19 GMT 51.706455 5.702896 38,000 281 396 0
2019-09-12 12:22:16 GMT 51.705711 5.709839 38,000 281 396 0
2019-09-12 12:22:13 GMT 51.704453 5.720833 38,000 281 396 0
2019-09-12 12:22:10 GMT 51.703125 5.732414 38,000 281 396 0
2019-09-12 12:22:07 GMT 51.701385 5.747408 38,000 281 396 0
2019-09-12 12:22:04 GMT 51.701385 5.747408 38,000 281 396 0
2019-09-12 12:22:01 GMT 51.700401 5.756149 38,000 281 396 0
2019-09-12 12:21:58 GMT 51.699612 5.763092 38,000 281 396 0
2019-09-12 12:21:55 GMT 51.698639 5.771757 38,000 281 396 0
2019-09-12 12:21:52 GMT 51.697517 5.781631 38,000 281 397 0
2019-09-12 12:21:49 GMT 51.696350 5.791502 38,000 281 396 0
2019-09-12 12:21:46 GMT 51.695747 5.796661 38,000 281 396 0
2019-09-12 12:21:43 GMT 51.694656 5.806571 38,000 281 397 0
2019-09-12 12:21:40 GMT 51.693695 5.814663 38,000 281 397 0
2019-09-12 12:21:37 GMT 51.692368 5.826243 38,000 281 397 0
2019-09-12 12:21:34 GMT 51.691792 5.831528 38,000 281 397 0
2019-09-12 12:21:31 GMT 51.690582 5.841904 38,000 281 397 0
2019-09-12 12:21:28 GMT 51.689510 5.851212 38,000 281 397 0
2019-09-12 12:21:25 GMT 51.688477 5.859944 38,000 281 397 0
2019-09-12 12:21:22 GMT 51.687836 5.865734 38,000 281 397 0
2019-09-12 12:21:19 GMT 51.686668 5.875626 38,000 281 397 0
2019-09-12 12:21:16 GMT 51.685879 5.882568 38,000 281 397 64
2019-09-12 12:21:13 GMT 51.684448 5.894759 38,000 281 397 0
2019-09-12 12:21:09 GMT 51.683121 5.906339 38,000 281 397 0
2019-09-12 12:21:06 GMT 51.682434 5.912203 38,000 281 398 0
2019-09-12 12:21:03 GMT 51.681316 5.922012 38,000 281 397 0
2019-09-12 12:21:00 GMT 51.679779 5.935438 38,000 281 397 0
2019-09-12 12:20:57 GMT 51.678200 5.948792 38,000 281 398 0
2019-09-12 12:20:51 GMT 51.677406 5.955734 38,000 281 398 0
2019-09-12 12:20:48 GMT 51.675293 5.973742 38,000 281 398 64
2019-09-12 12:20:45 GMT 51.674149 5.983658 38,000 281 398 0
2019-09-12 12:20:42 GMT 51.674149 5.983658 38,000 281 398 0
2019-09-12 12:20:39 GMT 51.673004 5.993562 38,000 281 398 0
2019-09-12 12:20:36 GMT 51.672005 6.002274 38,000 281 398 0
2019-09-12 12:20:33 GMT 51.671028 6.010437 38,000 281 398 0
2019-09-12 12:20:30 GMT 51.670097 6.018524 38,000 281 398 0
2019-09-12 12:20:27 GMT 51.669067 6.027263 38,000 281 398 64
2019-09-12 12:20:24 GMT 51.668049 6.035995 38,000 281 398 64
2019-09-12 12:20:21 GMT 51.667118 6.044159 38,000 281 398 0
2019-09-12 12:20:18 GMT 51.665768 6.055832 38,000 281 398 0
2019-09-12 12:20:15 GMT 51.664928 6.062775 38,000 281 398 0
2019-09-12 12:20:12 GMT 51.663895 6.071505 38,000 281 398 0
2019-09-12 12:20:09 GMT 51.663021 6.079102 38,000 281 398 0
2019-09-12 12:20:06 GMT 51.661812 6.089554 38,000 281 398 0
2019-09-12 12:20:03 GMT 51.659996 6.104660 38,000 281 398 0
2019-09-12 12:19:57 GMT 51.658646 6.116333 38,000 281 398 0
2019-09-12 12:19:54 GMT 51.657856 6.123276 38,000 281 398 0
2019-09-12 12:19:51 GMT 51.656662 6.133192 38,000 281 398 0
2019-09-12 12:19:45 GMT 51.654549 6.151199 38,000 281 399 0
2019-09-12 12:19:42 GMT 51.653687 6.158728 38,000 281 399 0
2019-09-12 12:19:39 GMT 51.652920 6.165161 38,000 281 398 0
2019-09-12 12:19:36 GMT 51.651764 6.175059 38,000 281 398 0
2019-09-12 12:19:33 GMT 51.650593 6.184998 38,000 281 398 -64
2019-09-12 12:19:30 GMT 51.649612 6.193691 38,000 281 398 -64
2019-09-12 12:19:27 GMT 51.648453 6.203613 38,000 281 398 0
2019-09-12 12:19:24 GMT 51.647472 6.211777 38,000 281 398 0
2019-09-12 12:19:21 GMT 51.645538 6.228654 38,000 281 398 0
2019-09-12 12:19:15 GMT 51.644634 6.236191 38,000 281 398 0
2019-09-12 12:19:12 GMT 51.643661 6.244911 38,000 281 398 64
2019-09-12 12:19:09 GMT 51.642490 6.254807 38,000 281 398 64
2019-09-12 12:19:06 GMT 51.640274 6.274010 38,000 281 398 64
2019-09-12 12:19:03 GMT 51.640274 6.274010 38,000 281 398 0
2019-09-12 12:19:00 GMT 51.639420 6.281586 38,000 281 398 0
2019-09-12 12:18:57 GMT 51.637512 6.297836 38,000 281 398 0
2019-09-12 12:18:54 GMT 51.637512 6.297836 38,000 281 399 0
2019-09-12 12:18:51 GMT 51.636475 6.306598 38,000 281 399 64
2019-09-12 12:18:48 GMT 51.635277 6.316452 38,000 281 399 64
2019-09-12 12:18:45 GMT 51.634369 6.324042 38,000 281 399 64
2019-09-12 12:18:42 GMT 51.633461 6.331558 38,000 282 399 0
2019-09-12 12:18:39 GMT 51.632202 6.342087 38,000 282 399 0
2019-09-12 12:18:36 GMT 51.631367 6.349030 38,000 282 399 0
2019-09-12 12:18:33 GMT 51.630203 6.358337 38,000 282 399 0
2019-09-12 12:18:30 GMT 51.628876 6.369398 38,000 282 399 0
2019-09-12 12:18:27 GMT 51.628201 6.374588 38,000 282 399 0
2019-09-12 12:18:24 GMT 51.626724 6.386842 38,000 282 399 0
2019-09-12 12:18:21 GMT 51.624664 6.403732 38,000 282 399 0
2019-09-12 12:18:18 GMT 51.624664 6.403732 38,000 282 399 0
2019-09-12 12:18:15 GMT 51.623749 6.411265 38,000 281 399 64
2019-09-12 12:18:12 GMT 51.622849 6.418839 38,000 282 399 0
2019-09-12 12:18:09 GMT 51.621368 6.431085 38,000 281 399 64
2019-09-12 12:18:06 GMT 51.620636 6.436875 38,000 281 399 64
2019-09-12 12:18:03 GMT 51.618332 6.456070 38,000 281 400 64
2019-09-12 12:18:00 GMT 51.618332 6.456070 38,000 281 400 0
2019-09-12 12:17:57 GMT 51.617355 6.464233 38,000 281 400 0
2019-09-12 12:17:54 GMT 51.615398 6.480484 38,000 281 400 0
2019-09-12 12:17:48 GMT 51.613350 6.497955 38,000 281 400 64
2019-09-12 12:17:45 GMT 51.613350 6.497955 38,000 281 400 0
2019-09-12 12:17:42 GMT 51.612232 6.507263 38,000 281 400 0
2019-09-12 12:17:38 GMT 51.610748 6.519495 38,000 281 400 0
2019-09-12 12:17:35 GMT 51.609581 6.529388 38,000 281 400 64
2019-09-12 12:17:32 GMT 51.608742 6.536407 38,000 281 400 64
2019-09-12 12:17:29 GMT 51.607437 6.546860 38,000 281 400 64
2019-09-12 12:17:26 GMT 51.606739 6.552658 38,000 282 399 0
2019-09-12 12:17:23 GMT 51.605438 6.563737 38,000 281 400 0
2019-09-12 12:17:20 GMT 51.604225 6.573639 38,000 281 400 0
2019-09-12 12:17:17 GMT 51.603107 6.582947 38,000 281 400 0
2019-09-12 12:17:11 GMT 51.601524 6.595764 38,000 282 399 0
2019-09-12 12:17:08 GMT 51.600082 6.607979 38,000 281 400 0
2019-09-12 12:17:05 GMT 51.599293 6.614380 38,000 281 400 0
2019-09-12 12:17:02 GMT 51.597977 6.625424 38,000 281 400 0
2019-09-12 12:16:59 GMT 51.597198 6.631775 38,000 281 400 0
2019-09-12 12:16:56 GMT 51.595753 6.643448 38,000 281 400 0
2019-09-12 12:16:53 GMT 51.594776 6.651611 38,000 281 399 0
2019-09-12 12:16:50 GMT 51.593994 6.658012 38,000 281 399 0
2019-09-12 12:16:47 GMT 51.592960 6.666718 38,000 282 399 0
2019-09-12 12:16:44 GMT 51.591751 6.676570 38,000 282 399 0
2019-09-12 12:16:41 GMT 51.590542 6.686478 38,000 282 399 0
2019-09-12 12:16:38 GMT 51.589561 6.694565 38,000 282 399 0
2019-09-12 12:16:32 GMT 51.587219 6.713760 38,000 282 399 0
2019-09-12 12:16:29 GMT 51.586582 6.718979 38,000 282 399 0
2019-09-12 12:16:26 GMT 51.585205 6.730017 38,000 282 399 0
2019-09-12 12:16:23 GMT 51.584118 6.738739 38,000 282 399 0
2019-09-12 12:16:20 GMT 51.583054 6.747461 38,000 282 399 0
2019-09-12 12:16:17 GMT 51.582184 6.754439 38,000 282 399 0
2019-09-12 12:16:14 GMT 51.581177 6.762605 38,000 282 399 0
2019-09-12 12:16:10 GMT 51.578705 6.782350 38,000 282 399 0
2019-09-12 12:16:07 GMT 51.578705 6.782350 38,000 282 399 0
2019-09-12 12:16:04 GMT 51.577366 6.793365 38,000 282 399 0
2019-09-12 12:16:00 GMT 51.576061 6.803818 38,000 282 399 0
2019-09-12 12:15:57 GMT 51.574997 6.812563 38,000 282 399 0
2019-09-12 12:15:54 GMT 51.573593 6.823578 38,000 282 399 0
2019-09-12 12:15:51 GMT 51.572525 6.832234 38,000 282 399 0
2019-09-12 12:15:48 GMT 51.570618 6.847916 38,000 282 399 64
2019-09-12 12:15:42 GMT 51.569824 6.854355 38,000 282 399 64
2019-09-12 12:15:38 GMT 51.568222 6.867123 38,000 282 399 0
2019-09-12 12:15:35 GMT 51.567169 6.875839 38,000 282 399 64
2019-09-12 12:15:32 GMT 51.566193 6.883926 38,000 282 399 0
2019-09-12 12:15:29 GMT 51.564053 6.901398 38,000 282 399 0
2019-09-12 12:15:26 GMT 51.562611 6.912994 38,000 282 399 0
2019-09-12 12:15:23 GMT 51.562611 6.912994 38,000 282 399 64
2019-09-12 12:15:20 GMT 51.561630 6.921082 38,000 282 399 0
2019-09-12 12:15:17 GMT 51.560852 6.927474 38,000 282 399 0
2019-09-12 12:15:14 GMT 51.559433 6.939054 38,000 282 399 64
2019-09-12 12:15:11 GMT 51.558372 6.947784 38,000 282 398 64
2019-09-12 12:15:08 GMT 51.557346 6.955872 38,000 282 398 64
2019-09-12 12:15:05 GMT 51.555347 6.972122 38,000 282 399 0
2019-09-12 12:15:02 GMT 51.555347 6.972122 38,000 282 399 64
2019-09-12 12:14:59 GMT 51.554260 6.980772 38,000 282 399 0
2019-09-12 12:14:56 GMT 51.553158 6.989517 38,000 282 398 0
2019-09-12 12:14:53 GMT 51.551056 7.006308 38,000 282 398 0
2019-09-12 12:14:47 GMT 51.550049 7.014399 38,000 282 398 0
2019-09-12 12:14:44 GMT 51.548550 7.026596 38,000 282 398 0
2019-09-12 12:14:40 GMT 51.547302 7.036446 38,000 282 398 0
2019-09-12 12:14:37 GMT 51.546295 7.044538 38,000 282 399 0
2019-09-12 12:14:34 GMT 51.545425 7.051515 38,000 282 398 0
2019-09-12 12:14:31 GMT 51.543289 7.068253 38,000 282 398 0
2019-09-12 12:14:25 GMT 51.541763 7.080466 38,000 282 399 0
2019-09-12 12:14:21 GMT 51.540218 7.092590 38,000 282 399 0
2019-09-12 12:14:18 GMT 51.538971 7.102438 38,000 282 399 0
2019-09-12 12:14:15 GMT 51.537983 7.109909 38,000 282 399 0
2019-09-12 12:14:12 GMT 51.537098 7.116852 38,000 282 399 0
2019-09-12 12:14:08 GMT 51.535538 7.129013 38,000 282 399 0
2019-09-12 12:14:05 GMT 51.533340 7.146384 38,000 282 399 0
2019-09-12 12:13:59 GMT 51.531048 7.164307 38,000 282 399 0
2019-09-12 12:13:56 GMT 51.529835 7.173538 38,000 282 398 0
2019-09-12 12:13:53 GMT 51.528580 7.183425 38,000 282 398 0
2019-09-12 12:13:50 GMT 51.528580 7.183425 38,000 282 399 0
2019-09-12 12:13:47 GMT 51.527847 7.189141 38,000 282 398 0
2019-09-12 12:13:44 GMT 51.526577 7.199020 38,000 282 398 0
2019-09-12 12:13:41 GMT 51.525787 7.205324 38,000 282 398 0
2019-09-12 12:13:38 GMT 51.524670 7.213974 38,000 282 398 0
2019-09-12 12:13:35 GMT 51.523178 7.225571 38,000 282 398 0
2019-09-12 12:13:32 GMT 51.521164 7.241104 38,000 282 398 0
2019-09-12 12:13:29 GMT 51.521164 7.241104 38,000 282 398 0
2019-09-12 12:13:25 GMT 51.519516 7.253797 38,000 282 398 0
2019-09-12 12:13:22 GMT 51.518509 7.261889 38,000 282 398 0
2019-09-12 12:13:19 GMT 51.517361 7.270584 38,000 282 398 0
2019-09-12 12:13:15 GMT 51.515945 7.281486 38,000 282 398 64
2019-09-12 12:13:12 GMT 51.513821 7.298203 38,000 282 398 0
2019-09-12 12:13:06 GMT 51.513016 7.304572 38,000 282 397 64
2019-09-12 12:13:03 GMT 51.511826 7.313851 38,000 282 398 0
2019-09-12 12:13:00 GMT 51.509075 7.335129 38,000 282 398 0
2019-09-12 12:12:54 GMT 51.506840 7.352448 38,000 282 398 0
2019-09-12 12:12:51 GMT 51.506840 7.352448 38,000 282 398 0
2019-09-12 12:12:47 GMT 51.505737 7.361137 38,000 282 398 0
2019-09-12 12:12:44 GMT 51.504410 7.371529 38,000 282 398 0
2019-09-12 12:12:41 GMT 51.503082 7.381922 38,000 282 398 0
2019-09-12 12:12:38 GMT 51.502350 7.387712 38,000 282 397 0
2019-09-12 12:12:34 GMT 51.500885 7.399218 38,000 282 398 0
2019-09-12 12:12:31 GMT 51.499878 7.407309 38,000 282 398 0
2019-09-12 12:12:28 GMT 51.498459 7.418289 38,000 282 397 0
2019-09-12 12:12:25 GMT 51.496490 7.433884 38,000 282 398 0
2019-09-12 12:12:19 GMT 51.495438 7.441975 38,000 282 398 0
2019-09-12 12:12:16 GMT 51.494503 7.449417 38,000 282 398 0
2019-09-12 12:12:13 GMT 51.493153 7.459793 38,000 282 398 0
2019-09-12 12:12:09 GMT 51.491524 7.472458 38,000 282 398 0
2019-09-12 12:12:03 GMT 51.489395 7.489187 38,000 282 397 0
2019-09-12 12:12:00 GMT 51.488663 7.494977 38,000 282 397 0
2019-09-12 12:11:57 GMT 51.487240 7.505875 38,000 282 397 0
2019-09-12 12:11:53 GMT 51.485825 7.516801 38,000 282 398 0
2019-09-12 12:11:50 GMT 51.484497 7.527194 38,000 282 397 64
2019-09-12 12:11:46 GMT 51.481888 7.547302 38,000 282 397 -64
2019-09-12 12:11:43 GMT 51.481888 7.547302 38,000 282 397 -64
2019-09-12 12:11:40 GMT 51.480862 7.555313 38,000 282 398 0
2019-09-12 12:11:37 GMT 51.479374 7.566833 38,000 282 397 64
2019-09-12 12:11:31 GMT 51.476349 7.589798 38,000 282 396 64
2019-09-12 12:11:28 GMT 51.475250 7.598382 38,000 282 397 64
2019-09-12 12:11:25 GMT 51.475250 7.598382 38,000 282 397 0
2019-09-12 12:11:22 GMT 51.473927 7.608185 38,000 282 397 0
2019-09-12 12:11:19 GMT 51.471771 7.624809 38,000 282 397 0
2019-09-12 12:11:16 GMT 51.471771 7.624809 38,000 282 397 0
2019-09-12 12:11:13 GMT 51.470856 7.631712 38,000 282 397 0
2019-09-12 12:11:10 GMT 51.469482 7.642030 38,000 283 398 0
2019-09-12 12:11:07 GMT 51.468479 7.649536 38,000 282 398 0
2019-09-12 12:11:04 GMT 51.467129 7.659836 38,000 282 397 0
2019-09-12 12:11:01 GMT 51.464989 7.676010 38,000 282 398 0
2019-09-12 12:10:55 GMT 51.463638 7.686386 38,000 282 398 0
2019-09-12 12:10:52 GMT 51.462524 7.694958 38,000 283 398 0
2019-09-12 12:10:49 GMT 51.461609 7.701861 38,000 282 398 0
2019-09-12 12:10:46 GMT 51.460285 7.711716 38,000 282 398 0
2019-09-12 12:10:43 GMT 51.458332 7.726669 38,000 283 398 0
2019-09-12 12:10:37 GMT 51.457169 7.735340 38,000 283 398 0
2019-09-12 12:10:34 GMT 51.454327 7.756653 38,000 283 398 0
2019-09-12 12:10:30 GMT 51.454327 7.756653 38,000 282 399 0
2019-09-12 12:10:27 GMT 51.453323 7.764142 38,000 283 398 0
2019-09-12 12:10:24 GMT 51.452187 7.772751 38,000 282 399 0
2019-09-12 12:10:21 GMT 51.450790 7.783127 38,000 282 399 0
2019-09-12 12:10:18 GMT 51.449718 7.791214 38,000 282 399 0
2019-09-12 12:10:15 GMT 51.448883 7.797621 38,000 282 399 0
2019-09-12 12:10:12 GMT 51.447437 7.808533 38,000 282 399 0
2019-09-12 12:10:09 GMT 51.445953 7.819519 38,000 282 399 0
2019-09-12 12:10:04 GMT 51.444397 7.831099 38,000 282 399 0
2019-09-12 12:10:01 GMT 51.442886 7.842679 38,000 283 400 0
2019-09-12 12:09:58 GMT 51.442177 7.847824 38,000 282 400 0
2019-09-12 12:09:55 GMT 51.441010 7.856561 38,000 283 400 0
2019-09-12 12:09:52 GMT 51.438313 7.876740 38,000 283 400 64
2019-09-12 12:09:49 GMT 51.437569 7.882538 38,000 283 402 -64
2019-09-12 12:09:43 GMT 51.436066 7.893528 38,000 283 400 0
2019-09-12 12:09:40 GMT 51.433777 7.910899 38,000 283 400 0
2019-09-12 12:09:37 GMT 51.432915 7.917252 38,000 283 400 64
2019-09-12 12:09:31 GMT 51.431656 7.926483 38,000 283 400 64
2019-09-12 12:09:28 GMT 51.430481 7.935172 38,000 283 400 64
2019-09-12 12:09:25 GMT 51.429005 7.946167 38,000 283 400 64
2019-09-12 12:09:22 GMT 51.428261 7.951965 38,000 283 400 64
2019-09-12 12:09:19 GMT 51.426910 7.961822 38,000 283 402 0
2019-09-12 12:09:16 GMT 51.426071 7.968216 38,000 283 402 64
2019-09-12 12:09:13 GMT 51.424576 7.979266 38,000 283 402 -64
2019-09-12 12:09:10 GMT 51.422195 7.996636 38,000 283 403 0
2019-09-12 12:09:07 GMT 51.422195 7.996636 38,000 283 403 0
2019-09-12 12:09:03 GMT 51.420502 8.009404 38,000 283 402 64
2019-09-12 12:09:00 GMT 51.419319 8.018112 38,000 283 409 0
2019-09-12 12:08:56 GMT 51.416668 8.037872 38,000 283 403 0
2019-09-12 12:08:53 GMT 51.416668 8.037872 38,000 283 403 0
2019-09-12 12:08:50 GMT 51.415466 8.046595 38,000 283 403 0
2019-09-12 12:08:47 GMT 51.413269 8.062851 38,000 283 404 0
2019-09-12 12:08:44 GMT 51.412033 8.072130 38,000 283 403 0
2019-09-12 12:08:41 GMT 51.412033 8.072130 38,000 283 403 0
2019-09-12 12:08:38 GMT 51.410847 8.080826 38,000 283 403 0
2019-09-12 12:08:35 GMT 51.409592 8.090210 38,000 283 404 0
2019-09-12 12:08:32 GMT 51.408798 8.096008 38,000 283 404 0
2019-09-12 12:08:29 GMT 51.407402 8.106461 38,000 283 404 0
2019-09-12 12:08:26 GMT 51.406219 8.115185 38,000 283 404 0
2019-09-12 12:08:23 GMT 51.404846 8.125652 38,000 283 404 0
2019-09-12 12:08:20 GMT 51.403748 8.133817 38,000 283 404 0
2019-09-12 12:08:16 GMT 51.400841 8.155365 38,000 283 404 0
2019-09-12 12:08:10 GMT 51.398712 8.171082 38,000 283 405 64
2019-09-12 12:08:04 GMT 51.396557 8.186874 38,000 283 404 0
2019-09-12 12:07:58 GMT 51.395161 8.197327 38,000 283 404 0
2019-09-12 12:07:55 GMT 51.393719 8.207855 38,000 283 404 0
2019-09-12 12:07:52 GMT 51.392487 8.216586 38,000 283 404 0
2019-09-12 12:07:49 GMT 51.391296 8.225327 38,000 283 404 0
2019-09-12 12:07:46 GMT 51.390366 8.232346 38,000 283 405 0
2019-09-12 12:07:43 GMT 51.389328 8.239895 38,000 283 405 0
2019-09-12 12:07:40 GMT 51.386688 8.259201 38,000 283 405 64
2019-09-12 12:07:37 GMT 51.386688 8.259201 38,000 283 405 0
2019-09-12 12:07:34 GMT 51.385571 8.267365 38,000 283 405 64
2019-09-12 12:07:31 GMT 51.384384 8.276120 38,000 283 405 64
2019-09-12 12:07:28 GMT 51.381683 8.295940 38,000 283 405 64
2019-09-12 12:07:25 GMT 51.381683 8.295940 38,000 283 405 0
2019-09-12 12:07:22 GMT 51.380775 8.302383 38,000 283 405 0
2019-09-12 12:07:19 GMT 51.379898 8.308782 38,000 283 405 0
2019-09-12 12:07:16 GMT 51.378159 8.321624 38,000 283 405 0
2019-09-12 12:07:13 GMT 51.377197 8.328676 38,000 283 405 0
2019-09-12 12:07:10 GMT 51.376167 8.336258 38,000 283 405 64
2019-09-12 12:07:07 GMT 51.373489 8.355548 38,000 283 406 0
2019-09-12 12:07:01 GMT 51.371246 8.371953 38,000 283 406 0
2019-09-12 12:06:55 GMT 51.370068 8.380737 38,000 283 406 0
2019-09-12 12:06:52 GMT 51.368767 8.390121 38,000 283 407 0
2019-09-12 12:06:49 GMT 51.367649 8.398285 38,000 283 406 0
2019-09-12 12:06:46 GMT 51.366440 8.407065 38,000 283 406 0
2019-09-12 12:06:43 GMT 51.365112 8.416418 38,000 283 406 0
2019-09-12 12:06:39 GMT 51.363598 8.427582 38,000 283 407 0
2019-09-12 12:06:36 GMT 51.362366 8.436387 38,000 283 409 0
2019-09-12 12:06:33 GMT 51.361038 8.445740 38,000 283 407 0
2019-09-12 12:06:30 GMT 51.359573 8.456281 38,000 283 407 0
2019-09-12 12:06:24 GMT 51.357468 8.471572 38,000 283 407 0
2019-09-12 12:06:21 GMT 51.356323 8.479812 38,000 283 407 0
2019-09-12 12:06:18 GMT 51.354996 8.489165 38,000 283 407 0
2019-09-12 12:06:15 GMT 51.353916 8.496780 38,000 283 407 0
2019-09-12 12:06:12 GMT 51.352100 8.509750 38,000 283 407 0
2019-09-12 12:06:09 GMT 51.350235 8.523238 38,000 283 408 0
2019-09-12 12:06:03 GMT 51.348656 8.534393 38,000 283 407 0
2019-09-12 12:06:00 GMT 51.347580 8.542019 38,000 283 407 0
2019-09-12 12:05:57 GMT 51.346512 8.549652 38,000 283 407 64
2019-09-12 12:05:54 GMT 51.344700 8.562546 38,000 283 409 0
2019-09-12 12:05:50 GMT 51.343067 8.574295 38,000 283 408 0
2019-09-12 12:05:46 GMT 51.341858 8.583143 38,000 283 408 0
2019-09-12 12:05:43 GMT 51.339622 8.598938 38,000 283 409 0
2019-09-12 12:05:40 GMT 51.338135 8.609543 38,000 283 409 0
2019-09-12 12:05:37 GMT 51.338135 8.609543 38,000 283 409 0
2019-09-12 12:05:34 GMT 51.336784 8.618927 38,000 283 409 0
2019-09-12 12:05:31 GMT 51.335220 8.630132 38,000 283 409 64
2019-09-12 12:05:28 GMT 51.334579 8.634809 38,000 283 409 0
2019-09-12 12:05:25 GMT 51.332966 8.645935 38,000 283 409 0
2019-09-12 12:05:22 GMT 51.331741 8.654777 38,000 283 409 0
2019-09-12 12:05:19 GMT 51.330685 8.662415 38,000 283 409 64
2019-09-12 12:05:16 GMT 51.329521 8.670654 38,000 283 409 0
2019-09-12 12:05:13 GMT 51.327759 8.682985 38,000 283 409 0
2019-09-12 12:05:09 GMT 51.325150 8.701766 38,000 283 409 64
2019-09-12 12:05:06 GMT 51.325150 8.701766 38,000 283 409 0
2019-09-12 12:05:03 GMT 51.323891 8.710556 38,000 283 409 0
2019-09-12 12:04:59 GMT 51.322212 8.722305 38,000 283 409 0
2019-09-12 12:04:56 GMT 51.320801 8.732275 38,000 283 409 64
2019-09-12 12:04:53 GMT 51.319557 8.741150 38,000 283 409 0
2019-09-12 12:04:47 GMT 51.317505 8.755807 38,000 283 409 64
2019-09-12 12:04:44 GMT 51.316116 8.765793 38,000 283 409 64
2019-09-12 12:04:41 GMT 51.314625 8.776398 38,000 283 409 64
2019-09-12 12:04:38 GMT 51.313339 8.785202 38,000 283 409 0
2019-09-12 12:04:35 GMT 51.312435 8.791656 38,000 283 409 0
2019-09-12 12:04:32 GMT 51.309784 8.810425 38,000 283 408 0
2019-09-12 12:04:29 GMT 51.309784 8.810425 38,000 283 408 0
2019-09-12 12:04:26 GMT 51.308533 8.819201 38,000 283 408 0
2019-09-12 12:04:23 GMT 51.307526 8.826253 38,000 283 408 64
2019-09-12 12:04:19 GMT 51.305920 8.837357 38,000 283 408 0
2019-09-12 12:04:16 GMT 51.304245 8.849106 38,000 283 408 64
2019-09-12 12:04:13 GMT 51.302895 8.858490 38,000 283 408 64
2019-09-12 12:04:10 GMT 51.301620 8.867303 38,000 283 408 0
2019-09-12 12:04:07 GMT 51.301033 8.871384 38,000 283 409 0
2019-09-12 12:04:04 GMT 51.299286 8.883708 38,000 283 409 0
2019-09-12 12:04:01 GMT 51.297958 8.893061 38,000 283 409 0
2019-09-12 12:03:58 GMT 51.296951 8.900113 38,000 283 409 0
2019-09-12 12:03:55 GMT 51.295677 8.908920 38,000 283 409 0
2019-09-12 12:03:51 GMT 51.293793 8.922457 38,000 283 409 0
2019-09-12 12:03:47 GMT 51.292603 8.930697 38,000 283 409 0
2019-09-12 12:03:44 GMT 51.291023 8.941803 38,000 283 409 0
2019-09-12 12:03:41 GMT 51.290131 8.948290 38,000 283 409 0
2019-09-12 12:03:38 GMT 51.288181 8.961792 38,000 283 409 0
2019-09-12 12:03:35 GMT 51.287292 8.968258 38,000 283 409 0
2019-09-12 12:03:32 GMT 51.286102 8.976498 38,000 283 409 0
2019-09-12 12:03:29 GMT 51.284912 8.984738 38,000 283 409 0
2019-09-12 12:03:26 GMT 51.283340 8.995895 38,000 284 405 0
2019-09-12 12:03:23 GMT 51.282578 9.001143 38,000 283 409 0
2019-09-12 12:03:20 GMT 51.280968 9.012299 38,000 283 409 0
2019-09-12 12:03:17 GMT 51.279617 9.021759 38,000 283 409 0
2019-09-12 12:03:13 GMT 51.278000 9.032914 38,000 283 409 0
2019-09-12 12:03:10 GMT 51.276810 9.041080 38,000 283 409 0
2019-09-12 12:03:07 GMT 51.275482 9.050507 38,000 283 409 0
2019-09-12 12:03:04 GMT 51.274429 9.057559 38,000 283 409 0
2019-09-12 12:03:01 GMT 51.272736 9.069288 38,000 283 409 0
2019-09-12 12:02:58 GMT 51.271797 9.075775 38,000 283 409 0
2019-09-12 12:02:55 GMT 51.270306 9.086304 38,000 283 409 0
2019-09-12 12:02:52 GMT 51.269211 9.093933 38,000 283 409 0
2019-09-12 12:02:49 GMT 51.267422 9.106293 38,000 283 409 0
2019-09-12 12:02:46 GMT 51.266144 9.115089 38,000 284 408 0
2019-09-12 12:02:43 GMT 51.264954 9.123255 38,000 283 409 0
2019-09-12 12:02:40 GMT 51.264130 9.129119 38,000 283 409 0
2019-09-12 12:02:34 GMT 51.261063 9.150275 38,000 284 408 0
2019-09-12 12:02:31 GMT 51.260193 9.156139 38,000 284 408 0
2019-09-12 12:02:28 GMT 51.259274 9.162521 38,000 284 408 0
2019-09-12 12:02:24 GMT 51.257412 9.175415 38,000 284 407 0
2019-09-12 12:02:21 GMT 51.255798 9.186575 38,000 284 408 0
2019-09-12 12:02:18 GMT 51.254711 9.194183 38,000 284 408 0
2019-09-12 12:02:15 GMT 51.253502 9.202423 38,000 284 408 0
2019-09-12 12:02:12 GMT 51.252151 9.211731 38,000 284 407 0
2019-09-12 12:02:09 GMT 51.250614 9.222260 38,000 284 408 0
2019-09-12 12:02:06 GMT 51.249847 9.227551 38,000 284 406 0
2019-09-12 12:02:03 GMT 51.248428 9.237518 38,000 284 407 0
2019-09-12 12:02:00 GMT 51.246891 9.248047 38,000 284 407 0
2019-09-12 12:01:57 GMT 51.245869 9.254990 38,000 284 407 0
2019-09-12 12:01:54 GMT 51.244400 9.264964 38,000 284 407 0
2019-09-12 12:01:51 GMT 51.243393 9.271941 38,000 284 407 0
2019-09-12 12:01:48 GMT 51.241585 9.284210 38,000 284 407 0
2019-09-12 12:01:45 GMT 51.240700 9.290085 38,000 284 407 0
2019-09-12 12:01:42 GMT 51.239162 9.300537 38,000 284 407 0
2019-09-12 12:01:39 GMT 51.238220 9.306979 38,000 284 407 0
2019-09-12 12:01:36 GMT 51.235153 9.327986 38,000 284 407 0
2019-09-12 12:01:32 GMT 51.235153 9.327986 38,000 284 407 0
2019-09-12 12:01:29 GMT 51.233643 9.338453 38,000 284 407 0
2019-09-12 12:01:26 GMT 51.232590 9.345431 38,000 284 406 0
2019-09-12 12:01:23 GMT 51.231079 9.355972 38,000 284 406 0
2019-09-12 12:01:20 GMT 51.229622 9.365845 38,000 284 405 64
2019-09-12 12:01:17 GMT 51.228409 9.374008 38,000 284 406 0
2019-09-12 12:01:14 GMT 51.227325 9.381582 38,000 284 405 0
2019-09-12 12:01:10 GMT 51.226089 9.389673 38,000 284 405 0
2019-09-12 12:01:07 GMT 51.224533 9.400140 38,000 284 405 64
2019-09-12 12:01:04 GMT 51.221786 9.418772 38,000 284 405 64
2019-09-12 12:01:01 GMT 51.221786 9.418772 38,000 284 405 0
2019-09-12 12:00:58 GMT 51.220596 9.426863 38,000 284 405 0
2019-09-12 12:00:55 GMT 51.219334 9.435577 38,000 284 405 0
2019-09-12 12:00:50 GMT 51.216724 9.452972 38,000 284 405 64
2019-09-12 12:00:47 GMT 51.215469 9.461678 38,000 284 405 64
2019-09-12 12:00:44 GMT 51.214863 9.465714 38,000 284 404 64
2019-09-12 12:00:41 GMT 51.212955 9.478531 38,000 284 405 0
2019-09-12 12:00:37 GMT 51.211807 9.486026 38,000 284 405 0
2019-09-12 12:00:34 GMT 51.210251 9.496419 38,000 284 405 0
2019-09-12 12:00:30 GMT 51.207138 9.517278 38,000 284 404 0
2019-09-12 12:00:27 GMT 51.207138 9.517278 38,000 284 404 0
2019-09-12 12:00:24 GMT 51.205833 9.525909 38,000 284 404 0
2019-09-12 12:00:21 GMT 51.204762 9.532852 38,000 284 403 64
2019-09-12 12:00:17 GMT 51.201553 9.554245 38,000 284 404 0
2019-09-12 12:00:14 GMT 51.201553 9.554245 38,000 284 404 0
2019-09-12 12:00:11 GMT 51.200294 9.562912 38,000 284 403 0
2019-09-12 12:00:07 GMT 51.198807 9.572729 38,000 284 403 0
2019-09-12 12:00:04 GMT 51.195915 9.591675 38,000 284 403 64
2019-09-12 11:59:58 GMT 51.193497 9.607849 38,000 284 402 0
2019-09-12 11:59:55 GMT 51.191528 9.621054 38,000 284 402 0
2019-09-12 11:59:51 GMT 51.191528 9.621054 38,000 284 401 0
2019-09-12 11:59:48 GMT 51.189102 9.637162 38,000 284 402 0
2019-09-12 11:59:42 GMT 51.187363 9.648668 38,000 284 401 0
2019-09-12 11:59:38 GMT 51.186172 9.656685 38,000 284 401 0
2019-09-12 11:59:35 GMT 51.184559 9.667664 38,000 284 401 0
2019-09-12 11:59:31 GMT 51.182556 9.680811 38,000 284 401 0
2019-09-12 11:59:27 GMT 51.181046 9.691203 38,000 284 401 0
2019-09-12 11:59:24 GMT 51.179577 9.700928 38,000 284 400 0
2019-09-12 11:59:21 GMT 51.178879 9.705505 38,000 284 400 0
2019-09-12 11:59:17 GMT 51.177017 9.718094 38,000 292 397 0
2019-09-12 11:59:14 GMT 51.175804 9.726105 38,000 284 400 64
2019-09-12 11:59:11 GMT 51.174084 9.737549 38,000 285 391 0
2019-09-12 11:59:07 GMT 51.172688 9.746704 38,000 284 399 64
2019-09-12 11:59:04 GMT 51.171150 9.757004 38,000 284 399 64
2019-09-12 11:59:00 GMT 51.169693 9.766697 38,000 288 380 0
2019-09-12 11:58:57 GMT 51.168217 9.776459 38,000 284 399 64
2019-09-12 11:58:53 GMT 51.166683 9.786758 38,000 284 399 0
2019-09-12 11:58:50 GMT 51.165024 9.797578 38,000 284 399 0
2019-09-12 11:58:47 GMT 51.164074 9.803848 38,000 284 399 0
2019-09-12 11:58:44 GMT 51.161190 9.823303 38,000 284 400 0
2019-09-12 11:58:40 GMT 51.161190 9.823303 38,000 284 399 64
2019-09-12 11:58:36 GMT 51.158157 9.843230 38,000 284 400 0
2019-09-12 11:58:33 GMT 51.156418 9.854662 38,000 284 400 0
2019-09-12 11:58:30 GMT 51.156418 9.854662 38,000 298 395 0
2019-09-12 11:58:23 GMT 51.152157 9.882584 38,000 284 400 0
2019-09-12 11:58:20 GMT 51.152157 9.882584 38,000 284 399 0
2019-09-12 11:58:17 GMT 51.150879 9.891184 38,000 284 399 0
2019-09-12 11:58:14 GMT 51.149826 9.898014 38,000 285 399 0
2019-09-12 11:58:11 GMT 51.148224 9.908258 38,000 286 398 0
2019-09-12 11:58:08 GMT 51.147263 9.913899 38,000 289 397 64
2019-09-12 11:58:05 GMT 51.145733 9.922333 38,000 292 397 0
2019-09-12 11:58:02 GMT 51.143730 9.932327 38,000 289 397 64
2019-09-12 11:57:59 GMT 51.139984 9.949382 38,000 292 397 0
2019-09-12 11:57:56 GMT 51.139984 9.949382 38,000 292 397 0
2019-09-12 11:57:53 GMT 51.138004 9.957581 38,000 299 397 0
2019-09-12 11:57:50 GMT 51.135361 9.967792 38,000 295 396 0
2019-09-12 11:57:44 GMT 51.131744 9.980485 38,000 299 395 0
2019-09-12 11:57:41 GMT 51.128696 9.990387 38,000 297 395 0
2019-09-12 11:57:38 GMT 51.127346 9.994507 38,000 298 396 64
2019-09-12 11:57:34 GMT 51.123203 10.006790 38,000 299 395 0
2019-09-12 11:57:31 GMT 51.121353 10.012479 38,000 299 395 0
2019-09-12 11:57:28 GMT 51.117188 10.024727 38,000 298 396 0
2019-09-12 11:57:25 GMT 51.112381 10.039054 38,000 299 395 0
2019-09-12 11:57:22 GMT 51.112381 10.039054 38,000 299 395 0
2019-09-12 11:57:19 GMT 51.110321 10.045216 38,000 298 395 0
2019-09-12 11:57:16 GMT 51.108120 10.051880 38,000 299 395 0
2019-09-12 11:57:13 GMT 51.105881 10.058503 38,000 298 395 0
2019-09-12 11:57:10 GMT 51.102627 10.068283 38,000 298 396 0
2019-09-12 11:57:07 GMT 51.100433 10.074908 38,000 298 395 0
2019-09-12 11:57:04 GMT 51.097687 10.083148 38,000 298 396 64
2019-09-12 11:57:00 GMT 51.090988 10.103073 38,000 298 396 64
2019-09-12 11:56:56 GMT 51.090988 10.103073 38,000 298 396 64
2019-09-12 11:56:52 GMT 51.083954 10.124124 38,000 298 396 0
2019-09-12 11:56:49 GMT 51.083954 10.124124 38,000 298 396 0
2019-09-12 11:56:46 GMT 51.079678 10.136871 38,000 299 395 0
2019-09-12 11:56:43 GMT 51.079678 10.136871 38,000 299 395 0
2019-09-12 11:56:39 GMT 51.076035 10.147656 38,000 299 395 0
2019-09-12 11:56:36 GMT 51.072601 10.157900 38,000 299 395 0
2019-09-12 11:56:33 GMT 51.070175 10.165026 38,000 299 395 0
2019-09-12 11:56:30 GMT 51.068481 10.170148 38,000 299 395 0
2019-09-12 11:56:27 GMT 51.065735 10.178388 38,000 299 395 0
2019-09-12 11:56:24 GMT 51.063629 10.184475 38,000 299 398 0
2019-09-12 11:56:21 GMT 51.060356 10.194168 38,000 299 395 0
2019-09-12 11:56:18 GMT 51.058136 10.200806 38,000 299 395 0
2019-09-12 11:56:15 GMT 51.055344 10.209045 38,000 299 396 0
2019-09-12 11:56:12 GMT 51.052963 10.216172 38,000 299 397 0
2019-09-12 11:56:09 GMT 51.050346 10.223846 38,000 299 395 0
2019-09-12 11:56:06 GMT 51.047791 10.231463 38,000 299 395 64
2019-09-12 11:56:03 GMT 51.044853 10.240173 38,000 299 395 64
2019-09-12 11:56:00 GMT 51.042618 10.246829 38,000 299 395 64
2019-09-12 11:55:56 GMT 51.039139 10.257073 38,000 299 395 0
2019-09-12 11:55:53 GMT 51.036026 10.266278 38,000 299 397 0
2019-09-12 11:55:50 GMT 51.033966 10.272365 38,000 299 397 0
2019-09-12 11:55:47 GMT 51.031540 10.279566 38,000 299 395 0
2019-09-12 11:55:44 GMT 51.027908 10.290298 38,000 299 396 0
2019-09-12 11:55:41 GMT 51.025681 10.296936 38,000 299 396 0
2019-09-12 11:55:38 GMT 51.023766 10.302582 38,000 299 397 0
2019-09-12 11:55:35 GMT 51.020321 10.312805 38,000 299 396 0
2019-09-12 11:55:32 GMT 51.017902 10.319977 38,000 299 397 0
2019-09-12 11:55:29 GMT 51.015976 10.325590 38,000 299 396 0
2019-09-12 11:55:26 GMT 51.012863 10.334794 38,000 299 396 0
2019-09-12 11:55:23 GMT 51.010265 10.342484 38,000 299 403 0
2019-09-12 11:55:20 GMT 51.008545 10.347595 38,000 299 397 0
2019-09-12 11:55:17 GMT 51.005951 10.355282 38,000 299 397 0
2019-09-12 11:55:14 GMT 51.003002 10.363998 38,000 299 397 0
2019-09-12 11:55:11 GMT 50.999725 10.373692 38,000 299 397 0
2019-09-12 11:55:07 GMT 50.993134 10.393141 38,000 299 397 0
2019-09-12 11:55:04 GMT 50.993134 10.393141 38,000 299 397 0
2019-09-12 11:55:01 GMT 50.991550 10.397720 38,000 299 397 0
2019-09-12 11:54:58 GMT 50.986176 10.413629 38,000 299 397 0
2019-09-12 11:54:55 GMT 50.983704 10.420755 38,000 299 397 0
2019-09-12 11:54:52 GMT 50.983704 10.420755 38,000 299 399 64
2019-09-12 11:54:49 GMT 50.981079 10.428467 38,000 299 398 0
2019-09-12 11:54:46 GMT 50.977753 10.438199 38,000 299 398 0
2019-09-12 11:54:42 GMT 50.974228 10.448369 38,000 299 399 0
2019-09-12 11:54:36 GMT 50.969860 10.461197 38,000 299 399 64
2019-09-12 11:54:33 GMT 50.966537 10.470936 38,000 299 399 64
2019-09-12 11:54:29 GMT 50.964066 10.478136 38,000 299 399 64
2019-09-12 11:54:26 GMT 50.957943 10.496063 38,000 299 399 0
2019-09-12 11:54:23 GMT 50.957943 10.496063 38,000 299 399 0
2019-09-12 11:54:20 GMT 50.955475 10.503235 38,000 299 399 0
2019-09-12 11:54:17 GMT 50.953537 10.508868 38,000 299 400 0
2019-09-12 11:54:13 GMT 50.948818 10.522766 38,000 299 400 0
2019-09-12 11:54:10 GMT 50.947048 10.527878 38,000 299 400 0
2019-09-12 11:54:07 GMT 50.944954 10.534058 38,000 299 401 0
2019-09-12 11:54:04 GMT 50.940903 10.545910 38,000 299 400 0
2019-09-12 11:54:00 GMT 50.938797 10.552071 38,000 299 400 0
2019-09-12 11:53:57 GMT 50.935638 10.561350 38,000 299 403 0
2019-09-12 11:53:53 GMT 50.931595 10.573120 38,000 299 400 0
2019-09-12 11:53:50 GMT 50.928589 10.581912 38,000 299 400 0
2019-09-12 11:53:47 GMT 50.927170 10.585995 38,000 299 401 0
2019-09-12 11:53:44 GMT 50.924519 10.593719 38,000 299 402 64
2019-09-12 11:53:41 GMT 50.921024 10.604019 38,000 299 401 64
2019-09-12 11:53:38 GMT 50.917694 10.613832 38,000 299 401 64
2019-09-12 11:53:35 GMT 50.915020 10.621567 38,000 299 402 64
2019-09-12 11:53:32 GMT 50.913803 10.625190 38,000 299 402 64
2019-09-12 11:53:29 GMT 50.910278 10.635508 38,000 299 403 0
2019-09-12 11:53:26 GMT 50.907990 10.642242 38,000 299 403 0
2019-09-12 11:53:23 GMT 50.905334 10.649983 38,000 299 402 0
2019-09-12 11:53:20 GMT 50.902176 10.659262 38,000 299 403 0
2019-09-12 11:53:17 GMT 50.900215 10.664978 38,000 299 403 0
2019-09-12 11:53:14 GMT 50.893341 10.685169 38,000 299 403 0
2019-09-12 11:53:10 GMT 50.893341 10.685169 38,000 299 403 0
2019-09-12 11:53:07 GMT 50.891045 10.691910 38,000 299 403 0
2019-09-12 11:53:04 GMT 50.889278 10.697098 38,000 299 403 0
2019-09-12 11:53:01 GMT 50.886066 10.706406 38,000 299 403 0
2019-09-12 11:52:58 GMT 50.883598 10.713654 38,000 299 403 0
2019-09-12 11:52:54 GMT 50.880058 10.723953 38,000 299 403 0
2019-09-12 11:52:51 GMT 50.876846 10.733337 38,000 299 403 0
2019-09-12 11:52:48 GMT 50.873474 10.743144 38,000 299 403 0
2019-09-12 11:52:45 GMT 50.871735 10.748341 38,000 299 403 0
2019-09-12 11:52:42 GMT 50.869400 10.755081 38,000 299 405 64
2019-09-12 11:52:39 GMT 50.863396 10.772705 38,000 299 403 0
2019-09-12 11:52:36 GMT 50.863396 10.772705 38,000 299 405 64
2019-09-12 11:52:30 GMT 50.858414 10.787201 38,000 299 404 64
2019-09-12 11:52:27 GMT 50.852360 10.804825 38,000 299 404 64
2019-09-12 11:52:24 GMT 50.852360 10.804825 38,000 299 404 64
2019-09-12 11:52:21 GMT 50.850918 10.808945 38,000 299 404 0
2019-09-12 11:52:18 GMT 50.847885 10.817747 38,000 299 404 0
2019-09-12 11:52:15 GMT 50.844494 10.827560 38,000 299 404 64
2019-09-12 11:52:12 GMT 50.838348 10.845108 38,000 299 405 64
2019-09-12 11:52:08 GMT 50.838348 10.845108 38,000 299 405 64
2019-09-12 11:52:05 GMT 50.835835 10.852356 38,000 299 405 64
2019-09-12 11:52:02 GMT 50.833694 10.858536 38,000 299 405 0
2019-09-12 11:51:58 GMT 50.829739 10.869980 38,000 299 405 0
2019-09-12 11:51:55 GMT 50.827057 10.877727 38,000 299 405 0
2019-09-12 11:51:52 GMT 50.824013 10.886536 38,000 299 405 64
2019-09-12 11:51:48 GMT 50.821125 10.894852 38,000 299 405 0
2019-09-12 11:51:45 GMT 50.818451 10.902669 38,000 299 405 0
2019-09-12 11:51:42 GMT 50.815769 10.910416 38,000 299 405 0
2019-09-12 11:51:39 GMT 50.810577 10.925532 38,000 299 405 0
2019-09-12 11:51:33 GMT 50.808105 10.932807 38,000 299 405 0
2019-09-12 11:51:30 GMT 50.802704 10.948321 38,000 299 405 0
2019-09-12 11:51:24 GMT 50.799294 10.958176 38,000 299 405 0
2019-09-12 11:51:21 GMT 50.797104 10.964432 38,000 299 405 0
2019-09-12 11:51:17 GMT 50.793518 10.974731 38,000 299 405 0
2019-09-12 11:51:14 GMT 50.790436 10.983582 38,000 299 405 64
2019-09-12 11:51:11 GMT 50.787918 10.990782 38,000 299 405 64
2019-09-12 11:51:07 GMT 50.783745 11.002655 38,000 299 405 64
2019-09-12 11:51:02 GMT 50.779587 11.014536 38,000 299 405 64
2019-09-12 11:50:59 GMT 50.776527 11.023331 38,000 299 405 64
2019-09-12 11:50:56 GMT 50.770012 11.041946 38,000 299 405 0
2019-09-12 11:50:52 GMT 50.770012 11.041946 38,000 299 405 0
2019-09-12 11:50:49 GMT 50.762794 11.062698 38,000 299 405 0
2019-09-12 11:50:44 GMT 50.760818 11.068354 38,000 299 405 0
2019-09-12 11:50:38 GMT 50.757935 11.076668 38,000 299 405 0
2019-09-12 11:50:35 GMT 50.752487 11.092183 38,000 299 406 -64
2019-09-12 11:50:28 GMT 50.745575 11.111780 38,000 299 406 -64
2019-09-12 11:50:25 GMT 50.745575 11.111780 38,000 300 405 64
2019-09-12 11:50:22 GMT 50.742691 11.120094 38,000 299 406 64
2019-09-12 11:50:18 GMT 50.739239 11.129913 38,000 299 406 64
2019-09-12 11:50:15 GMT 50.735981 11.139221 38,000 299 406 64
2019-09-12 11:50:12 GMT 50.733421 11.146469 38,000 299 407 0
2019-09-12 11:50:09 GMT 50.731064 11.153202 38,000 299 407 0
2019-09-12 11:50:06 GMT 50.729462 11.157913 38,000 299 407 0
2019-09-12 11:50:02 GMT 50.724930 11.170869 38,000 299 407 0
2019-09-12 11:49:59 GMT 50.719688 11.185913 38,000 299 407 0
2019-09-12 11:49:56 GMT 50.719688 11.185913 38,000 299 407 0
2019-09-12 11:49:53 GMT 50.716965 11.193658 38,000 299 407 -64
2019-09-12 11:49:50 GMT 50.714401 11.200933 38,000 299 406 -64
2019-09-12 11:49:46 GMT 50.709686 11.214369 38,000 299 406 -64
2019-09-12 11:49:43 GMT 50.708050 11.219025 38,000 299 406 0
2019-09-12 11:49:40 GMT 50.705338 11.226840 38,000 299 406 0
2019-09-12 11:49:37 GMT 50.702774 11.234040 38,000 299 406 0
2019-09-12 11:49:34 GMT 50.699844 11.242354 38,000 299 406 0
2019-09-12 11:49:31 GMT 50.697155 11.250076 38,000 299 406 0
2019-09-12 11:49:28 GMT 50.694969 11.256256 38,000 300 405 0
2019-09-12 11:49:25 GMT 50.688030 11.275940 38,000 300 405 0
2019-09-12 11:49:21 GMT 50.688030 11.275940 38,000 300 405 0
2019-09-12 11:49:18 GMT 50.685471 11.283112 38,000 299 406 0
2019-09-12 11:49:14 GMT 50.682037 11.292980 38,000 300 405 64
2019-09-12 11:49:11 GMT 50.678787 11.302259 38,000 300 405 0
2019-09-12 11:49:08 GMT 50.676956 11.307381 38,000 300 405 0
2019-09-12 11:49:05 GMT 50.672764 11.319275 38,000 300 405 0
2019-09-12 11:49:01 GMT 50.667114 11.335289 38,000 300 405 64
2019-09-12 11:48:58 GMT 50.667114 11.335289 38,000 300 405 64
2019-09-12 11:48:55 GMT 50.662033 11.349744 38,000 300 405 64
2019-09-12 11:48:52 GMT 50.662033 11.349744 38,000 300 405 64
2019-09-12 11:48:49 GMT 50.658005 11.361092 38,000 300 405 0
2019-09-12 11:48:46 GMT 50.656174 11.366224 38,000 300 405 0
2019-09-12 11:48:42 GMT 50.648895 11.386823 38,000 300 405 0
2019-09-12 11:48:39 GMT 50.648895 11.386823 38,000 300 405 0
2019-09-12 11:48:35 GMT 50.646179 11.394604 38,000 300 405 0
2019-09-12 11:48:32 GMT 50.640152 11.411615 38,000 300 405 0
2019-09-12 11:48:29 GMT 50.640152 11.411615 38,000 300 405 0
2019-09-12 11:48:26 GMT 50.638172 11.417245 38,000 300 405 0
2019-09-12 11:48:23 GMT 50.632355 11.433798 38,000 300 405 0
2019-09-12 11:48:20 GMT 50.632355 11.433798 38,000 300 405 0
2019-09-12 11:48:17 GMT 50.629257 11.442550 38,000 300 405 0
2019-09-12 11:48:13 GMT 50.625961 11.451802 38,000 300 405 0
2019-09-12 11:48:10 GMT 50.623764 11.457945 38,000 300 405 0
2019-09-12 11:48:07 GMT 50.620468 11.467269 38,000 300 405 0
2019-09-12 11:48:04 GMT 50.618484 11.472919 38,000 300 405 0
2019-09-12 11:48:01 GMT 50.614288 11.484760 38,000 300 405 0
2019-09-12 11:47:58 GMT 50.612457 11.489892 38,000 300 405 0
2019-09-12 11:47:55 GMT 50.609360 11.498677 38,000 300 405 0
2019-09-12 11:47:51 GMT 50.605728 11.508921 38,000 300 405 0
2019-09-12 11:47:48 GMT 50.600655 11.523322 38,000 300 405 0
2019-09-12 11:47:45 GMT 50.600655 11.523322 38,000 300 405 0
2019-09-12 11:47:42 GMT 50.597900 11.531019 38,000 300 405 0
2019-09-12 11:47:39 GMT 50.594788 11.539802 38,000 300 405 0
2019-09-12 11:47:36 GMT 50.592602 11.545963 38,000 300 405 0
2019-09-12 11:47:33 GMT 50.588745 11.556678 38,000 300 405 0
2019-09-12 11:47:29 GMT 50.586037 11.564372 38,000 300 405 0
2019-09-12 11:47:26 GMT 50.582520 11.574169 38,000 300 405 64
2019-09-12 11:47:23 GMT 50.579956 11.581325 38,000 300 405 0
2019-09-12 11:47:20 GMT 50.577984 11.586939 38,000 300 405 0
2019-09-12 11:47:17 GMT 50.575195 11.594696 38,000 300 405 0
2019-09-12 11:47:14 GMT 50.571533 11.604887 38,000 300 404 0
2019-09-12 11:47:08 GMT 50.566250 11.619749 38,000 300 404 64
2019-09-12 11:47:05 GMT 50.563477 11.627438 38,000 300 405 0
2019-09-12 11:47:02 GMT 50.560913 11.634594 38,000 300 405 64
2019-09-12 11:46:58 GMT 50.557453 11.644320 38,000 300 405 64
2019-09-12 11:46:55 GMT 50.553589 11.655049 38,000 300 404 64
2019-09-12 11:46:52 GMT 50.552124 11.659168 38,000 300 404 64
2019-09-12 11:46:49 GMT 50.549194 11.667336 38,000 300 404 64
2019-09-12 11:46:46 GMT 50.546467 11.674978 38,000 300 404 0
2019-09-12 11:46:43 GMT 50.543335 11.683671 38,000 300 404 0
2019-09-12 11:46:40 GMT 50.541183 11.689815 38,000 300 404 0
2019-09-12 11:46:35 GMT 50.536598 11.702666 38,000 300 404 0
2019-09-12 11:46:30 GMT 50.528961 11.724119 38,000 300 404 0
2019-09-12 11:46:27 GMT 50.528961 11.724119 38,000 300 404 0
2019-09-12 11:46:24 GMT 50.522026 11.743568 38,000 300 404 0
2019-09-12 11:46:20 GMT 50.522026 11.743568 38,000 300 404 0
2019-09-12 11:46:17 GMT 50.520538 11.747651 38,000 300 404 0
2019-09-12 11:46:14 GMT 50.517277 11.756856 38,000 300 404 0
2019-09-12 11:46:11 GMT 50.515091 11.763017 38,000 300 404 0
2019-09-12 11:46:08 GMT 50.511978 11.771706 38,000 300 402 64
2019-09-12 11:46:05 GMT 50.508156 11.782392 38,000 300 404 0
2019-09-12 11:46:02 GMT 50.503078 11.796718 38,000 300 404 0
2019-09-12 11:45:59 GMT 50.503078 11.796718 38,000 300 402 64
2019-09-12 11:45:56 GMT 50.500149 11.804884 38,000 300 404 0
2019-09-12 11:45:52 GMT 50.497375 11.812543 38,000 300 404 0
2019-09-12 11:45:49 GMT 50.494656 11.820176 38,000 300 403 64
2019-09-12 11:45:45 GMT 50.490417 11.831914 38,000 300 404 0
2019-09-12 11:45:41 GMT 50.487297 11.840589 38,000 300 404 0
2019-09-12 11:45:38 GMT 50.484367 11.848755 38,000 300 404 0
2019-09-12 11:45:32 GMT 50.479385 11.862488 38,000 300 404 0
2019-09-12 11:45:29 GMT 50.476456 11.870583 38,000 300 404 0
2019-09-12 11:45:26 GMT 50.473526 11.878750 38,000 300 404 0
2019-09-12 11:45:23 GMT 50.469704 11.889434 38,000 300 404 64
2019-09-12 11:45:20 GMT 50.468033 11.894001 38,000 300 402 64
2019-09-12 11:45:17 GMT 50.465469 11.901157 38,000 300 403 64
2019-09-12 11:45:14 GMT 50.462719 11.908734 38,000 300 403 64
2019-09-12 11:45:11 GMT 50.459610 11.917347 38,000 300 403 64
2019-09-12 11:45:08 GMT 50.457226 11.924026 38,000 300 403 0
2019-09-12 11:45:05 GMT 50.454117 11.932598 38,000 300 403 0
2019-09-12 11:45:02 GMT 50.450821 11.941777 38,000 300 402 64
2019-09-12 11:44:59 GMT 50.448425 11.948374 38,000 300 403 64
2019-09-12 11:44:56 GMT 50.446060 11.955004 38,000 300 403 64
2019-09-12 11:44:53 GMT 50.443130 11.963099 38,000 300 402 0
2019-09-12 11:44:50 GMT 50.440746 11.969679 38,000 300 402 0
2019-09-12 11:44:47 GMT 50.437813 11.977844 38,000 300 402 0
2019-09-12 11:44:44 GMT 50.434341 11.987457 38,000 300 402 0
2019-09-12 11:44:40 GMT 50.431412 11.995625 38,000 300 402 0
2019-09-12 11:44:37 GMT 50.428688 12.003232 38,000 300 402 64
2019-09-12 11:44:33 GMT 50.425186 12.012827 38,000 300 402 0
2019-09-12 11:44:30 GMT 50.422302 12.020994 38,000 300 402 0
2019-09-12 11:44:25 GMT 50.414612 12.042244 38,000 300 402 0
2019-09-12 11:44:21 GMT 50.414612 12.042244 38,000 300 402 0
2019-09-12 11:44:18 GMT 50.408581 12.058980 38,000 300 402 0
2019-09-12 11:44:15 GMT 50.405647 12.067071 38,000 300 402 0
2019-09-12 11:44:12 GMT 50.405647 12.067071 38,000 300 402 0
2019-09-12 11:44:09 GMT 50.402893 12.074625 38,000 300 402 0
2019-09-12 11:44:06 GMT 50.400330 12.081708 38,000 300 402 64
2019-09-12 11:44:03 GMT 50.397400 12.089731 38,000 300 402 64
2019-09-12 11:43:59 GMT 50.391129 12.106934 38,000 300 402 0
2019-09-12 11:43:56 GMT 50.391129 12.106934 38,000 300 402 0
2019-09-12 11:43:53 GMT 50.387676 12.116510 38,000 300 402 0
2019-09-12 11:43:47 GMT 50.383438 12.128183 38,000 300 402 0
2019-09-12 11:43:44 GMT 50.380875 12.135267 38,000 300 402 0
2019-09-12 11:43:41 GMT 50.377762 12.143827 38,000 300 402 0
2019-09-12 11:43:38 GMT 50.375015 12.151385 38,000 300 402 0
2019-09-12 11:43:35 GMT 50.371525 12.160974 38,000 300 401 0
2019-09-12 11:43:32 GMT 50.366913 12.173647 38,000 300 402 0
2019-09-12 11:43:26 GMT 50.362724 12.185248 38,000 300 401 0
2019-09-12 11:43:21 GMT 50.358856 12.195836 38,000 300 401 64
2019-09-12 11:43:18 GMT 50.355370 12.205365 38,000 300 401 0
2019-09-12 11:43:14 GMT 50.352997 12.211954 38,000 300 401 0
2019-09-12 11:43:11 GMT 50.348759 12.223478 38,000 300 401 0
2019-09-12 11:43:04 GMT 50.343266 12.238621 38,000 300 401 0
2019-09-12 11:43:00 GMT 50.339767 12.248166 38,000 300 401 0
2019-09-12 11:42:56 GMT 50.336235 12.257773 38,000 300 401 0
2019-09-12 11:42:53 GMT 50.333130 12.266308 38,000 300 401 0
2019-09-12 11:42:50 GMT 50.330933 12.272379 38,000 300 401 0
2019-09-12 11:42:47 GMT 50.327438 12.281898 38,000 300 401 0
2019-09-12 11:42:44 GMT 50.322830 12.294496 38,000 300 401 0
2019-09-12 11:42:38 GMT 50.319901 12.302591 38,000 300 401 0
2019-09-12 11:42:33 GMT 50.314217 12.318198 38,000 293 404 64
2019-09-12 11:42:30 GMT 50.312401 12.323245 38,000 300 401 0
2019-09-12 11:42:27 GMT 50.309280 12.331792 38,000 300 401 64
2019-09-12 11:42:22 GMT 50.304672 12.344327 38,000 297 402 0
2019-09-12 11:42:18 GMT 50.300995 12.354423 38,000 299 401 0
2019-09-12 11:42:15 GMT 50.295639 12.370316 38,000 298 402 0
2019-09-12 11:42:12 GMT 50.295639 12.370316 38,000 297 402 0
2019-09-12 11:42:07 GMT 50.291748 12.382821 38,000 296 403 0
2019-09-12 11:42:04 GMT 50.289871 12.389181 38,000 291 406 64
2019-09-12 11:42:01 GMT 50.287491 12.397710 38,000 291 406 64
2019-09-12 11:41:58 GMT 50.285355 12.405791 38,000 292 405 64
2019-09-12 11:41:55 GMT 50.283051 12.415057 38,000 291 405 0
2019-09-12 11:41:50 GMT 50.279663 12.429296 38,000 291 405 0
2019-09-12 11:41:46 GMT 50.276928 12.440829 38,000 291 405 0
2019-09-12 11:41:39 GMT 50.272888 12.457773 38,000 291 405 64
2019-09-12 11:41:36 GMT 50.270924 12.465994 38,000 291 405 64
2019-09-12 11:41:33 GMT 50.268677 12.475337 38,000 291 405 64
2019-09-12 11:41:29 GMT 50.266296 12.485167 38,000 291 405 0
2019-09-12 11:41:25 GMT 50.263802 12.495612 38,000 291 406 0
2019-09-12 11:41:22 GMT 50.260914 12.507638 38,000 291 406 64
2019-09-12 11:41:15 GMT 50.256546 12.525715 38,000 291 406 64
2019-09-12 11:41:11 GMT 50.254440 12.534461 38,000 291 406 0
2019-09-12 11:41:08 GMT 50.252487 12.542675 38,000 291 406 0
2019-09-12 11:41:05 GMT 50.250229 12.551952 38,000 291 406 0
2019-09-12 11:41:02 GMT 50.247974 12.561307 38,000 291 406 0
2019-09-12 11:40:59 GMT 50.246159 12.568953 38,000 291 406 0
2019-09-12 11:40:55 GMT 50.243736 12.578826 38,000 291 406 0
2019-09-12 11:40:52 GMT 50.241486 12.588091 38,000 291 406 0
2019-09-12 11:40:49 GMT 50.239269 12.597384 38,000 291 406 0
2019-09-12 11:40:46 GMT 50.235168 12.614328 38,000 291 406 0
2019-09-12 11:40:43 GMT 50.235168 12.614328 38,000 291 406 0
2019-09-12 11:40:40 GMT 50.233959 12.619282 38,000 291 406 0
2019-09-12 11:40:37 GMT 50.231865 12.627968 38,000 291 405 0
2019-09-12 11:40:34 GMT 50.229492 12.637840 38,000 291 406 0
2019-09-12 11:40:31 GMT 50.227753 12.644902 38,000 291 406 0
2019-09-12 11:40:28 GMT 50.225647 12.653648 38,000 291 406 0
2019-09-12 11:40:25 GMT 50.223816 12.661309 38,000 291 406 0
2019-09-12 11:40:22 GMT 50.221939 12.668971 38,000 291 406 0
2019-09-12 11:40:17 GMT 50.216553 12.691362 38,000 291 405 0
2019-09-12 11:40:14 GMT 50.216553 12.691362 38,000 291 406 0
2019-09-12 11:40:11 GMT 50.214970 12.697894 38,000 291 406 0
2019-09-12 11:40:08 GMT 50.213154 12.705540 38,000 291 405 0
2019-09-12 11:40:05 GMT 50.210129 12.718120 38,000 291 405 0
2019-09-12 11:40:02 GMT 50.208683 12.724098 38,000 291 404 64
2019-09-12 11:39:59 GMT 50.207199 12.730119 38,000 291 405 64
2019-09-12 11:39:56 GMT 50.204865 12.739948 38,000 291 405 64
2019-09-12 11:39:53 GMT 50.202484 12.749706 38,000 291 405 64
2019-09-12 11:39:50 GMT 50.200211 12.758987 38,000 291 405 64
2019-09-12 11:39:45 GMT 50.195461 12.778584 38,000 291 405 0
2019-09-12 11:39:42 GMT 50.195461 12.778584 38,000 291 405 0
2019-09-12 11:39:39 GMT 50.193741 12.785701 38,000 291 405 64
2019-09-12 11:39:34 GMT 50.190716 12.798256 38,000 291 405 64
2019-09-12 11:39:31 GMT 50.188477 12.807529 38,000 291 404 64
2019-09-12 11:39:28 GMT 50.185822 12.818371 38,000 291 404 64
2019-09-12 11:39:24 GMT 50.183266 12.828765 38,000 291 405 0
2019-09-12 11:39:20 GMT 50.181015 12.837958 38,000 291 405 -64
2019-09-12 11:39:15 GMT 50.177811 12.851040 38,000 291 405 -64
2019-09-12 11:39:12 GMT 50.175705 12.859786 38,000 291 405 0
2019-09-12 11:39:09 GMT 50.173050 12.870628 38,000 291 405 64
2019-09-12 11:39:03 GMT 50.168182 12.890749 38,000 291 404 64
2019-09-12 11:38:57 GMT 50.166042 12.899508 38,000 291 404 0
2019-09-12 11:38:53 GMT 50.162598 12.913612 38,000 291 404 -64
2019-09-12 11:38:50 GMT 50.161526 12.917918 38,000 291 404 64
2019-09-12 11:38:46 GMT 50.158871 12.928830 38,000 291 404 0
2019-09-12 11:38:43 GMT 50.156616 12.938064 38,000 291 404 64
2019-09-12 11:38:40 GMT 50.154125 12.948353 38,000 291 404 64
2019-09-12 11:38:37 GMT 50.152634 12.954326 38,000 291 404 64
2019-09-12 11:38:34 GMT 50.148651 12.970589 38,000 291 404 64
2019-09-12 11:38:28 GMT 50.144669 12.986924 38,000 291 404 64
2019-09-12 11:38:21 GMT 50.139084 13.009692 38,000 291 404 0
2019-09-12 11:38:18 GMT 50.137363 13.016795 38,000 291 404 64
2019-09-12 11:38:11 GMT 50.135502 13.024366 38,000 291 404 0
2019-09-12 11:38:07 GMT 50.132950 13.034700 38,000 291 404 64
2019-09-12 11:38:04 GMT 50.130428 13.045003 38,000 291 404 64
2019-09-12 11:38:01 GMT 50.128056 13.054727 38,000 292 403 64
2019-09-12 11:37:58 GMT 50.126705 13.060146 38,000 291 404 64
2019-09-12 11:37:55 GMT 50.122189 13.078630 38,000 292 403 64
2019-09-12 11:37:52 GMT 50.122189 13.078630 38,000 292 403 64
2019-09-12 11:37:48 GMT 50.120281 13.086201 38,000 292 405 -64
2019-09-12 11:37:45 GMT 50.117752 13.096498 38,000 291 404 0
2019-09-12 11:37:41 GMT 50.114693 13.108916 38,000 292 405 -64
2019-09-12 11:37:38 GMT 50.113342 13.114335 38,000 291 404 64
2019-09-12 11:37:35 GMT 50.110794 13.124687 38,000 291 404 0
2019-09-12 11:37:30 GMT 50.107990 13.136011 38,000 292 405 0
2019-09-12 11:37:27 GMT 50.105942 13.144202 38,000 292 405 0
2019-09-12 11:37:24 GMT 50.103661 13.153381 38,000 292 405 -64
2019-09-12 11:37:20 GMT 50.100586 13.165886 38,000 292 405 -64
2019-09-12 11:37:14 GMT 50.096786 13.180992 38,000 292 404 0
2019-09-12 11:37:10 GMT 50.094490 13.190200 38,000 292 404 64
2019-09-12 11:37:06 GMT 50.092072 13.199999 38,000 292 405 64
2019-09-12 11:37:03 GMT 50.088810 13.212990 38,000 292 405 0
2019-09-12 11:36:59 GMT 50.086807 13.221106 38,000 292 405 0
2019-09-12 11:36:52 GMT 50.081406 13.242790 38,000 292 405 -64
2019-09-12 11:36:49 GMT 50.080433 13.246542 38,000 292 404 0
2019-09-12 11:36:46 GMT 50.078156 13.255800 38,000 292 404 0
2019-09-12 11:36:42 GMT 50.075588 13.266065 38,000 292 404 64
2019-09-12 11:36:39 GMT 50.073578 13.274159 38,000 292 404 64
2019-09-12 11:36:36 GMT 50.071930 13.280664 38,000 292 404 64
2019-09-12 11:36:33 GMT 50.069633 13.289820 38,000 292 405 64
2019-09-12 11:36:30 GMT 50.067722 13.297391 38,000 292 404 64
2019-09-12 11:36:27 GMT 50.064510 13.310382 38,000 292 404 64
2019-09-12 11:36:23 GMT 50.062225 13.319622 38,000 292 404 64
2019-09-12 11:36:20 GMT 50.059902 13.328791 38,000 292 404 64
2019-09-12 11:36:16 GMT 50.057877 13.336896 38,000 292 405 64
2019-09-12 11:36:12 GMT 50.055725 13.345570 38,000 292 405 0
2019-09-12 11:36:09 GMT 50.050598 13.366169 38,000 291 404 0
2019-09-12 11:36:05 GMT 50.050598 13.366169 38,000 292 405 0
2019-09-12 11:36:00 GMT 50.047394 13.379179 38,000 291 404 64
2019-09-12 11:35:57 GMT 50.043514 13.394858 38,000 291 404 64
2019-09-12 11:35:51 GMT 50.041260 13.404043 38,000 291 404 64
2019-09-12 11:35:48 GMT 50.038834 13.413801 38,000 291 404 64
2019-09-12 11:35:45 GMT 50.037506 13.419222 38,000 292 404 64
2019-09-12 11:35:41 GMT 50.034393 13.431677 38,000 292 404 64
2019-09-12 11:35:38 GMT 50.028435 13.455431 38,000 292 404 0
2019-09-12 11:35:33 GMT 50.025330 13.467865 38,000 292 405 64
2019-09-12 11:35:28 GMT 50.025330 13.467865 38,000 292 404 0
2019-09-12 11:35:25 GMT 50.023312 13.475993 38,000 292 403 64
2019-09-12 11:35:22 GMT 50.021530 13.483043 38,000 292 405 64
2019-09-12 11:35:18 GMT 50.017864 13.497669 38,000 292 405 0
2019-09-12 11:35:15 GMT 50.015957 13.505241 38,000 292 405 0
2019-09-12 11:35:12 GMT 50.014050 13.512812 38,000 292 405 0
2019-09-12 11:35:07 GMT 50.010231 13.527956 38,000 292 405 0
2019-09-12 11:35:03 GMT 50.008041 13.536641 38,000 292 405 0
2019-09-12 11:35:00 GMT 50.006973 13.540946 38,000 292 405 0
2019-09-12 11:34:57 GMT 50.004505 13.550745 38,000 292 406 0
2019-09-12 11:34:54 GMT 50.002213 13.559948 38,000 292 405 0
2019-09-12 11:34:50 GMT 49.999786 13.569705 38,000 292 406 0
2019-09-12 11:34:46 GMT 49.996639 13.582145 38,000 292 406 0
2019-09-12 11:34:42 GMT 49.994495 13.590830 38,000 292 405 0
2019-09-12 11:34:39 GMT 49.992821 13.597363 38,000 292 405 0
2019-09-12 11:34:36 GMT 49.987793 13.617409 38,000 292 405 64
2019-09-12 11:34:32 GMT 49.987793 13.617409 38,000 292 405 0
2019-09-12 11:34:29 GMT 49.985367 13.627167 38,000 292 405 0
2019-09-12 11:34:26 GMT 49.983444 13.634756 38,000 292 405 0
2019-09-12 11:34:23 GMT 49.981018 13.644441 38,000 292 405 0
2019-09-12 11:34:19 GMT 49.978271 13.655283 38,000 292 405 0
2019-09-12 11:34:16 GMT 49.975967 13.664468 38,000 292 405 0
2019-09-12 11:34:12 GMT 49.973923 13.672558 38,000 292 405 64
2019-09-12 11:34:09 GMT 49.971725 13.681231 38,000 292 405 64
2019-09-12 11:34:05 GMT 49.968979 13.692001 38,000 292 405 64
2019-09-12 11:34:02 GMT 49.967331 13.698506 38,000 292 405 0
2019-09-12 11:33:59 GMT 49.965134 13.707179 38,000 292 405 64
2019-09-12 11:33:56 GMT 49.962433 13.717949 38,000 292 405 0
2019-09-12 11:33:53 GMT 49.958466 13.733652 38,000 292 405 0
2019-09-12 11:33:47 GMT 49.956940 13.739560 38,000 292 405 0
2019-09-12 11:33:43 GMT 49.953644 13.752570 38,000 292 405 0
2019-09-12 11:33:39 GMT 49.951447 13.761171 38,000 292 405 0
2019-09-12 11:33:35 GMT 49.946548 13.780614 38,000 292 405 0
2019-09-12 11:33:32 GMT 49.943104 13.794077 38,000 292 405 64
2019-09-12 11:33:27 GMT 49.943104 13.794077 38,000 292 405 0
2019-09-12 11:33:24 GMT 49.939564 13.808107 38,000 292 405 64
2019-09-12 11:33:18 GMT 49.934189 13.829185 38,000 292 405 0
2019-09-12 11:33:14 GMT 49.934189 13.829185 38,000 292 405 0
2019-09-12 11:33:11 GMT 49.931885 13.838394 38,000 292 405 0
2019-09-12 11:33:08 GMT 49.930389 13.844291 38,000 292 405 0
2019-09-12 11:33:03 GMT 49.923645 13.870759 38,000 292 405 0
2019-09-12 11:32:59 GMT 49.923645 13.870759 38,000 292 405 0
2019-09-12 11:32:55 GMT 49.921051 13.881009 38,000 292 405 0
2019-09-12 11:32:51 GMT 49.918152 13.892360 38,000 292 405 0
2019-09-12 11:32:46 GMT 49.914963 13.904716 38,000 292 405 0
2019-09-12 11:32:43 GMT 49.913170 13.911735 38,000 292 404 64
2019-09-12 11:32:40 GMT 49.910145 13.923612 38,000 292 404 0
2019-09-12 11:32:37 GMT 49.907909 13.932149 38,000 292 404 0
2019-09-12 11:32:33 GMT 49.906002 13.939720 38,000 292 404 0
2019-09-12 11:32:30 GMT 49.903210 13.950484 38,000 292 404 0
2019-09-12 11:32:26 GMT 49.901413 13.957407 38,000 292 403 0
2019-09-12 11:32:23 GMT 49.898785 13.967632 38,000 292 404 0
2019-09-12 11:32:20 GMT 49.894180 13.985307 38,000 292 403 0
2019-09-12 11:32:16 GMT 49.894180 13.985307 38,000 292 403 64
2019-09-12 11:32:13 GMT 49.892128 13.993390 38,000 292 403 64
2019-09-12 11:32:10 GMT 49.889740 14.002437 38,000 292 403 0
2019-09-12 11:32:06 GMT 49.886589 14.014843 38,000 292 403 0
2019-09-12 11:32:03 GMT 49.884914 14.021227 38,000 292 403 64
2019-09-12 11:32:00 GMT 49.883102 14.028240 38,000 292 403 64
2019-09-12 11:31:57 GMT 49.880905 14.036769 38,000 292 403 64
2019-09-12 11:31:53 GMT 49.877609 14.049634 38,000 292 403 0
2019-09-12 11:31:50 GMT 49.876068 14.055522 38,000 292 403 0
2019-09-12 11:31:42 GMT 49.870808 14.075936 38,000 292 403 64
2019-09-12 11:31:39 GMT 49.868340 14.085586 38,000 292 403 0
2019-09-12 11:31:34 GMT 49.864754 14.099468 38,000 292 403 0
2019-09-12 11:31:30 GMT 49.862568 14.108078 38,000 292 403 0
2019-09-12 11:31:27 GMT 49.860489 14.116058 38,000 292 403 0
2019-09-12 11:31:23 GMT 49.857468 14.127840 38,000 292 403 0
2019-09-12 11:31:19 GMT 49.855118 14.136955 38,000 292 403 64
2019-09-12 11:31:16 GMT 49.853210 14.144452 38,000 292 403 64
2019-09-12 11:31:12 GMT 49.848972 14.161006 38,000 292 401 64
2019-09-12 11:31:09 GMT 49.848228 14.163678 38,000 292 401 64
2019-09-12 11:31:06 GMT 49.846321 14.171176 38,000 292 403 0
2019-09-12 11:31:02 GMT 49.843414 14.182410 38,000 292 403 0
2019-09-12 11:30:58 GMT 49.839989 14.195821 38,000 292 403 64
2019-09-12 11:30:51 GMT 49.835289 14.214007 38,000 292 402 64
2019-09-12 11:30:48 GMT 49.833611 14.220391 38,000 292 402 0
2019-09-12 11:30:45 GMT 49.831558 14.228379 38,000 292 402 0
2019-09-12 11:30:41 GMT 49.828400 14.240657 38,000 292 402 0
2019-09-12 11:30:35 GMT 49.824371 14.256134 38,000 292 402 -64
2019-09-12 11:30:32 GMT 49.822578 14.263075 38,000 292 402 0
2019-09-12 11:30:29 GMT 49.820480 14.271096 38,000 292 402 0
2019-09-12 11:30:24 GMT 49.817039 14.284379 38,000 292 401 0
2019-09-12 11:30:19 GMT 49.813686 14.297073 38,000 292 401 0
2019-09-12 11:30:16 GMT 49.811035 14.307168 38,000 292 401 64
2019-09-12 11:30:13 GMT 49.809128 14.314607 38,000 293 399 0
2019-09-12 11:30:09 GMT 49.806610 14.324168 38,000 292 401 64
2019-09-12 11:30:04 GMT 49.802582 14.339543 38,000 292 401 64
2019-09-12 11:29:59 GMT 49.799561 14.351180 38,000 292 401 0
2019-09-12 11:29:55 GMT 49.796371 14.363362 38,000 292 401 0
2019-09-12 11:29:52 GMT 49.794743 14.369746 38,000 293 400 0
2019-09-12 11:29:49 GMT 49.792374 14.378718 38,000 292 401 0
2019-09-12 11:29:45 GMT 49.789627 14.389343 38,000 293 400 0
2019-09-12 11:29:41 GMT 49.786175 14.402557 38,000 293 400 64
2019-09-12 11:29:38 GMT 49.785461 14.405245 38,000 293 399 0
2019-09-12 11:29:35 GMT 49.780636 14.423787 38,000 293 400 64
2019-09-12 11:29:28 GMT 49.778122 14.433289 38,000 293 400 0
2019-09-12 11:29:22 GMT 49.773239 14.451792 38,000 293 399 0
2019-09-12 11:29:18 GMT 49.771042 14.460176 38,000 293 399 0
2019-09-12 11:29:15 GMT 49.768799 14.468633 38,000 293 399 0
2019-09-12 11:29:11 GMT 49.766716 14.476566 38,000 293 399 0
2019-09-12 11:29:07 GMT 49.763412 14.489185 38,000 293 399 0
2019-09-12 11:29:04 GMT 49.761177 14.497648 38,000 293 399 0
2019-09-12 11:29:00 GMT 49.758820 14.506651 38,000 293 399 0
2019-09-12 11:28:57 GMT 49.753960 14.525039 38,000 293 399 0
2019-09-12 11:28:54 GMT 49.753960 14.525039 38,000 293 399 64
2019-09-12 11:28:48 GMT 49.749664 14.541417 38,000 293 399 64
2019-09-12 11:28:44 GMT 49.746918 14.551898 38,000 293 399 0
2019-09-12 11:28:41 GMT 49.744675 14.560354 38,000 293 399 0
2019-09-12 11:28:37 GMT 49.742477 14.568738 38,000 293 398 0
2019-09-12 11:28:34 GMT 49.740829 14.575099 38,000 293 398 0
2019-09-12 11:28:30 GMT 49.737762 14.586663 38,000 293 398 64
2019-09-12 11:28:25 GMT 49.734035 14.600904 38,000 293 398 64
2019-09-12 11:28:21 GMT 49.731674 14.609793 38,000 293 398 0
2019-09-12 11:28:18 GMT 49.729614 14.617681 38,000 293 398 0
2019-09-12 11:28:14 GMT 49.726822 14.628222 38,000 293 398 0
2019-09-12 11:28:10 GMT 49.724213 14.638198 38,000 293 399 0
2019-09-12 11:28:07 GMT 49.721695 14.647667 38,000 293 398 0
2019-09-12 11:28:04 GMT 49.717136 14.664966 38,000 293 398 0
2019-09-12 11:28:00 GMT 49.717136 14.664966 38,000 293 398 0
2019-09-12 11:27:56 GMT 49.714233 14.676000 38,000 293 398 0
2019-09-12 11:27:53 GMT 49.709366 14.694362 38,000 293 398 64
2019-09-12 11:27:50 GMT 49.709366 14.694362 38,000 293 398 64
2019-09-12 11:27:45 GMT 49.706013 14.706982 38,000 293 398 64
2019-09-12 11:27:39 GMT 49.702515 14.720090 38,000 293 399 64
2019-09-12 11:27:36 GMT 49.697525 14.739027 38,000 293 399 0
2019-09-12 11:27:27 GMT 49.693359 14.754856 38,000 293 399 0
2019-09-12 11:27:24 GMT 49.691711 14.761144 38,000 293 399 0
2019-09-12 11:27:21 GMT 49.690338 14.766420 38,000 293 400 0
2019-09-12 11:27:16 GMT 49.686447 14.781165 38,000 293 400 64
2019-09-12 11:27:13 GMT 49.683655 14.791718 38,000 293 400 0
2019-09-12 11:27:05 GMT 49.676697 14.818099 38,000 293 400 0
2019-09-12 11:27:02 GMT 49.676697 14.818099 38,000 293 401 64
2019-09-12 11:26:57 GMT 49.672531 14.833928 38,000 293 400 0
2019-09-12 11:26:51 GMT 49.663834 14.866598 38,000 293 401 64
2019-09-12 11:26:44 GMT 49.663834 14.866598 38,000 293 400 64
2019-09-12 11:26:41 GMT 49.662022 14.873410 38,000 293 400 64
2019-09-12 11:26:33 GMT 49.656666 14.893452 38,000 293 401 64
2019-09-12 11:26:30 GMT 49.654816 14.900280 38,000 293 401 64
2019-09-12 11:26:24 GMT 49.649460 14.920301 38,000 293 401 64
2019-09-12 11:26:20 GMT 49.642513 14.946157 38,000 293 401 64
2019-09-12 11:26:13 GMT 49.642513 14.946157 38,000 293 401 0
2019-09-12 11:26:10 GMT 49.639572 14.957235 38,000 293 402 0
2019-09-12 11:26:02 GMT 49.634602 14.975701 38,000 293 404 64
2019-09-12 11:25:59 GMT 49.632599 14.983050 38,000 293 401 0
2019-09-12 11:25:54 GMT 49.627945 15.000458 38,000 293 401 0
2019-09-12 11:25:48 GMT 49.624966 15.011481 38,000 293 401 0
2019-09-12 11:25:43 GMT 49.619476 15.032043 38,000 293 401 0
2019-09-12 11:25:37 GMT 49.612816 15.056763 38,000 293 401 64
2019-09-12 11:25:32 GMT 49.612816 15.056763 38,000 293 401 64
2019-09-12 11:25:28 GMT 49.609863 15.067821 38,000 293 401 64
2019-09-12 11:25:23 GMT 49.606476 15.080470 38,000 293 401 64
2019-09-12 11:25:20 GMT 49.604389 15.088386 38,000 293 401 64
2019-09-12 11:25:17 GMT 49.602386 15.095734 38,000 293 401 0
2019-09-12 11:25:10 GMT 49.597546 15.113699 38,000 293 401 0
2019-09-12 11:25:06 GMT 49.592892 15.131069 38,000 293 401 0
2019-09-12 11:24:59 GMT 49.589996 15.141618 38,000 293 403 0
2019-09-12 11:24:55 GMT 49.587025 15.152670 38,000 293 403 0
2019-09-12 11:24:49 GMT 49.582138 15.170635 38,000 293 403 0
2019-09-12 11:24:46 GMT 49.580887 15.175372 38,000 293 403 64
2019-09-12 11:24:43 GMT 49.577995 15.185926 38,000 293 403 64
2019-09-12 11:24:39 GMT 49.575851 15.193869 38,000 293 403 0
2019-09-12 11:24:35 GMT 49.572006 15.208114 38,000 293 402 0
2019-09-12 11:24:27 GMT 49.567005 15.226605 38,000 293 403 0
2019-09-12 11:24:24 GMT 49.564728 15.234994 38,000 293 403 64
2019-09-12 11:24:18 GMT 49.560883 15.249313 38,000 293 403 64
2019-09-12 11:24:15 GMT 49.558163 15.259342 38,000 293 403 64
2019-09-12 11:24:12 GMT 49.556484 15.265651 38,000 293 403 64
2019-09-12 11:24:09 GMT 49.553879 15.275153 38,000 293 403 64
2019-09-12 11:24:05 GMT 49.551319 15.284655 38,000 293 404 0
2019-09-12 11:24:02 GMT 49.549316 15.292078 38,000 293 403 0
2019-09-12 11:23:58 GMT 49.546200 15.303732 38,000 293 405 0
2019-09-12 11:23:55 GMT 49.543591 15.313234 38,000 293 403 64
2019-09-12 11:23:52 GMT 49.542194 15.318505 38,000 293 403 64
2019-09-12 11:23:48 GMT 49.538750 15.331272 38,000 293 403 64
2019-09-12 11:23:45 GMT 49.536575 15.339155 38,000 293 404 64
2019-09-12 11:23:42 GMT 49.534420 15.347084 38,000 293 404 64
2019-09-12 11:23:36 GMT 49.529999 15.363489 38,000 293 404 -64
2019-09-12 11:23:33 GMT 49.528244 15.369873 38,000 293 404 -64
2019-09-12 11:23:26 GMT 49.523621 15.386786 38,000 293 404 0
2019-09-12 11:23:23 GMT 49.521057 15.396327 38,000 293 404 64
2019-09-12 11:23:20 GMT 49.518173 15.406880 38,000 293 404 64
2019-09-12 11:23:15 GMT 49.512543 15.427551 38,000 293 404 0
2019-09-12 11:23:12 GMT 49.512543 15.427551 38,000 293 404 0
2019-09-12 11:23:09 GMT 49.511536 15.431237 38,000 293 404 0
2019-09-12 11:23:06 GMT 49.509201 15.439694 38,000 293 404 64
2019-09-12 11:23:02 GMT 49.505604 15.452864 38,000 293 404 64
2019-09-12 11:22:59 GMT 49.504028 15.458703 38,000 293 404 0
2019-09-12 11:22:55 GMT 49.500996 15.469789 38,000 293 404 0
2019-09-12 11:22:51 GMT 49.495178 15.490945 38,000 293 404 0
2019-09-12 11:22:44 GMT 49.493130 15.498369 38,000 293 404 -64
2019-09-12 11:22:41 GMT 49.490982 15.506335 38,000 293 404 0
2019-09-12 11:22:38 GMT 49.488647 15.514791 38,000 293 404 0
2019-09-12 11:22:33 GMT 49.484573 15.529608 38,000 293 404 64
2019-09-12 11:22:30 GMT 49.482239 15.538065 38,000 293 404 64
2019-09-12 11:22:27 GMT 49.480499 15.544426 38,000 293 405 64
2019-09-12 11:22:24 GMT 49.476151 15.560327 38,000 293 405 64
2019-09-12 11:22:21 GMT 49.476151 15.560327 38,000 293 405 0
2019-09-12 11:22:16 GMT 49.471809 15.576164 38,000 293 405 0
2019-09-12 11:22:13 GMT 49.470459 15.580989 38,000 293 405 0
2019-09-12 11:22:10 GMT 49.468456 15.588412 38,000 293 406 0
2019-09-12 11:22:06 GMT 49.464638 15.602145 38,000 293 406 0
2019-09-12 11:22:03 GMT 49.462639 15.609568 38,000 293 406 0
2019-09-12 11:21:59 GMT 49.460449 15.617571 38,000 293 406 64
2019-09-12 11:21:55 GMT 49.457096 15.629759 38,000 293 406 64
2019-09-12 11:21:51 GMT 49.454445 15.639335 38,000 293 406 64
2019-09-12 11:21:47 GMT 49.451660 15.649374 38,000 293 406 64
2019-09-12 11:21:44 GMT 49.449646 15.656819 38,000 293 407 0
2019-09-12 11:21:41 GMT 49.447414 15.664797 38,000 293 407 0
2019-09-12 11:21:37 GMT 49.443924 15.677564 38,000 293 407 64
2019-09-12 11:21:33 GMT 49.440536 15.689778 38,000 293 407 64
2019-09-12 11:21:30 GMT 49.439072 15.695054 38,000 293 407 64
2019-09-12 11:21:27 GMT 49.436569 15.704140 38,000 293 407 64
2019-09-12 11:21:23 GMT 49.433762 15.714208 38,000 294 407 0
2019-09-12 11:21:18 GMT 49.430191 15.726929 38,000 294 408 0
2019-09-12 11:21:13 GMT 49.425797 15.742915 38,000 294 408 0
2019-09-12 11:21:09 GMT 49.421356 15.758831 38,000 294 407 0
2019-09-12 11:21:06 GMT 49.421356 15.758831 38,000 294 408 0
2019-09-12 11:21:03 GMT 49.418976 15.767353 38,000 294 408 64
2019-09-12 11:20:59 GMT 49.416782 15.775355 38,000 294 408 0
2019-09-12 11:20:56 GMT 49.413666 15.786508 38,000 294 408 0
2019-09-12 11:20:53 GMT 49.411560 15.793973 38,000 293 409 0
2019-09-12 11:20:50 GMT 49.408775 15.804050 38,000 294 408 64
2019-09-12 11:20:47 GMT 49.407005 15.810483 38,000 294 408 64
2019-09-12 11:20:43 GMT 49.404465 15.819538 38,000 293 409 64
2019-09-12 11:20:40 GMT 49.402405 15.827003 38,000 293 409 0
2019-09-12 11:20:37 GMT 49.399475 15.837637 38,000 293 409 0
2019-09-12 11:20:31 GMT 49.393135 15.860572 38,000 293 409 64
2019-09-12 11:20:28 GMT 49.393135 15.860572 38,000 293 409 64
2019-09-12 11:20:24 GMT 49.389725 15.872779 38,000 293 409 64
2019-09-12 11:20:21 GMT 49.385605 15.887709 38,000 293 409 64
2019-09-12 11:20:18 GMT 49.385605 15.887709 38,000 293 409 0
2019-09-12 11:20:14 GMT 49.381870 15.901048 38,000 293 409 0
2019-09-12 11:20:11 GMT 49.380707 15.905312 38,000 293 409 0
2019-09-12 11:20:08 GMT 49.375957 15.922370 38,000 294 410 0
2019-09-12 11:20:04 GMT 49.371815 15.937331 38,000 293 409 0
2019-09-12 11:20:00 GMT 49.370499 15.942148 38,000 293 409 0
2019-09-12 11:19:57 GMT 49.370499 15.942148 38,000 294 409 0
2019-09-12 11:19:54 GMT 49.367950 15.951209 38,000 294 409 0
2019-09-12 11:19:51 GMT 49.365902 15.958654 38,000 294 409 0
2019-09-12 11:19:46 GMT 49.362316 15.971447 38,000 294 410 0
2019-09-12 11:19:43 GMT 49.360062 15.979473 38,000 294 411 0
2019-09-12 11:19:39 GMT 49.356491 15.992291 38,000 294 411 0
2019-09-12 11:19:33 GMT 49.352169 16.007803 38,000 294 412 64
2019-09-12 11:19:29 GMT 49.350075 16.015320 38,000 294 414 0
2019-09-12 11:19:26 GMT 49.346924 16.026518 38,000 294 413 64
2019-09-12 11:19:23 GMT 49.344627 16.034618 38,000 294 413 0
2019-09-12 11:19:19 GMT 49.342392 16.042645 38,000 294 413 0
2019-09-12 11:19:16 GMT 49.339691 16.052326 38,000 294 413 0
2019-09-12 11:19:13 GMT 49.337132 16.061434 38,000 294 414 0
2019-09-12 11:19:09 GMT 49.333782 16.073286 38,000 294 414 0
2019-09-12 11:19:04 GMT 49.330627 16.084618 38,000 294 414 0
2019-09-12 11:19:00 GMT 49.327011 16.097506 38,000 294 414 0
2019-09-12 11:18:54 GMT 49.322933 16.112028 38,000 294 414 64
2019-09-12 11:18:51 GMT 49.321243 16.118000 38,000 294 416 0
2019-09-12 11:18:48 GMT 49.319023 16.126051 38,000 294 414 64
2019-09-12 11:18:44 GMT 49.315392 16.138988 38,000 294 415 64
2019-09-12 11:18:41 GMT 49.313095 16.147085 38,000 294 415 64
2019-09-12 11:18:38 GMT 49.311584 16.152437 38,000 294 415 64
2019-09-12 11:18:35 GMT 49.308884 16.162155 38,000 294 415 64
2019-09-12 11:18:32 GMT 49.306458 16.170748 38,000 294 415 64
2019-09-12 11:18:29 GMT 49.303711 16.180468 38,000 294 416 64
2019-09-12 11:18:25 GMT 49.300217 16.192837 38,000 294 416 0
2019-09-12 11:18:21 GMT 49.297470 16.202593 38,000 294 416 0
2019-09-12 11:18:18 GMT 49.295933 16.207941 38,000 294 416 0
2019-09-12 11:18:15 GMT 49.293045 16.218143 38,000 294 416 0
2019-09-12 11:18:11 GMT 49.290627 16.226807 38,000 294 416 0
2019-09-12 11:18:07 GMT 49.284668 16.247766 38,000 294 416 0
2019-09-12 11:18:04 GMT 49.284668 16.247766 38,000 294 416 0
2019-09-12 11:18:01 GMT 49.282700 16.254835 38,000 294 416 0
2019-09-12 11:17:57 GMT 49.279781 16.265041 38,000 294 416 0
2019-09-12 11:17:53 GMT 49.276428 16.276878 38,000 294 416 0
2019-09-12 11:17:50 GMT 49.274940 16.282244 38,000 294 416 64
2019-09-12 11:17:47 GMT 49.269726 16.300604 38,000 294 416 0
2019-09-12 11:17:44 GMT 49.269726 16.300604 38,000 294 416 64
2019-09-12 11:17:41 GMT 49.264709 16.318359 38,000 294 416 64
2019-09-12 11:17:35 GMT 49.262604 16.325895 38,000 294 416 64
2019-09-12 11:17:32 GMT 49.260132 16.334488 38,000 294 416 64
2019-09-12 11:17:29 GMT 49.258942 16.338783 38,000 294 416 64
2019-09-12 11:17:26 GMT 49.256195 16.348501 38,000 294 416 64
2019-09-12 11:17:23 GMT 49.254364 16.354980 38,000 294 416 0
2019-09-12 11:17:20 GMT 49.251892 16.363571 38,000 294 416 0
2019-09-12 11:17:16 GMT 49.248230 16.376459 38,000 294 415 64
2019-09-12 11:17:13 GMT 49.244247 16.390474 38,000 294 415 0
2019-09-12 11:17:07 GMT 49.241653 16.399624 38,000 294 415 64
2019-09-12 11:17:04 GMT 49.239792 16.406057 38,000 294 415 64
2019-09-12 11:17:00 GMT 49.235962 16.419491 38,000 294 415 64
2019-09-12 11:16:57 GMT 49.234406 16.424843 38,000 294 415 0
2019-09-12 11:16:54 GMT 49.232109 16.432873 38,000 294 415 0
2019-09-12 11:16:49 GMT 49.224884 16.458153 38,000 294 415 64
2019-09-12 11:16:46 GMT 49.224884 16.458153 38,000 294 415 64
2019-09-12 11:16:40 GMT 49.221355 16.470457 38,000 294 415 64
2019-09-12 11:16:37 GMT 49.219215 16.477974 38,000 294 415 0
2019-09-12 11:16:34 GMT 49.216873 16.486042 38,000 294 415 0
2019-09-12 11:16:29 GMT 49.212570 16.501041 38,000 294 415 0
2019-09-12 11:16:23 GMT 49.208221 16.516043 38,000 294 415 0
2019-09-12 11:16:19 GMT 49.204514 16.528931 38,000 294 415 0
2019-09-12 11:16:15 GMT 49.201447 16.539635 38,000 294 415 0
2019-09-12 11:16:12 GMT 49.198334 16.550409 38,000 294 415 64
2019-09-12 11:16:09 GMT 49.196358 16.557337 38,000 294 415 64
2019-09-12 11:16:03 GMT 49.192795 16.569708 38,000 294 415 64
2019-09-12 11:16:00 GMT 49.190495 16.577719 38,000 294 415 64
2019-09-12 11:15:57 GMT 49.188026 16.586321 38,000 294 415 64
2019-09-12 11:15:54 GMT 49.185425 16.595411 38,000 294 415 64
2019-09-12 11:15:48 GMT 49.180756 16.611469 38,000 294 415 64
2019-09-12 11:15:45 GMT 49.178604 16.619003 38,000 294 415 64
2019-09-12 11:15:42 GMT 49.176292 16.627012 38,000 294 415 0
2019-09-12 11:15:39 GMT 49.174107 16.634529 38,000 294 413 768
2019-09-12 11:15:36 GMT 49.170868 16.645765 38,000 294 415 0
2019-09-12 11:15:33 GMT 49.169453 16.650576 38,000 294 415 0
2019-09-12 11:15:27 GMT 49.164368 16.668232 38,000 294 415 0
2019-09-12 11:15:24 GMT 49.162655 16.674067 38,000 294 415 0
2019-09-12 11:15:21 GMT 49.158783 16.687458 38,000 294 415 0
2019-09-12 11:15:17 GMT 49.155857 16.697630 38,000 294 414 0
2019-09-12 11:15:12 GMT 49.153065 16.707241 38,000 294 414 0
2019-09-12 11:15:08 GMT 49.149811 16.718445 38,000 294 414 0
2019-09-12 11:15:05 GMT 49.147934 16.724783 38,000 294 412 768
2019-09-12 11:15:01 GMT 49.144226 16.737600 38,000 294 414 64
2019-09-12 11:14:58 GMT 49.141891 16.745623 38,000 294 414 0
2019-09-12 11:14:55 GMT 49.139557 16.753588 38,000 294 414 64
2019-09-12 11:14:51 GMT 49.131977 16.779737 38,000 294 413 768
2019-09-12 11:14:45 GMT 49.131977 16.779737 38,000 294 415 64
2019-09-12 11:14:41 GMT 49.128300 16.792603 38,000 294 414 0
2019-09-12 11:14:34 GMT 49.120945 16.818260 38,000 294 414 0
2019-09-12 11:14:31 GMT 49.120945 16.818260 38,000 294 414 0
2019-09-12 11:14:27 GMT 49.118683 16.826265 38,000 294 414 64
2019-09-12 11:14:24 GMT 49.115021 16.839153 38,000 294 414 64
2019-09-12 11:14:21 GMT 49.113358 16.845003 38,000 294 414 64
2019-09-12 11:14:14 GMT 49.106232 16.870211 38,000 294 414 64
2019-09-12 11:14:11 GMT 49.106232 16.870211 38,000 294 414 0
2019-09-12 11:14:08 GMT 49.100784 16.889507 38,000 294 414 0
2019-09-12 11:14:05 GMT 49.100784 16.889507 38,000 294 415 0
2019-09-12 11:14:01 GMT 49.098507 16.897478 38,000 294 415 0
2019-09-12 11:13:57 GMT 49.095898 16.906586 38,000 294 414 0
2019-09-12 11:13:53 GMT 49.089432 16.929016 38,000 294 414 64
2019-09-12 11:13:50 GMT 49.089432 16.929016 38,000 294 414 0
2019-09-12 11:13:44 GMT 49.082657 16.952469 38,000 294 414 0
2019-09-12 11:13:41 GMT 49.082657 16.952469 38,000 294 414 0
2019-09-12 11:13:38 GMT 49.080185 16.960989 38,000 294 414 64
2019-09-12 11:13:30 GMT 49.074764 16.979588 38,000 294 414 64
2019-09-12 11:13:26 GMT 49.072018 16.989128 38,000 294 414 0
2019-09-12 11:13:22 GMT 49.068897 16.999825 38,000 294 413 -128
2019-09-12 11:13:19 GMT 49.066589 17.007751 38,000 294 413 -128
2019-09-12 11:13:15 GMT 49.059635 17.031700 38,000 294 412 640
2019-09-12 11:13:11 GMT 49.059635 17.031700 37,950 294 412 768
2019-09-12 11:13:08 GMT 49.057938 17.037472 37,950 294 412 768
2019-09-12 11:13:02 GMT 49.052513 17.056059 37,875 295 412 768
2019-09-12 11:12:59 GMT 49.049999 17.064514 37,825 294 413 768
2019-09-12 11:12:54 GMT 49.047089 17.074585 37,800 294 413 768
2019-09-12 11:12:51 GMT 49.042099 17.091557 37,675 295 414 768
2019-09-12 11:12:48 GMT 49.042099 17.091557 37,725 295 414 768
2019-09-12 11:12:44 GMT 49.036194 17.111769 37,625 295 414 768
2019-09-12 11:12:41 GMT 49.036194 17.111769 37,625 295 414 768
2019-09-12 11:12:38 GMT 49.033997 17.119164 37,575 295 413 768
2019-09-12 11:12:32 GMT 49.030075 17.132383 37,525 295 413 768
2019-09-12 11:12:28 GMT 49.024612 17.150927 37,450 295 413 768
2019-09-12 11:12:22 GMT 49.021603 17.161007 37,325 295 413 768
2019-09-12 11:12:18 GMT 49.018616 17.170998 37,350 295 413 768
2019-09-12 11:12:15 GMT 49.016739 17.177336 37,325 295 413 768
2019-09-12 11:12:08 GMT 49.010895 17.196928 37,175 295 413 640
2019-09-12 11:12:05 GMT 49.008545 17.204802 37,200 295 411 704
2019-09-12 11:12:01 GMT 49.005066 17.216421 37,150 295 411 832
2019-09-12 11:11:58 GMT 49.002377 17.225334 37,050 295 411 832
2019-09-12 11:11:55 GMT 49.000187 17.232706 37,100 295 412 896
2019-09-12 11:11:50 GMT 48.996136 17.246439 37,000 295 411 960
2019-09-12 11:11:47 GMT 48.994446 17.252268 36,900 294 412 960
2019-09-12 11:11:44 GMT 48.988541 17.272409 36,925 294 412 960
2019-09-12 11:11:39 GMT 48.988541 17.272409 36,825 294 413 1024
2019-09-12 11:11:36 GMT 48.986267 17.280338 36,825 294 413 1024
2019-09-12 11:11:31 GMT 48.982178 17.294804 36,750 293 414 960
2019-09-12 11:11:27 GMT 48.978725 17.307081 36,625 294 415 960
2019-09-12 11:11:22 GMT 48.974396 17.322620 36,575 294 415 1024
2019-09-12 11:11:17 GMT 48.970905 17.334908 36,525 294 415 1024
2019-09-12 11:11:11 GMT 48.966717 17.349941 36,400 294 415 960
2019-09-12 11:11:06 GMT 48.962807 17.363892 36,325 294 415 1024
2019-09-12 11:11:00 GMT 48.957966 17.381021 36,225 294 415 1088
2019-09-12 11:10:54 GMT 48.954163 17.394457 36,150 294 416 896
2019-09-12 11:10:48 GMT 48.950096 17.408920 36,100 294 416 896
2019-09-12 11:10:44 GMT 48.946747 17.420774 36,025 294 416 192
2019-09-12 11:10:41 GMT 48.944324 17.429377 36,000 294 416 64
2019-09-12 11:10:38 GMT 48.942184 17.436893 36,000 294 415 64
2019-09-12 11:10:35 GMT 48.940086 17.444410 36,000 294 416 64
2019-09-12 11:10:28 GMT 48.934204 17.465303 36,000 294 416 0
2019-09-12 11:10:25 GMT 48.931618 17.474478 36,000 294 416 0
2019-09-12 11:10:22 GMT 48.930405 17.478743 36,000 294 416 -64
2019-09-12 11:10:18 GMT 48.927380 17.489439 36,000 294 416 -64
2019-09-12 11:10:14 GMT 48.923424 17.503389 36,000 294 416 64
2019-09-12 11:10:10 GMT 48.920723 17.513075 36,000 294 416 64
2019-09-12 11:10:06 GMT 48.917557 17.524349 36,000 294 415 0
2019-09-12 11:10:01 GMT 48.914520 17.535095 36,000 294 416 64
2019-09-12 11:09:57 GMT 48.911499 17.545799 36,000 294 417 0
2019-09-12 11:09:54 GMT 48.908295 17.557093 36,000 294 415 64
2019-09-12 11:09:51 GMT 48.906479 17.563524 36,000 294 416 64
2019-09-12 11:09:47 GMT 48.903454 17.574293 36,000 294 417 0
2019-09-12 11:09:42 GMT 48.899494 17.588243 36,000 294 417 0
2019-09-12 11:09:36 GMT 48.894325 17.606529 36,000 294 417 64
2019-09-12 11:09:32 GMT 48.888977 17.625311 36,000 294 417 0
2019-09-12 11:09:28 GMT 48.888977 17.625311 36,000 294 417 0
2019-09-12 11:09:24 GMT 48.885910 17.636086 36,000 294 417 0
2019-09-12 11:09:21 GMT 48.883945 17.643103 36,000 294 417 0
2019-09-12 11:09:18 GMT 48.876160 17.669113 36,000 296 416 64
2019-09-12 11:09:11 GMT 48.876160 17.669113 36,000 299 412 64
2019-09-12 11:09:07 GMT 48.868607 17.690594 36,000 300 411 64
2019-09-12 11:09:04 GMT 48.868607 17.690594 36,000 301 410 64
2019-09-12 11:09:01 GMT 48.866909 17.695072 36,000 302 409 0
2019-09-12 11:08:56 GMT 48.861145 17.709187 36,000 305 407 0
2019-09-12 11:08:50 GMT 48.855923 17.721092 36,000 306 406 0
2019-09-12 11:08:47 GMT 48.851807 17.729891 36,000 308 404 0
2019-09-12 11:08:42 GMT 48.846611 17.740246 36,000 310 402 0
2019-09-12 11:08:39 GMT 48.841442 17.749931 36,000 310 401 0
2019-09-12 11:08:36 GMT 48.839535 17.753401 36,000 312 401 0
2019-09-12 11:08:30 GMT 48.831760 17.766916 36,000 312 401 0
2019-09-12 11:08:26 GMT 48.827572 17.774073 36,000 312 401 0
2019-09-12 11:08:23 GMT 48.823895 17.780359 36,000 312 401 64
2019-09-12 11:08:19 GMT 48.818493 17.789612 36,000 312 401 64
2019-09-12 11:08:14 GMT 48.804760 17.813248 36,000 312 401 0
2019-09-12 11:08:09 GMT 48.804760 17.813248 36,000 312 401 0
2019-09-12 11:08:03 GMT 48.797871 17.825027 36,000 312 402 64
2019-09-12 11:07:59 GMT 48.794678 17.830528 36,000 312 402 -64
2019-09-12 11:07:56 GMT 48.790005 17.838472 36,000 312 402 0
2019-09-12 11:07:53 GMT 48.786346 17.844826 36,000 312 403 64
2019-09-12 11:07:50 GMT 48.782867 17.850740 36,000 312 402 0
2019-09-12 11:07:47 GMT 48.778976 17.857502 36,000 312 404 0
2019-09-12 11:07:44 GMT 48.775246 17.863770 36,000 312 403 0
2019-09-12 11:07:39 GMT 48.768631 17.875177 36,000 312 403 0
2019-09-12 11:07:31 GMT 48.759514 17.890802 36,000 312 403 0
2019-09-12 11:07:28 GMT 48.748154 17.910172 36,000 312 403 0
2019-09-12 11:07:22 GMT 48.748154 17.910172 36,000 312 403 0
2019-09-12 11:07:18 GMT 48.741989 17.920673 36,000 312 403 0
2019-09-12 11:07:14 GMT 48.738796 17.926146 36,000 312 403 0
2019-09-12 11:07:09 GMT 48.728928 17.943060 36,000 312 403 64
2019-09-12 11:07:03 GMT 48.723991 17.951443 36,000 312 403 64
2019-09-12 11:06:59 GMT 48.719330 17.959476 36,000 312 403 64
2019-09-12 11:06:55 GMT 48.715393 17.966238 36,000 312 403 0
2019-09-12 11:06:52 GMT 48.711189 17.973345 36,000 312 403 64
2019-09-12 11:06:48 GMT 48.706722 17.980932 36,000 312 403 64
2019-09-12 11:06:44 GMT 48.702297 17.988522 36,000 312 403 64
2019-09-12 11:06:41 GMT 48.698090 17.995676 36,000 312 403 0
2019-09-12 11:06:38 GMT 48.694386 18.001966 36,000 312 403 0
2019-09-12 11:06:33 GMT 48.688427 18.012085 36,000 312 403 0
2019-09-12 11:06:30 GMT 48.685181 18.017578 36,000 312 403 0
2019-09-12 11:06:26 GMT 48.679024 18.028131 36,000 312 404 0
2019-09-12 11:06:23 GMT 48.672318 18.039480 36,000 312 405 192
2019-09-12 11:06:20 GMT 48.672318 18.039480 36,000 312 404 0
2019-09-12 11:06:17 GMT 48.668083 18.046635 36,000 312 405 0
2019-09-12 11:06:13 GMT 48.662384 18.056381 36,000 312 405 192
2019-09-12 11:06:10 GMT 48.659912 18.060537 36,000 312 405 128
2019-09-12 11:06:06 GMT 48.654922 18.068989 36,000 312 405 0
2019-09-12 11:06:02 GMT 48.648468 18.079975 36,000 312 405 0
2019-09-12 11:05:59 GMT 48.646454 18.083355 36,000 312 405 0
2019-09-12 11:05:56 GMT 48.642471 18.090117 36,000 312 405 -64
2019-09-12 11:05:49 GMT 48.629772 18.111612 36,000 312 405 0
2019-09-12 11:05:41 GMT 48.624229 18.120865 36,000 312 406 0
2019-09-12 11:05:38 GMT 48.614735 18.136909 36,000 312 407 64
2019-09-12 11:05:31 GMT 48.610729 18.143633 36,000 312 407 64
2019-09-12 11:05:27 GMT 48.605988 18.151669 36,000 312 406 64
2019-09-12 11:05:24 GMT 48.597519 18.166105 36,000 312 407 64
2019-09-12 11:05:21 GMT 48.597519 18.166105 36,000 312 407 0
2019-09-12 11:05:16 GMT 48.592026 18.175402 36,000 312 408 0
2019-09-12 11:05:13 GMT 48.587997 18.182232 36,000 312 408 0
2019-09-12 11:05:09 GMT 48.581730 18.192854 36,000 312 408 64
2019-09-12 11:05:05 GMT 48.578239 18.198780 36,000 312 408 64
2019-09-12 11:05:02 GMT 48.574745 18.204706 36,000 312 408 0
2019-09-12 11:04:59 GMT 48.571472 18.210192 36,000 312 408 0
2019-09-12 11:04:55 GMT 48.565430 18.220404 36,000 312 409 0
2019-09-12 11:04:51 GMT 48.561401 18.227234 36,000 312 409 0
2019-09-12 11:04:48 GMT 48.556126 18.236149 36,000 312 409 64
2019-09-12 11:04:44 GMT 48.552338 18.242516 36,000 312 409 64
2019-09-12 11:04:40 GMT 48.547562 18.250532 36,000 312 409 0
2019-09-12 11:04:36 GMT 48.541214 18.261179 36,000 312 410 0
2019-09-12 11:04:32 GMT 48.535412 18.270987 36,000 312 410 0
2019-09-12 11:04:28 GMT 48.532383 18.276047 36,000 312 410 0
2019-09-12 11:04:25 GMT 48.527573 18.284138 36,000 312 410 0
2019-09-12 11:04:22 GMT 48.523773 18.290573 36,000 312 410 0
2019-09-12 11:04:18 GMT 48.518967 18.298645 36,000 312 412 0
2019-09-12 11:04:15 GMT 48.515160 18.305031 36,000 312 412 0
2019-09-12 11:04:11 GMT 48.508850 18.315687 36,000 312 412 64
2019-09-12 11:04:07 GMT 48.505280 18.321674 36,000 312 412 64
2019-09-12 11:04:04 GMT 48.495888 18.337410 36,000 312 412 64
2019-09-12 11:04:00 GMT 48.489029 18.348999 36,000 312 412 0
2019-09-12 11:03:54 GMT 48.489029 18.348999 36,000 312 412 64
2019-09-12 11:03:51 GMT 48.484451 18.356674 36,000 312 412 64
2019-09-12 11:03:47 GMT 48.475845 18.371252 36,000 312 414 0
2019-09-12 11:03:44 GMT 48.472778 18.376394 36,000 312 414 0
2019-09-12 11:03:36 GMT 48.465397 18.388800 36,000 312 414 0
2019-09-12 11:03:33 GMT 48.461300 18.395666 36,000 312 414 64
2019-09-12 11:03:29 GMT 48.456692 18.403400 36,000 313 416 64
2019-09-12 11:03:26 GMT 48.453617 18.408531 36,000 312 414 0
2019-09-12 11:03:23 GMT 48.447517 18.418797 36,000 312 414 0
2019-09-12 11:03:20 GMT 48.440598 18.430410 36,000 312 414 0
2019-09-12 11:03:16 GMT 48.440598 18.430410 36,000 312 414 0
2019-09-12 11:03:12 GMT 48.434715 18.440264 36,000 312 414 0
2019-09-12 11:03:08 GMT 48.430344 18.447523 36,000 312 415 0
2019-09-12 11:03:04 GMT 48.424988 18.456526 36,000 312 415 64
2019-09-12 11:03:01 GMT 48.420845 18.463392 36,000 312 415 0
2019-09-12 11:02:58 GMT 48.417023 18.469778 36,000 312 415 0
2019-09-12 11:02:55 GMT 48.413406 18.475836 36,000 312 416 0
2019-09-12 11:02:52 GMT 48.403900 18.491726 36,000 312 416 64
2019-09-12 11:02:48 GMT 48.403900 18.491726 36,000 312 416 64
2019-09-12 11:02:45 GMT 48.400085 18.498159 36,000 312 416 64
2019-09-12 11:02:41 GMT 48.395195 18.506325 36,000 312 417 0
2019-09-12 11:02:36 GMT 48.389561 18.515795 36,000 312 417 0
2019-09-12 11:02:33 GMT 48.383369 18.526129 36,000 312 417 0
2019-09-12 11:02:26 GMT 48.375690 18.539066 36,000 312 417 64
2019-09-12 11:02:21 GMT 48.369499 18.549402 36,000 312 416 0
2019-09-12 11:02:17 GMT 48.363586 18.559305 36,000 312 416 64
2019-09-12 11:02:13 GMT 48.358978 18.567036 36,000 312 416 0
2019-09-12 11:02:10 GMT 48.355362 18.573023 36,000 312 415 64
2019-09-12 11:02:05 GMT 48.349991 18.582001 36,000 312 415 0
2019-09-12 11:02:02 GMT 48.345898 18.588867 36,000 312 415 0
2019-09-12 11:01:59 GMT 48.340485 18.597881 36,000 312 416 0
2019-09-12 11:01:52 GMT 48.332794 18.610769 36,000 312 415 0
2019-09-12 11:01:47 GMT 48.326660 18.621052 36,000 312 415 0
2019-09-12 11:01:44 GMT 48.321827 18.629198 36,000 313 416 64
2019-09-12 11:01:40 GMT 48.311829 18.645912 36,000 312 415 64
2019-09-12 11:01:37 GMT 48.311829 18.645912 36,000 312 415 64
2019-09-12 11:01:30 GMT 48.303860 18.659195 36,000 313 415 0
2019-09-12 11:01:19 GMT 48.282394 18.694574 36,000 313 416 64
2019-09-12 11:01:13 GMT 48.282394 18.694574 36,000 313 416 0
2019-09-12 11:01:10 GMT 48.277222 18.703096 36,000 313 418 0
2019-09-12 11:01:07 GMT 48.272003 18.711689 36,000 313 417 64
2019-09-12 11:01:03 GMT 48.262428 18.727497 36,000 313 418 0
2019-09-12 11:00:59 GMT 48.262428 18.727497 36,000 313 418 0
2019-09-12 11:00:54 GMT 48.258499 18.733944 36,000 313 418 0
2019-09-12 11:00:49 GMT 48.249439 18.748964 36,000 313 419 0
2019-09-12 11:00:46 GMT 48.241882 18.761410 36,000 313 419 0
2019-09-12 11:00:38 GMT 48.236664 18.769930 36,000 313 418 64
2019-09-12 11:00:34 GMT 48.231705 18.778091 36,000 313 419 64
2019-09-12 11:00:28 GMT 48.222069 18.794065 36,000 313 420 0
2019-09-12 11:00:24 GMT 48.218445 18.800142 36,000 313 420 0
2019-09-12 11:00:17 GMT 48.209564 18.814791 36,000 313 421 0
2019-09-12 11:00:13 GMT 48.203796 18.824299 36,000 313 421 0
2019-09-12 11:00:10 GMT 48.199081 18.832045 36,000 313 421 -64
2019-09-12 11:00:06 GMT 48.193314 18.841553 36,000 313 422 -64
2019-09-12 11:00:03 GMT 48.191483 18.844587 36,000 313 421 -128
2019-09-12 10:59:55 GMT 48.181274 18.861483 36,000 313 426 0
2019-09-12 10:59:52 GMT 48.176819 18.868801 36,000 313 423 0
2019-09-12 10:59:46 GMT 48.167130 18.884794 36,000 313 423 0
2019-09-12 10:59:40 GMT 48.161083 18.894751 36,000 313 424 0
2019-09-12 10:59:36 GMT 48.155823 18.903456 36,000 313 424 64
2019-09-12 10:59:33 GMT 48.150284 18.912552 36,000 313 424 0
2019-09-12 10:59:29 GMT 48.138969 18.931133 36,000 313 426 0
2019-09-12 10:59:24 GMT 48.138969 18.931133 36,000 313 426 0
2019-09-12 10:59:21 GMT 48.136597 18.935074 36,000 313 424 64
2019-09-12 10:59:15 GMT 48.128403 18.948528 36,000 313 424 0
2019-09-12 10:59:05 GMT 48.114944 18.970711 36,000 313 426 0
2019-09-12 10:59:00 GMT 48.107574 18.982864 36,000 313 426 0
2019-09-12 10:58:55 GMT 48.101776 18.992474 36,000 313 426 0
2019-09-12 10:58:52 GMT 48.087982 19.015137 36,000 313 426 0
2019-09-12 10:58:44 GMT 48.087982 19.015137 36,000 313 427 0
2019-09-12 10:58:38 GMT 48.074112 19.037727 36,000 313 427 0
2019-09-12 10:58:34 GMT 48.074112 19.037727 36,000 313 427 0
2019-09-12 10:58:31 GMT 48.069855 19.044662 36,000 313 427 0
2019-09-12 10:58:27 GMT 48.063995 19.054207 36,000 313 427 64
2019-09-12 10:58:23 GMT 48.058903 19.062477 36,000 313 427 64
2019-09-12 10:58:20 GMT 48.055435 19.068146 36,000 313 428 0
2019-09-12 10:58:17 GMT 48.049870 19.077267 36,000 313 428 0
2019-09-12 10:58:13 GMT 48.038910 19.095131 36,000 313 428 0
2019-09-12 10:58:08 GMT 48.038910 19.095131 36,000 313 428 0
2019-09-12 10:58:05 GMT 48.033554 19.103851 36,000 313 428 0
2019-09-12 10:58:02 GMT 48.024174 19.119099 36,000 313 429 64
2019-09-12 10:57:57 GMT 48.024174 19.119099 36,000 313 429 0
2019-09-12 10:57:51 GMT 48.016167 19.132196 36,000 313 429 0
2019-09-12 10:57:44 GMT 48.007324 19.146561 36,000 313 428 0
2019-09-12 10:57:39 GMT 47.997162 19.163177 36,000 313 429 0
2019-09-12 10:57:35 GMT 47.993683 19.168888 36,000 313 430 64
2019-09-12 10:57:32 GMT 47.990471 19.174101 36,000 313 430 0
2019-09-12 10:57:25 GMT 47.979996 19.191143 36,000 313 430 0
2019-09-12 10:57:21 GMT 47.974922 19.199453 36,000 313 430 -64
2019-09-12 10:57:16 GMT 47.967682 19.211243 36,000 313 430 0
2019-09-12 10:57:10 GMT 47.961514 19.221285 36,000 313 430 0
2019-09-12 10:57:05 GMT 47.954533 19.232624 36,000 313 430 64
2019-09-12 10:57:02 GMT 47.951038 19.238329 36,000 313 431 64
2019-09-12 10:56:58 GMT 47.945919 19.246569 36,000 313 431 64
2019-09-12 10:56:55 GMT 47.941864 19.253128 36,000 313 431 64
2019-09-12 10:56:51 GMT 47.935165 19.264032 36,000 313 431 0
2019-09-12 10:56:47 GMT 47.931107 19.270638 36,000 313 431 0
2019-09-12 10:56:41 GMT 47.921432 19.286358 36,000 313 431 64
2019-09-12 10:56:37 GMT 47.916595 19.294189 36,000 313 431 0
2019-09-12 10:56:33 GMT 47.911240 19.302910 36,000 313 431 0
2019-09-12 10:56:30 GMT 47.906906 19.309879 36,000 313 431 64
2019-09-12 10:56:25 GMT 47.900986 19.319527 36,000 313 431 64
2019-09-12 10:56:22 GMT 47.891544 19.334810 36,000 313 431 0
2019-09-12 10:56:19 GMT 47.891544 19.334810 36,000 313 431 64
2019-09-12 10:56:12 GMT 47.883224 19.348297 36,000 313 431 0
2019-09-12 10:56:08 GMT 47.877022 19.358334 36,000 313 431 0
2019-09-12 10:56:01 GMT 47.868668 19.371918 36,000 313 431 0
2019-09-12 10:55:58 GMT 47.863312 19.380638 36,000 313 431 0
2019-09-12 10:55:55 GMT 47.860611 19.384964 36,000 313 431 0
2019-09-12 10:55:51 GMT 47.855209 19.393684 36,000 313 431 0
2019-09-12 10:55:46 GMT 47.847366 19.406363 36,000 313 430 0
2019-09-12 10:55:43 GMT 47.844669 19.410728 36,000 313 431 0
2019-09-12 10:55:39 GMT 47.839268 19.419392 36,000 313 431 0
2019-09-12 10:55:33 GMT 47.830654 19.433336 36,000 313 430 0
2019-09-12 10:55:28 GMT 47.823349 19.445114 36,000 313 431 0
2019-09-12 10:55:22 GMT 47.808197 19.469421 36,000 313 430 64
2019-09-12 10:55:16 GMT 47.808197 19.469421 36,000 313 431 0
2019-09-12 10:55:13 GMT 47.803608 19.476858 36,000 313 431 0
2019-09-12 10:55:04 GMT 47.791691 19.495943 36,000 313 431 0
2019-09-12 10:55:00 GMT 47.786289 19.504677 36,000 313 430 0
2019-09-12 10:54:54 GMT 47.779037 19.516388 36,000 313 431 0
2019-09-12 10:54:50 GMT 47.772793 19.526438 36,000 313 430 64
2019-09-12 10:54:44 GMT 47.764690 19.539467 36,000 313 431 0
2019-09-12 10:54:39 GMT 47.758221 19.549889 36,000 313 431 0
2019-09-12 10:54:36 GMT 47.753891 19.556862 36,000 313 431 0
2019-09-12 10:54:32 GMT 47.743092 19.574257 36,000 313 431 64
2019-09-12 10:54:28 GMT 47.743092 19.574257 36,000 313 430 0
2019-09-12 10:54:22 GMT 47.731731 19.592426 36,000 313 430 64
2019-09-12 10:54:12 GMT 47.720886 19.609680 36,000 313 430 64
2019-09-12 10:54:09 GMT 47.717377 19.615334 36,000 313 430 64
2019-09-12 10:54:00 GMT 47.705196 19.634752 36,000 314 430 64
2019-09-12 10:53:57 GMT 47.698681 19.645103 36,000 313 430 0
2019-09-12 10:53:48 GMT 47.688347 19.661512 36,000 313 430 0
2019-09-12 10:53:45 GMT 47.684830 19.667107 36,000 313 430 0
2019-09-12 10:53:41 GMT 47.679173 19.676163 36,000 314 432 0
2019-09-12 10:53:37 GMT 47.674286 19.683908 36,000 313 430 0
2019-09-12 10:53:31 GMT 47.664276 19.699928 36,000 313 430 0
2019-09-12 10:53:28 GMT 47.659973 19.706863 36,000 313 430 0
2019-09-12 10:53:17 GMT 47.647797 19.726303 36,000 313 430 0
2019-09-12 10:53:11 GMT 47.637558 19.742785 36,000 313 430 0
2019-09-12 10:53:06 GMT 47.631866 19.751839 36,000 313 431 0
2019-09-12 10:53:00 GMT 47.622940 19.766094 36,000 313 430 -64
2019-09-12 10:52:57 GMT 47.619965 19.770859 36,000 314 432 128
2019-09-12 10:52:53 GMT 47.614235 19.779968 36,000 314 432 128
2019-09-12 10:52:46 GMT 47.605316 19.794205 36,000 313 431 0
2019-09-12 10:52:39 GMT 47.590118 19.818375 36,000 313 431 0
2019-09-12 10:52:35 GMT 47.590118 19.818375 36,000 313 431 0
2019-09-12 10:52:32 GMT 47.586021 19.824829 36,000 313 431 0
2019-09-12 10:52:28 GMT 47.579227 19.835604 36,000 313 431 64
2019-09-12 10:52:25 GMT 47.577072 19.839043 36,000 313 431 64
2019-09-12 10:52:21 GMT 47.571075 19.848587 36,000 314 432 128
2019-09-12 10:52:14 GMT 47.561829 19.863213 36,000 314 432 -64
2019-09-12 10:52:10 GMT 47.556381 19.871864 36,000 314 432 0
2019-09-12 10:52:04 GMT 47.547684 19.885666 36,000 314 432 0
2019-09-12 10:51:53 GMT 47.533493 19.908119 36,000 314 432 0
2019-09-12 10:51:47 GMT 47.525040 19.921452 36,000 313 433 0
2019-09-12 10:51:43 GMT 47.519081 19.930960 36,000 314 433 0
2019-09-12 10:51:36 GMT 47.509212 19.946594 36,000 313 434 64
2019-09-12 10:51:32 GMT 47.503765 19.955257 36,000 313 434 64
2019-09-12 10:51:26 GMT 47.496082 19.967369 36,000 313 435 0
2019-09-12 10:51:21 GMT 47.490032 19.976948 36,000 314 436 64
2019-09-12 10:51:15 GMT 47.480392 19.992165 36,000 314 437 0
2019-09-12 10:51:11 GMT 47.474899 20.000816 36,000 314 437 0
2019-09-12 10:51:05 GMT 47.466614 20.013863 36,000 314 437 0
2019-09-12 10:51:00 GMT 47.460239 20.023920 36,000 314 439 0
2019-09-12 10:50:54 GMT 47.451347 20.037935 36,000 313 440 0
2019-09-12 10:50:51 GMT 47.448601 20.042301 36,000 314 440 0
2019-09-12 10:50:48 GMT 47.443573 20.050190 36,000 314 441 0
2019-09-12 10:50:44 GMT 47.437473 20.059837 36,000 314 441 0
2019-09-12 10:50:38 GMT 47.429352 20.072571 36,000 314 441 0
2019-09-12 10:50:33 GMT 47.423218 20.082184 36,000 314 441 0
2019-09-12 10:50:30 GMT 47.418777 20.089256 36,000 314 441 0
2019-09-12 10:50:27 GMT 47.414013 20.096670 36,025 314 442 0
2019-09-12 10:50:21 GMT 47.405632 20.109840 36,000 314 441 64
2019-09-12 10:50:14 GMT 47.396439 20.124275 36,000 314 442 64
2019-09-12 10:50:10 GMT 47.390854 20.133064 36,000 314 442 0
2019-09-12 10:50:00 GMT 47.376072 20.156321 36,000 314 441 0
2019-09-12 10:49:55 GMT 47.369370 20.166815 36,000 314 441 0
2019-09-12 10:49:50 GMT 47.362106 20.178223 36,000 314 441 64
2019-09-12 10:49:39 GMT 47.347023 20.201885 36,000 314 441 0
2019-09-12 10:49:27 GMT 47.330265 20.228085 36,000 314 440 0
2019-09-12 10:49:19 GMT 47.316628 20.249422 36,000 314 440 64
2019-09-12 10:49:15 GMT 47.313812 20.253845 36,000 314 440 64
2019-09-12 10:49:03 GMT 47.297607 20.279114 36,000 314 441 -64
2019-09-12 10:48:56 GMT 47.286133 20.296961 36,000 314 440 0
2019-09-12 10:48:52 GMT 47.281105 20.304777 36,000 314 440 0
2019-09-12 10:48:44 GMT 47.270233 20.321754 36,000 314 441 64
2019-09-12 10:48:41 GMT 47.265747 20.328758 36,000 314 440 64
2019-09-12 10:48:35 GMT 47.255966 20.344004 36,000 314 440 0
2019-09-12 10:48:29 GMT 47.249825 20.353580 36,000 314 441 0
2019-09-12 10:48:21 GMT 47.238922 20.370575 36,000 314 441 0
2019-09-12 10:48:18 GMT 47.234482 20.377579 36,000 314 441 0
2019-09-12 10:48:12 GMT 47.225803 20.391117 36,000 314 440 0
2019-09-12 10:48:08 GMT 47.219658 20.400696 36,000 314 441 0
2019-09-12 10:48:00 GMT 47.209900 20.415962 36,000 314 441 0
2019-09-12 10:47:57 GMT 47.204865 20.423790 36,000 314 442 0
2019-09-12 10:47:49 GMT 47.194244 20.440338 36,000 314 441 0
2019-09-12 10:47:46 GMT 47.189758 20.447342 36,000 314 441 64
2019-09-12 10:47:41 GMT 47.182228 20.459078 36,000 314 442 64
2019-09-12 10:47:38 GMT 47.178829 20.464291 36,000 314 442 64
2019-09-12 10:47:35 GMT 47.174652 20.470825 36,000 314 442 64
2019-09-12 10:47:28 GMT 47.163437 20.488197 36,000 314 441 0
2019-09-12 10:47:24 GMT 47.158951 20.495132 36,000 314 441 0
2019-09-12 10:47:18 GMT 47.148525 20.511192 36,000 314 441 0
2019-09-12 10:47:15 GMT 47.145447 20.515938 36,000 314 441 0
2019-09-12 10:47:09 GMT 47.137573 20.528091 36,000 314 441 0
2019-09-12 10:47:04 GMT 47.130844 20.538460 36,000 314 441 0
2019-09-12 10:46:58 GMT 47.121826 20.552330 36,000 314 442 0
2019-09-12 10:46:55 GMT 47.115940 20.561476 36,000 314 441 0
2019-09-12 10:46:52 GMT 47.108917 20.572311 36,000 314 441 0
2019-09-12 10:46:49 GMT 47.108917 20.572311 36,000 314 441 0
2019-09-12 10:46:44 GMT 47.100483 20.585279 36,000 314 441 64
2019-09-12 10:46:41 GMT 47.097969 20.589153 36,000 314 441 64
2019-09-12 10:46:35 GMT 47.089874 20.601768 36,000 314 441 0
2019-09-12 10:46:31 GMT 47.083958 20.610846 36,000 314 441 64
2019-09-12 10:46:20 GMT 47.069641 20.632942 36,000 314 441 64
2019-09-12 10:46:14 GMT 47.060402 20.647255 36,000 314 441 0
2019-09-12 10:46:10 GMT 47.054489 20.656288 36,000 314 441 64
2019-09-12 10:46:02 GMT 47.043549 20.673170 36,000 314 441 0
2019-09-12 10:45:59 GMT 47.039337 20.679703 36,000 314 441 0
2019-09-12 10:45:49 GMT 47.025581 20.700848 36,000 314 441 64
2019-09-12 10:45:42 GMT 47.015480 20.716412 36,000 314 441 0
2019-09-12 10:45:36 GMT 47.006496 20.730286 36,000 314 441 0
2019-09-12 10:45:30 GMT 46.998020 20.743244 36,000 314 442 64
2019-09-12 10:45:25 GMT 46.992096 20.752350 36,000 314 442 0
2019-09-12 10:45:20 GMT 46.984474 20.764019 36,000 314 443 0
2019-09-12 10:45:15 GMT 46.970371 20.785641 36,000 314 443 64
2019-09-12 10:45:11 GMT 46.970371 20.785641 36,000 314 444 0
2019-09-12 10:45:04 GMT 46.961849 20.798668 36,000 314 444 0
2019-09-12 10:45:00 GMT 46.956173 20.807331 36,000 314 445 64
2019-09-12 10:44:56 GMT 46.951050 20.815147 36,000 314 445 64
2019-09-12 10:44:53 GMT 46.947094 20.821205 36,000 314 445 0
2019-09-12 10:44:48 GMT 46.939133 20.833387 36,000 314 447 64
2019-09-12 10:44:42 GMT 46.930847 20.846008 36,000 314 446 0
2019-09-12 10:44:31 GMT 46.915466 20.869560 36,000 314 447 0
2019-09-12 10:44:28 GMT 46.909744 20.878281 36,000 314 447 64
2019-09-12 10:44:20 GMT 46.899750 20.893532 36,000 314 447 0
2019-09-12 10:44:15 GMT 46.892029 20.905334 36,000 314 447 64
2019-09-12 10:44:12 GMT 46.887741 20.911842 36,000 314 448 0
2019-09-12 10:44:08 GMT 46.882015 20.920574 36,000 314 448 0
2019-09-12 10:44:02 GMT 46.873447 20.933674 36,000 314 447 0
2019-09-12 10:43:57 GMT 46.866302 20.944565 36,000 314 448 0
2019-09-12 10:43:54 GMT 46.861439 20.952026 36,000 314 447 0
2019-09-12 10:43:47 GMT 46.852314 20.965965 36,000 314 447 64
2019-09-12 10:43:41 GMT 46.843143 20.979904 36,000 314 447 0
2019-09-12 10:43:36 GMT 46.832855 20.995628 36,000 314 447 0
2019-09-12 10:43:32 GMT 46.830013 20.999954 36,000 314 447 64
2019-09-12 10:43:24 GMT 46.820023 21.015171 36,000 314 447 64
2019-09-12 10:43:14 GMT 46.805435 21.037376 36,000 314 447 0
2019-09-12 10:43:05 GMT 46.783997 21.069902 36,000 315 446 0
2019-09-12 10:42:59 GMT 46.783997 21.069902 36,000 315 446 0
2019-09-12 10:42:52 GMT 46.771404 21.088943 36,000 314 446 0
2019-09-12 10:42:47 GMT 46.766518 21.096291 36,000 314 446 0
2019-09-12 10:42:41 GMT 46.756229 21.111809 36,000 315 446 0
2019-09-12 10:42:31 GMT 46.741055 21.134674 36,000 315 446 0
2019-09-12 10:42:19 GMT 46.724201 21.160080 36,000 314 443 0
2019-09-12 10:42:11 GMT 46.714474 21.174706 36,000 314 444 0
2019-09-12 10:42:07 GMT 46.707069 21.185898 36,000 314 444 0
2019-09-12 10:41:57 GMT 46.692593 21.207733 36,000 314 441 64
2019-09-12 10:41:51 GMT 46.686356 21.217146 36,000 314 441 0
2019-09-12 10:41:39 GMT 46.670246 21.241447 36,000 314 439 0
2019-09-12 10:41:30 GMT 46.656509 21.262230 36,000 314 437 0
2019-09-12 10:41:21 GMT 46.642735 21.282852 36,000 314 436 0
2019-09-12 10:41:18 GMT 46.640762 21.285810 36,000 315 435 0
2019-09-12 10:41:13 GMT 46.631844 21.299263 36,000 315 434 0
2019-09-12 10:41:09 GMT 46.627048 21.306404 36,000 315 435 0
2019-09-12 10:40:58 GMT 46.612522 21.328239 36,000 314 435 64
2019-09-12 10:40:48 GMT 46.597733 21.350521 36,000 314 435 0
2019-09-12 10:40:35 GMT 46.579880 21.377384 36,000 314 434 0
2019-09-12 10:40:25 GMT 46.566158 21.397934 36,000 315 435 0
2019-09-12 10:40:15 GMT 46.552750 21.418053 36,000 315 435 0
2019-09-12 10:40:07 GMT 46.537621 21.440643 36,000 315 434 0
2019-09-12 10:40:04 GMT 46.534828 21.444832 36,000 315 435 0
2019-09-12 10:39:52 GMT 46.519745 21.467422 36,000 315 434 0
2019-09-12 10:39:43 GMT 46.505451 21.488708 36,000 315 434 0
2019-09-12 10:39:31 GMT 46.488369 21.514252 36,000 315 434 0
2019-09-12 10:39:20 GMT 46.474358 21.535126 36,000 315 434 0
2019-09-12 10:39:05 GMT 46.452198 21.568016 36,000 315 434 0
2019-09-12 10:38:54 GMT 46.437347 21.590195 36,000 315 434 0
2019-09-12 10:38:38 GMT 46.414631 21.623978 36,000 315 434 0
2019-09-12 10:38:33 GMT 46.405926 21.636887 36,000 315 435 0
2019-09-12 10:38:24 GMT 46.397186 21.649832 36,000 315 435 0
2019-09-12 10:38:21 GMT 46.391026 21.658928 36,000 315 436 0
2019-09-12 10:38:12 GMT 46.377480 21.678978 36,000 315 436 0
2019-09-12 10:38:03 GMT 46.366837 21.694782 36,000 315 436 0
2019-09-12 10:38:00 GMT 46.361187 21.703079 36,000 315 436 0
2019-09-12 10:37:54 GMT 46.353600 21.714272 36,000 315 436 0
2019-09-12 10:37:48 GMT 46.344009 21.728485 36,000 315 436 64
2019-09-12 10:37:42 GMT 46.336700 21.739265 36,000 315 435 0
2019-09-12 10:37:36 GMT 46.327438 21.752930 36,000 315 434 0
2019-09-12 10:37:28 GMT 46.314449 21.772087 36,000 315 434 64
2019-09-12 10:37:22 GMT 46.308582 21.780807 36,000 315 435 64
2019-09-12 10:37:15 GMT 46.298157 21.796188 36,000 315 434 0
2019-09-12 10:37:09 GMT 46.290615 21.807449 36,000 315 434 0
2019-09-12 10:37:04 GMT 46.282188 21.819946 36,000 315 434 0
2019-09-12 10:36:57 GMT 46.274368 21.831551 36,000 315 434 0
2019-09-12 10:36:53 GMT 46.266499 21.843224 36,000 315 434 0
2019-09-12 10:36:47 GMT 46.251324 21.865677 36,000 315 434 0
2019-09-12 10:36:41 GMT 46.245689 21.873917 36,000 315 434 0
2019-09-12 10:36:37 GMT 46.245689 21.873917 36,000 315 435 0
2019-09-12 10:36:32 GMT 46.236706 21.887169 36,000 315 434 0
2019-09-12 10:36:27 GMT 46.231934 21.894211 36,000 315 435 0
2019-09-12 10:36:20 GMT 46.220089 21.911545 36,000 315 434 0
2019-09-12 10:36:09 GMT 46.205750 21.932693 36,000 315 434 0
2019-09-12 10:36:04 GMT 46.198105 21.943785 36,000 315 434 0
2019-09-12 10:35:59 GMT 46.190529 21.954941 36,000 315 434 64
2019-09-12 10:35:53 GMT 46.184601 21.963614 36,000 315 434 0
2019-09-12 10:35:47 GMT 46.174747 21.978012 36,000 315 434 0
2019-09-12 10:35:44 GMT 46.170788 21.983780 36,000 315 434 64
2019-09-12 10:35:37 GMT 46.160889 21.998178 36,000 315 434 0
2019-09-12 10:35:34 GMT 46.155521 22.006027 36,000 315 434 0
2019-09-12 10:35:27 GMT 46.147045 22.018318 36,000 315 434 0
2019-09-12 10:35:23 GMT 46.140858 22.027382 36,000 315 434 0
2019-09-12 10:35:16 GMT 46.131546 22.040918 36,000 315 434 0
2019-09-12 10:35:08 GMT 46.120560 22.056908 36,000 315 434 0
2019-09-12 10:35:04 GMT 46.114925 22.065079 36,000 315 432 64
2019-09-12 10:35:00 GMT 46.108410 22.074554 36,000 315 432 64
2019-09-12 10:34:57 GMT 46.105637 22.078634 36,000 315 433 64
2019-09-12 10:34:54 GMT 46.101151 22.085199 36,000 315 432 0
2019-09-12 10:34:47 GMT 46.091583 22.099133 36,000 315 433 0
2019-09-12 10:34:42 GMT 46.084305 22.109783 36,000 315 432 0
2019-09-12 10:34:38 GMT 46.078987 22.117607 36,000 315 432 0
2019-09-12 10:34:32 GMT 46.070004 22.130722 36,000 315 432 0
2019-09-12 10:34:28 GMT 46.063858 22.139717 36,000 315 432 0
2019-09-12 10:34:20 GMT 46.053452 22.154869 36,000 315 432 0
2019-09-12 10:34:12 GMT 46.041981 22.171646 36,000 315 432 0
2019-09-12 10:34:09 GMT 46.028183 22.191647 36,000 315 432 0
2019-09-12 10:34:02 GMT 46.028183 22.191647 36,000 315 432 0
2019-09-12 10:33:59 GMT 46.023697 22.198212 36,000 315 432 0
2019-09-12 10:33:48 GMT 46.008274 22.220673 36,000 315 432 0
2019-09-12 10:33:44 GMT 46.001312 22.230968 36,000 315 432 64
2019-09-12 10:33:38 GMT 45.994308 22.241203 36,000 315 432 0
2019-09-12 10:33:35 GMT 45.989235 22.248550 36,000 315 432 0
2019-09-12 10:33:24 GMT 45.973801 22.271029 36,000 315 433 0
2019-09-12 10:33:15 GMT 45.961990 22.288177 36,000 315 433 0
2019-09-12 10:33:10 GMT 45.953251 22.300804 36,000 315 433 0
2019-09-12 10:33:04 GMT 45.946793 22.310219 36,000 315 433 0
2019-09-12 10:32:59 GMT 45.939190 22.321198 36,000 315 433 0
2019-09-12 10:32:53 GMT 45.931278 22.332664 36,000 315 433 0
2019-09-12 10:32:49 GMT 45.924820 22.342037 36,000 315 433 0
2019-09-12 10:32:44 GMT 45.918335 22.351410 36,000 315 433 0
2019-09-12 10:32:40 GMT 45.912098 22.360405 36,000 315 433 0
2019-09-12 10:32:36 GMT 45.907333 22.367359 36,000 315 433 0
2019-09-12 10:32:32 GMT 45.901951 22.375099 36,000 315 433 0
2019-09-12 10:32:22 GMT 45.887558 22.395899 36,000 315 434 64
2019-09-12 10:32:19 GMT 45.883575 22.401592 36,000 315 434 0
2019-09-12 10:32:16 GMT 45.878765 22.408539 36,000 315 434 0
2019-09-12 10:32:09 GMT 45.868881 22.422829 36,000 315 434 0
2019-09-12 10:32:06 GMT 45.864616 22.428932 36,000 315 434 0
2019-09-12 10:31:56 GMT 45.850464 22.449326 36,000 315 434 0
2019-09-12 10:31:45 GMT 45.834587 22.472191 36,000 315 434 64
2019-09-12 10:31:35 GMT 45.820129 22.492966 36,000 315 435 0
2019-09-12 10:31:24 GMT 45.804516 22.515381 36,000 315 435 0
2019-09-12 10:31:13 GMT 45.788643 22.538177 36,000 315 435 0
2019-09-12 10:31:03 GMT 45.773277 22.560150 36,000 315 435 0
2019-09-12 10:30:50 GMT 45.756195 22.584526 36,000 315 435 64
2019-09-12 10:30:39 GMT 45.741997 22.604851 36,000 315 435 0
2019-09-12 10:30:29 GMT 45.727753 22.625175 36,000 315 435 64
2019-09-12 10:30:24 GMT 45.718674 22.638222 36,000 315 435 64
2019-09-12 10:30:18 GMT 45.704132 22.658966 36,000 315 435 0
2019-09-12 10:30:09 GMT 45.698143 22.667473 36,000 315 436 0
2019-09-12 10:29:57 GMT 45.680740 22.692327 36,000 315 436 0
2019-09-12 10:29:45 GMT 45.664810 22.715172 36,000 315 436 0
2019-09-12 10:29:34 GMT 45.649124 22.737511 36,000 315 436 0
2019-09-12 10:29:30 GMT 45.641418 22.748531 36,000 315 436 0
2019-09-12 10:29:23 GMT 45.633408 22.759920 36,000 315 436 64
2019-09-12 10:29:20 GMT 45.627686 22.768026 36,000 315 436 0
2019-09-12 10:29:13 GMT 45.617981 22.781826 36,000 316 436 0
2019-09-12 10:29:10 GMT 45.612579 22.789558 36,000 315 436 0
2019-09-12 10:29:02 GMT 45.602852 22.803360 36,000 316 436 0
2019-09-12 10:28:59 GMT 45.597977 22.810297 36,000 316 436 0
2019-09-12 10:28:49 GMT 45.582832 22.831787 36,000 315 436 64
2019-09-12 10:28:39 GMT 45.570869 22.848816 36,000 315 436 -64
2019-09-12 10:28:36 GMT 45.565704 22.856163 36,000 315 436 -64
2019-09-12 10:28:28 GMT 45.553436 22.873602 36,000 316 436 64
2019-09-12 10:28:17 GMT 45.537964 22.895508 36,000 316 436 0
2019-09-12 10:28:13 GMT 45.533115 22.902342 36,000 316 437 0
2019-09-12 10:28:06 GMT 45.521347 22.918985 36,000 316 437 64
2019-09-12 10:27:58 GMT 45.511047 22.933567 36,000 316 437 0
2019-09-12 10:27:53 GMT 45.504440 22.942938 36,000 316 437 0
2019-09-12 10:27:50 GMT 45.499832 22.949434 36,000 316 437 -64
2019-09-12 10:27:43 GMT 45.486053 22.968863 36,000 316 437 0
2019-09-12 10:27:35 GMT 45.477440 22.980988 36,000 316 437 64
2019-09-12 10:27:29 GMT 45.469990 22.991505 36,000 316 437 64
2019-09-12 10:27:25 GMT 45.463100 23.001219 36,000 316 437 64
2019-09-12 10:27:21 GMT 45.458221 23.008118 36,000 316 437 0
2019-09-12 10:27:17 GMT 45.451904 23.017012 36,000 316 437 0
2019-09-12 10:27:12 GMT 45.444714 23.027143 36,000 316 437 0
2019-09-12 10:27:08 GMT 45.440105 23.033573 36,000 316 437 0
2019-09-12 10:27:02 GMT 45.431213 23.046112 36,000 316 437 0
2019-09-12 10:26:57 GMT 45.424603 23.055412 36,000 316 437 0
2019-09-12 10:26:52 GMT 45.415993 23.067537 36,000 316 437 0
2019-09-12 10:26:47 GMT 45.409054 23.077251 36,000 316 437 0
2019-09-12 10:26:43 GMT 45.402164 23.086899 36,000 316 437 0
2019-09-12 10:26:38 GMT 45.392670 23.100260 36,000 316 437 64
2019-09-12 10:26:35 GMT 45.392670 23.100260 36,000 316 437 64
2019-09-12 10:26:31 GMT 45.386353 23.109087 36,000 316 437 64
2019-09-12 10:26:21 GMT 45.368546 23.134132 36,000 316 437 0
2019-09-12 10:26:14 GMT 45.362228 23.143026 36,000 316 437 0
2019-09-12 10:26:10 GMT 45.356777 23.150673 36,000 316 437 0
2019-09-12 10:26:07 GMT 45.352478 23.156694 36,000 316 437 0
2019-09-12 10:26:03 GMT 45.345882 23.165945 36,000 316 437 0
2019-09-12 10:25:59 GMT 45.339554 23.174788 36,000 316 437 0
2019-09-12 10:25:56 GMT 45.335220 23.180824 36,000 316 437 0
2019-09-12 10:25:51 GMT 45.328053 23.190866 36,000 316 437 64
2019-09-12 10:25:48 GMT 45.325169 23.194885 36,000 316 437 64
2019-09-12 10:25:43 GMT 45.316509 23.206944 36,000 316 437 0
2019-09-12 10:25:40 GMT 45.305012 23.223021 36,000 316 437 0
2019-09-12 10:25:36 GMT 45.305012 23.223021 36,000 316 437 0
2019-09-12 10:25:28 GMT 45.296677 23.234711 36,000 316 437 0
2019-09-12 10:25:23 GMT 45.288345 23.246332 36,000 316 437 64
2019-09-12 10:25:16 GMT 45.278011 23.260803 36,000 316 437 0
2019-09-12 10:25:07 GMT 45.265640 23.278133 36,000 316 437 0
2019-09-12 10:25:04 GMT 45.250717 23.298994 36,000 316 437 0
2019-09-12 10:24:57 GMT 45.250717 23.298994 36,000 316 437 0
2019-09-12 10:24:54 GMT 45.247284 23.303833 36,000 316 437 64
2019-09-12 10:24:51 GMT 45.242397 23.310644 36,000 316 437 64
2019-09-12 10:24:47 GMT 45.234901 23.321095 36,000 316 437 64
2019-09-12 10:24:44 GMT 45.232315 23.324694 36,000 316 437 0
2019-09-12 10:24:37 GMT 45.222797 23.337975 36,000 316 437 0
2019-09-12 10:24:32 GMT 45.215012 23.348759 36,000 316 437 0
2019-09-12 10:24:29 GMT 45.210693 23.354790 36,000 316 437 0
2019-09-12 10:24:26 GMT 45.206955 23.360006 36,000 316 437 0
2019-09-12 10:24:22 GMT 45.200359 23.369192 36,000 316 437 0
2019-09-12 10:24:19 GMT 45.196312 23.374821 36,000 316 437 0
2019-09-12 10:24:16 GMT 45.192261 23.380447 36,000 316 437 64
2019-09-12 10:24:11 GMT 45.184765 23.390829 36,000 316 437 0
2019-09-12 10:24:05 GMT 45.177017 23.401665 36,000 316 437 0
2019-09-12 10:24:00 GMT 45.161720 23.422918 36,000 316 437 0
2019-09-12 10:23:55 GMT 45.161720 23.422918 36,000 316 437 0
2019-09-12 10:23:51 GMT 45.155949 23.430889 36,000 316 437 0
2019-09-12 10:23:48 GMT 45.150467 23.438545 36,000 316 437 0
2019-09-12 10:23:43 GMT 45.144699 23.446524 36,000 316 437 0
2019-09-12 10:23:38 GMT 45.136047 23.458557 36,000 316 437 64
2019-09-12 10:23:34 GMT 45.132019 23.464115 36,000 316 437 64
2019-09-12 10:23:30 GMT 45.125702 23.472944 36,000 316 437 64
2019-09-12 10:23:23 GMT 45.116455 23.485762 36,000 316 437 0
2019-09-12 10:23:20 GMT 45.110981 23.493324 36,000 316 437 0
2019-09-12 10:23:14 GMT 45.101486 23.506557 36,000 316 437 0
2019-09-12 10:23:10 GMT 45.095123 23.515385 36,000 316 437 0
2019-09-12 10:23:02 GMT 45.085922 23.528137 36,000 316 437 0
2019-09-12 10:22:57 GMT 45.078964 23.537750 36,000 316 437 0
2019-09-12 10:22:51 GMT 45.070015 23.550133 36,000 316 437 0
2019-09-12 10:22:48 GMT 45.065094 23.556911 36,000 316 437 0
2019-09-12 10:22:41 GMT 45.054977 23.570898 36,000 316 437 0
2019-09-12 10:22:37 GMT 45.049812 23.578068 36,000 316 437 0
2019-09-12 10:22:31 GMT 45.040546 23.590796 36,000 316 437 0
2019-09-12 10:22:28 GMT 45.035614 23.597586 36,000 316 437 0
2019-09-12 10:22:20 GMT 45.020599 23.618317 36,000 316 437 0
2019-09-12 10:22:17 GMT 45.020599 23.618317 36,000 316 437 0
2019-09-12 10:22:10 GMT 45.010208 23.632704 36,000 316 437 64
2019-09-12 10:22:06 GMT 45.005306 23.639498 36,000 316 437 0
2019-09-12 10:22:00 GMT 44.995789 23.652649 36,000 316 437 0
2019-09-12 10:21:55 GMT 44.989712 23.660999 36,000 316 437 0
2019-09-12 10:21:49 GMT 44.979843 23.674532 36,000 316 437 0
2019-09-12 10:21:45 GMT 44.974365 23.682077 36,000 316 437 0
2019-09-12 10:21:39 GMT 44.965412 23.694427 36,000 316 437 0
2019-09-12 10:21:36 GMT 44.960449 23.701172 36,000 316 437 0
2019-09-12 10:21:33 GMT 44.945675 23.721424 36,000 316 437 64
2019-09-12 10:21:26 GMT 44.945675 23.721424 36,000 316 437 64
2019-09-12 10:21:18 GMT 44.934906 23.736094 36,000 316 438 0
2019-09-12 10:21:15 GMT 44.930878 23.741652 36,000 316 438 0
2019-09-12 10:21:05 GMT 44.915726 23.762251 36,000 316 438 64
2019-09-12 10:20:55 GMT 44.901169 23.782064 36,000 316 438 -64
2019-09-12 10:20:46 GMT 44.889206 23.798328 36,000 317 437 0
2019-09-12 10:20:42 GMT 44.883087 23.806654 36,000 317 437 0
2019-09-12 10:20:38 GMT 44.877869 23.813782 36,000 317 438 0
2019-09-12 10:20:33 GMT 44.869125 23.825619 36,000 317 438 0
2019-09-12 10:20:28 GMT 44.862717 23.834316 36,000 316 438 0
2019-09-12 10:20:25 GMT 44.858341 23.840265 36,000 316 438 0
2019-09-12 10:20:21 GMT 44.851917 23.848974 36,000 316 438 0
2019-09-12 10:20:14 GMT 44.840279 23.864849 36,000 316 438 0
2019-09-12 10:20:11 GMT 44.837345 23.868803 36,000 316 438 0
2019-09-12 10:20:04 GMT 44.827194 23.882708 36,000 316 438 0
2019-09-12 10:20:00 GMT 44.820786 23.891405 36,000 316 438 0
2019-09-12 10:19:53 GMT 44.810623 23.905312 36,000 316 439 0
2019-09-12 10:19:49 GMT 44.805084 23.912855 36,000 316 439 0
2019-09-12 10:19:42 GMT 44.794891 23.926748 36,000 316 439 0
2019-09-12 10:19:38 GMT 44.788467 23.935457 36,000 316 439 0
2019-09-12 10:19:32 GMT 44.780640 23.946205 36,000 316 439 0
2019-09-12 10:19:28 GMT 44.773041 23.956472 36,000 316 439 0
2019-09-12 10:19:22 GMT 44.764584 23.968016 36,000 316 439 64
2019-09-12 10:19:14 GMT 44.754410 23.981913 36,000 316 439 0
2019-09-12 10:19:11 GMT 44.750061 23.987844 36,000 316 439 0
2019-09-12 10:19:06 GMT 44.742233 23.998587 36,000 316 439 0
2019-09-12 10:19:01 GMT 44.735275 24.008135 36,000 316 439 0
2019-09-12 10:18:56 GMT 44.728867 24.016897 36,000 316 439 0
2019-09-12 10:18:53 GMT 44.723648 24.024027 36,000 316 439 0
2019-09-12 10:18:49 GMT 44.717834 24.032003 36,000 316 439 0
2019-09-12 10:18:44 GMT 44.710281 24.042337 36,000 316 439 0
2019-09-12 10:18:40 GMT 44.705322 24.049072 36,000 316 439 0
2019-09-12 10:18:36 GMT 44.699203 24.057377 36,000 316 439 0
2019-09-12 10:18:33 GMT 44.694244 24.064077 36,000 316 439 0
2019-09-12 10:18:29 GMT 44.689270 24.070848 36,000 317 439 0
2019-09-12 10:18:26 GMT 44.684052 24.077911 36,000 316 439 0
2019-09-12 10:18:22 GMT 44.677345 24.087055 36,000 316 439 0
2019-09-12 10:18:18 GMT 44.674118 24.091383 36,000 316 438 0
2019-09-12 10:18:11 GMT 44.659237 24.111574 36,000 316 439 64
2019-09-12 10:18:05 GMT 44.654892 24.117476 36,000 316 439 64
2019-09-12 10:18:02 GMT 44.649323 24.125038 36,000 316 439 0
2019-09-12 10:17:59 GMT 44.644108 24.132139 36,000 316 439 0
2019-09-12 10:17:51 GMT 44.634750 24.144800 36,000 317 439 -64
2019-09-12 10:17:47 GMT 44.628616 24.153114 36,000 317 439 0
2019-09-12 10:17:42 GMT 44.620132 24.164562 36,000 317 439 0
2019-09-12 10:17:36 GMT 44.611988 24.175549 36,000 317 438 0
2019-09-12 10:17:31 GMT 44.604080 24.186205 36,000 317 438 64
2019-09-12 10:17:26 GMT 44.597370 24.195244 36,000 317 438 64
2019-09-12 10:17:20 GMT 44.589176 24.206230 36,000 317 438 0
2019-09-12 10:17:15 GMT 44.581284 24.216810 36,000 317 437 0
2019-09-12 10:17:10 GMT 44.574558 24.225859 36,000 317 437 0
2019-09-12 10:17:05 GMT 44.566086 24.237213 36,000 317 437 0
2019-09-12 10:17:00 GMT 44.559940 24.245419 36,000 317 438 0
2019-09-12 10:16:55 GMT 44.550587 24.258013 36,000 317 438 0
2019-09-12 10:16:50 GMT 44.544765 24.265850 36,000 317 437 0
2019-09-12 10:16:47 GMT 44.538342 24.274492 36,000 317 437 0
2019-09-12 10:16:43 GMT 44.535408 24.278378 36,000 317 437 0
2019-09-12 10:16:40 GMT 44.530472 24.285082 36,000 317 437 0
2019-09-12 10:16:33 GMT 44.519989 24.299208 36,000 317 437 0
2019-09-12 10:16:30 GMT 44.515625 24.305040 36,000 317 437 0
2019-09-12 10:16:26 GMT 44.508640 24.314486 36,000 317 437 0
2019-09-12 10:16:23 GMT 44.504593 24.319979 36,000 317 437 0
2019-09-12 10:16:19 GMT 44.500214 24.325823 36,000 317 437 0
2019-09-12 10:16:13 GMT 44.490623 24.338736 36,000 317 437 0
2019-09-12 10:16:09 GMT 44.485657 24.345375 36,000 317 437 0
2019-09-12 10:16:05 GMT 44.478699 24.354794 36,000 317 437 0
2019-09-12 10:16:01 GMT 44.473434 24.361790 36,000 317 437 0
2019-09-12 10:15:58 GMT 44.469360 24.367283 36,000 317 437 0
2019-09-12 10:15:55 GMT 44.462997 24.375851 36,000 317 436 0
2019-09-12 10:15:50 GMT 44.457184 24.383698 36,000 317 435 0
2019-09-12 10:15:44 GMT 44.448727 24.394941 36,000 317 436 0
2019-09-12 10:15:41 GMT 44.444962 24.400045 36,000 317 435 0
2019-09-12 10:15:38 GMT 44.440292 24.406260 36,000 317 435 64
2019-09-12 10:15:32 GMT 44.430668 24.419058 36,000 317 435 0
2019-09-12 10:15:29 GMT 44.425735 24.425680 36,000 317 435 0
2019-09-12 10:15:22 GMT 44.416992 24.437321 36,000 317 435 0
2019-09-12 10:15:18 GMT 44.410034 24.446608 36,000 317 435 0
2019-09-12 10:15:13 GMT 44.402737 24.456303 36,000 317 434 0
2019-09-12 10:15:08 GMT 44.395752 24.465614 36,000 317 434 0
2019-09-12 10:15:05 GMT 44.391701 24.471041 36,000 317 434 0
2019-09-12 10:15:02 GMT 44.387604 24.476467 36,000 317 434 0
2019-09-12 10:14:57 GMT 44.381229 24.484976 36,000 317 434 0
2019-09-12 10:14:54 GMT 44.376015 24.491941 36,000 317 434 0
2019-09-12 10:14:51 GMT 44.369293 24.500885 36,000 317 434 0
2019-09-12 10:14:47 GMT 44.366703 24.504335 36,000 317 434 0
2019-09-12 10:14:41 GMT 44.357391 24.516727 36,000 317 434 0
2019-09-12 10:14:38 GMT 44.352448 24.523315 36,000 317 434 64
2019-09-12 10:14:32 GMT 44.344589 24.533745 36,000 317 435 0
2019-09-12 10:14:27 GMT 44.337051 24.543793 36,000 317 435 0
2019-09-12 10:14:22 GMT 44.329460 24.553841 36,000 317 435 0
2019-09-12 10:14:19 GMT 44.324806 24.560003 36,000 317 435 0
2019-09-12 10:14:16 GMT 44.321045 24.565037 36,000 317 435 0
2019-09-12 10:14:11 GMT 44.313492 24.575108 36,000 317 435 0
2019-09-12 10:14:07 GMT 44.306789 24.583986 36,000 317 435 0
2019-09-12 10:14:01 GMT 44.297482 24.596312 36,000 317 434 0
2019-09-12 10:13:56 GMT 44.291103 24.604820 36,000 317 434 0
2019-09-12 10:13:48 GMT 44.278610 24.621342 36,000 317 435 0
2019-09-12 10:13:45 GMT 44.275974 24.624849 36,000 317 434 0
2019-09-12 10:13:39 GMT 44.265244 24.639130 36,000 317 434 0
2019-09-12 10:13:34 GMT 44.259727 24.646420 36,000 317 434 0
2019-09-12 10:13:28 GMT 44.250973 24.658010 36,000 317 434 0
2019-09-12 10:13:24 GMT 44.245762 24.664976 36,000 317 434 0
2019-09-12 10:13:17 GMT 44.234730 24.679647 36,000 317 434 0
2019-09-12 10:13:14 GMT 44.230362 24.685429 36,000 317 434 0
2019-09-12 10:13:07 GMT 44.221069 24.697788 36,000 317 434 0
2019-09-12 10:13:03 GMT 44.214382 24.706711 36,000 317 435 0
2019-09-12 10:12:53 GMT 44.198959 24.727152 36,000 317 435 0
2019-09-12 10:12:44 GMT 44.185547 24.744852 36,000 317 435 0
2019-09-12 10:12:41 GMT 44.183212 24.747917 36,000 317 435 0
2019-09-12 10:12:34 GMT 44.171837 24.762987 36,000 317 435 0
2019-09-12 10:12:31 GMT 44.167740 24.768351 36,000 317 435 0
2019-09-12 10:12:26 GMT 44.158428 24.780708 36,000 317 435 0
2019-09-12 10:12:23 GMT 44.152004 24.789145 36,000 317 435 0
2019-09-12 10:12:20 GMT 44.152004 24.789145 36,000 317 435 0
2019-09-12 10:12:15 GMT 44.144974 24.798367 36,000 317 435 0
2019-09-12 10:12:12 GMT 44.139404 24.805723 36,000 317 435 0
2019-09-12 10:12:08 GMT 44.133289 24.813799 36,000 317 435 0
2019-09-12 10:12:02 GMT 44.125946 24.823418 36,000 317 436 0
2019-09-12 10:11:59 GMT 44.120087 24.831146 36,000 317 436 0
2019-09-12 10:11:54 GMT 44.114529 24.838453 36,000 317 436 0
2019-09-12 10:11:51 GMT 44.107498 24.847673 36,000 317 436 0
2019-09-12 10:11:47 GMT 44.103699 24.852671 36,000 317 436 0
2019-09-12 10:11:44 GMT 44.098145 24.859968 36,000 317 436 0
2019-09-12 10:11:41 GMT 44.087860 24.873493 36,000 317 437 0
2019-09-12 10:11:36 GMT 44.087860 24.873493 36,000 317 437 0
2019-09-12 10:11:33 GMT 44.082920 24.880045 36,000 317 437 0
2019-09-12 10:11:30 GMT 44.078522 24.885822 36,000 317 436 0
2019-09-12 10:11:26 GMT 44.068863 24.898552 36,000 317 437 0
2019-09-12 10:11:20 GMT 44.064205 24.904762 36,000 317 437 0
2019-09-12 10:11:17 GMT 44.060108 24.910191 36,000 317 437 0
2019-09-12 10:11:14 GMT 44.056015 24.915554 36,000 317 437 0
2019-09-12 10:11:09 GMT 44.048676 24.925232 36,000 317 437 0
2019-09-12 10:11:06 GMT 44.044285 24.930986 36,000 317 437 64
2019-09-12 10:11:03 GMT 44.039337 24.937559 36,000 317 437 0
2019-09-12 10:10:59 GMT 44.033478 24.945288 36,000 317 437 0
2019-09-12 10:10:56 GMT 44.029060 24.951128 36,000 317 437 0
2019-09-12 10:10:53 GMT 44.023193 24.958845 36,000 317 437 0
2019-09-12 10:10:48 GMT 44.018234 24.965408 36,000 317 437 0
2019-09-12 10:10:45 GMT 44.012070 24.973494 36,000 317 437 0
2019-09-12 10:10:42 GMT 44.008255 24.978502 36,000 317 437 0
2019-09-12 10:10:38 GMT 44.002666 24.985788 36,000 317 437 64
2019-09-12 10:10:35 GMT 43.996754 24.993504 36,000 317 437 64
2019-09-12 10:10:30 GMT 43.990280 25.002005 36,000 317 437 0
2019-09-12 10:10:27 GMT 43.987061 25.006224 36,000 317 437 0
2019-09-12 10:10:22 GMT 43.978550 25.017372 36,000 317 437 0
2019-09-12 10:10:19 GMT 43.973511 25.023916 36,000 317 438 0
2019-09-12 10:10:14 GMT 43.961746 25.039310 36,000 317 438 0
2019-09-12 10:10:10 GMT 43.961746 25.039310 36,000 317 439 0
2019-09-12 10:10:06 GMT 43.955555 25.047388 36,000 317 438 64
2019-09-12 10:10:00 GMT 43.946365 25.059366 36,000 317 439 0
2019-09-12 10:09:56 GMT 43.940750 25.066681 36,000 317 438 0
2019-09-12 10:09:53 GMT 43.934555 25.074697 36,000 317 438 0
2019-09-12 10:09:49 GMT 43.930695 25.079695 36,000 317 439 0
2019-09-12 10:09:46 GMT 43.925674 25.086258 36,000 317 439 0
2019-09-12 10:09:39 GMT 43.914963 25.100056 36,000 318 440 0
2019-09-12 10:09:35 GMT 43.909328 25.107355 36,000 318 440 0
2019-09-12 10:09:32 GMT 43.904251 25.113852 36,000 318 440 0
2019-09-12 10:09:28 GMT 43.899227 25.120371 36,000 318 440 0
2019-09-12 10:09:24 GMT 43.892662 25.128805 36,000 318 440 0
2019-09-12 10:09:21 GMT 43.889374 25.133015 36,000 318 440 0
2019-09-12 10:09:17 GMT 43.882561 25.141821 36,000 317 440 0
2019-09-12 10:09:13 GMT 43.877518 25.148344 36,000 317 440 0
2019-09-12 10:09:09 GMT 43.870644 25.157187 36,000 317 440 0
2019-09-12 10:09:06 GMT 43.861752 25.168762 36,000 317 440 0
2019-09-12 10:09:03 GMT 43.861752 25.168762 36,000 317 441 0
2019-09-12 10:08:59 GMT 43.851379 25.182325 36,000 317 441 0
2019-09-12 10:08:56 GMT 43.851379 25.182325 36,000 317 441 0
2019-09-12 10:08:53 GMT 43.846619 25.188520 36,000 317 441 0
2019-09-12 10:08:48 GMT 43.839020 25.198740 36,000 315 441 0
2019-09-12 10:08:45 GMT 43.835312 25.203945 36,000 314 441 0
2019-09-12 10:08:41 GMT 43.830280 25.211269 36,000 314 441 0
2019-09-12 10:08:38 GMT 43.825516 25.218222 36,000 314 441 0
2019-09-12 10:08:35 GMT 43.821030 25.224737 36,000 314 441 0
2019-09-12 10:08:32 GMT 43.815399 25.232912 36,000 314 441 0
2019-09-12 10:08:26 GMT 43.808357 25.243116 36,000 314 441 0
2019-09-12 10:08:23 GMT 43.804184 25.249266 36,000 314 441 0
2019-09-12 10:08:20 GMT 43.800247 25.255013 36,000 314 441 0
2019-09-12 10:08:16 GMT 43.795460 25.261950 36,000 314 441 0
2019-09-12 10:08:13 GMT 43.790680 25.268873 36,000 314 441 0
2019-09-12 10:08:10 GMT 43.786148 25.275389 36,000 314 441 0
2019-09-12 10:08:06 GMT 43.781403 25.282352 36,000 314 441 0
2019-09-12 10:08:01 GMT 43.773788 25.293339 36,000 314 441 0
2019-09-12 10:07:56 GMT 43.766178 25.304325 36,000 314 441 0
2019-09-12 10:07:52 GMT 43.760834 25.312117 36,000 314 441 0
2019-09-12 10:07:48 GMT 43.755203 25.320229 36,000 314 441 0
2019-09-12 10:07:45 GMT 43.751003 25.326365 36,000 314 441 0
2019-09-12 10:07:38 GMT 43.740295 25.341862 36,000 314 441 0
2019-09-12 10:07:34 GMT 43.736385 25.347551 36,000 314 441 0
2019-09-12 10:07:30 GMT 43.728790 25.358553 36,000 314 441 0
2019-09-12 10:07:27 GMT 43.720604 25.370375 36,000 314 442 0
2019-09-12 10:07:23 GMT 43.720604 25.370375 36,000 314 442 0
2019-09-12 10:07:18 GMT 43.713295 25.380968 36,000 314 441 0
2019-09-12 10:07:13 GMT 43.705429 25.392347 36,000 314 441 0
2019-09-12 10:07:10 GMT 43.701473 25.398035 36,000 314 441 0
2019-09-12 10:07:05 GMT 43.694412 25.408247 36,000 314 441 0
2019-09-12 10:07:01 GMT 43.688232 25.417189 36,000 314 441 0
2019-09-12 10:06:57 GMT 43.682053 25.426067 36,000 314 440 0
2019-09-12 10:06:54 GMT 43.679214 25.430157 36,000 314 440 0
2019-09-12 10:06:51 GMT 43.676147 25.434658 36,000 314 440 0
2019-09-12 10:06:46 GMT 43.667114 25.447605 36,000 314 440 0
2019-09-12 10:06:40 GMT 43.659248 25.458984 36,000 314 440 0
2019-09-12 10:06:36 GMT 43.654732 25.465525 36,000 314 440 0
2019-09-12 10:06:33 GMT 43.648819 25.474037 36,000 314 441 0
2019-09-12 10:06:26 GMT 43.640118 25.486582 36,000 314 440 0
2019-09-12 10:06:22 GMT 43.633072 25.496714 36,000 314 440 0
2019-09-12 10:06:15 GMT 43.624603 25.508848 36,000 314 440 0
2019-09-12 10:06:12 GMT 43.616730 25.520155 36,000 314 439 0
2019-09-12 10:06:05 GMT 43.610504 25.529034 36,000 314 440 0
2019-09-12 10:05:59 GMT 43.601486 25.542000 36,000 314 439 0
2019-09-12 10:05:54 GMT 43.595566 25.550472 36,000 314 439 0
2019-09-12 10:05:51 GMT 43.590775 25.557329 36,000 314 439 0
2019-09-12 10:05:44 GMT 43.581459 25.570614 36,000 314 440 0
2019-09-12 10:05:38 GMT 43.571869 25.584347 36,000 314 440 0
2019-09-12 10:05:33 GMT 43.565121 25.594025 36,000 314 439 0
2019-09-12 10:05:29 GMT 43.558929 25.602919 36,000 314 439 0
2019-09-12 10:05:26 GMT 43.556396 25.606577 36,000 314 439 0
2019-09-12 10:05:22 GMT 43.548569 25.617882 36,000 314 439 0
2019-09-12 10:05:18 GMT 43.542389 25.626760 36,000 314 439 0
2019-09-12 10:05:11 GMT 43.534515 25.638065 36,000 314 439 0
2019-09-12 10:05:06 GMT 43.528065 25.647322 36,000 314 439 0
2019-09-12 10:05:01 GMT 43.519958 25.659016 36,000 314 438 0
2019-09-12 10:04:56 GMT 43.513184 25.668724 36,000 314 438 0
2019-09-12 10:04:50 GMT 43.505356 25.679968 36,000 314 438 0
2019-09-12 10:04:46 GMT 43.498627 25.689676 36,000 314 438 0
2019-09-12 10:04:42 GMT 43.493591 25.696894 36,000 314 438 0
2019-09-12 10:04:39 GMT 43.489380 25.702908 36,000 314 438 0
2019-09-12 10:04:35 GMT 43.483746 25.710951 36,000 314 438 0
2019-09-12 10:04:31 GMT 43.478394 25.718548 36,000 315 438 0
2019-09-12 10:04:28 GMT 43.474155 25.724552 36,000 315 438 0
2019-09-12 10:04:24 GMT 43.468525 25.732531 36,000 315 438 0
2019-09-12 10:04:19 GMT 43.460907 25.743330 36,000 315 438 0
2019-09-12 10:04:14 GMT 43.453033 25.754507 36,000 315 438 0
2019-09-12 10:04:11 GMT 43.449646 25.759298 36,000 315 438 0
2019-09-12 10:04:08 GMT 43.445992 25.764509 36,000 314 437 0
2019-09-12 10:04:03 GMT 43.438683 25.774841 36,000 314 437 0
2019-09-12 10:04:00 GMT 43.434727 25.780464 36,000 314 437 0
2019-09-12 10:03:57 GMT 43.430557 25.786446 36,000 314 437 0
2019-09-12 10:03:52 GMT 43.423233 25.796793 36,000 314 437 64
2019-09-12 10:03:48 GMT 43.418198 25.804010 36,000 314 437 0
2019-09-12 10:03:41 GMT 43.408379 25.817936 36,000 314 436 0
2019-09-12 10:03:38 GMT 43.403595 25.824705 36,000 314 436 0
2019-09-12 10:03:35 GMT 43.399952 25.829905 36,000 314 436 64
2019-09-12 10:03:31 GMT 43.393524 25.839077 36,000 314 436 64
2019-09-12 10:03:24 GMT 43.384048 25.852619 36,000 314 436 0
2019-09-12 10:03:20 GMT 43.378464 25.860603 36,000 314 436 0
2019-09-12 10:03:16 GMT 43.373428 25.867758 36,000 314 436 0
2019-09-12 10:03:10 GMT 43.363358 25.882128 36,000 314 435 0
2019-09-12 10:03:07 GMT 43.360291 25.886536 36,000 314 435 0
2019-09-12 10:03:03 GMT 43.354980 25.894073 36,000 314 436 0
2019-09-12 10:02:59 GMT 43.349396 25.901993 36,000 315 435 0
2019-09-12 10:02:56 GMT 43.345207 25.907986 36,000 315 435 0
2019-09-12 10:02:48 GMT 43.332870 25.925446 36,000 315 435 0
2019-09-12 10:02:38 GMT 43.318588 25.945620 36,000 315 435 -64
2019-09-12 10:02:28 GMT 43.304581 25.965485 36,000 315 435 64
2019-09-12 10:02:19 GMT 43.293118 25.981686 36,000 314 434 0
2019-09-12 10:02:14 GMT 43.286972 25.990448 36,000 314 434 0
2019-09-12 10:02:05 GMT 43.273270 26.009876 36,000 314 434 0
2019-09-12 10:01:56 GMT 43.260670 26.027723 36,000 314 434 0
2019-09-12 10:01:53 GMT 43.257317 26.032431 36,000 314 434 0
2019-09-12 10:01:44 GMT 43.243057 26.052671 36,000 315 435 0
2019-09-12 10:01:36 GMT 43.232693 26.067287 36,000 315 435 0
2019-09-12 10:01:33 GMT 43.224564 26.078796 36,000 315 435 0
2019-09-12 10:01:25 GMT 43.217003 26.089521 36,000 315 435 0
2019-09-12 10:01:22 GMT 43.213093 26.095015 36,000 315 435 0
2019-09-12 10:01:14 GMT 43.201874 26.110840 36,000 315 436 0
2019-09-12 10:01:11 GMT 43.197914 26.116398 36,000 315 436 0
2019-09-12 10:01:01 GMT 43.182739 26.137651 36,000 315 436 0
2019-09-12 10:00:53 GMT 43.167160 26.159279 36,000 315 436 0
2019-09-12 10:00:42 GMT 43.156670 26.173750 36,000 315 436 0
2019-09-12 10:00:38 GMT 43.151550 26.180866 36,000 315 436 0
2019-09-12 10:00:34 GMT 43.144474 26.190622 36,000 315 436 0
2019-09-12 10:00:27 GMT 43.136559 26.201609 36,000 315 436 0
2019-09-12 10:00:20 GMT 43.125504 26.216892 36,000 315 437 0
2019-09-12 10:00:17 GMT 43.120972 26.223215 36,000 315 437 0
2019-09-12 10:00:10 GMT 43.111607 26.236135 36,000 315 437 0
2019-09-12 10:00:07 GMT 43.106781 26.242762 36,000 315 437 0
2019-09-12 09:59:58 GMT 43.090054 26.265890 36,000 315 437 0
2019-09-12 09:59:55 GMT 43.090054 26.265890 36,000 315 437 0
2019-09-12 09:59:50 GMT 43.082977 26.275721 36,000 315 437 0
2019-09-12 09:59:44 GMT 43.074738 26.287079 36,000 315 437 0
2019-09-12 09:59:40 GMT 43.067944 26.296495 36,000 315 437 0
2019-09-12 09:59:36 GMT 43.063427 26.302708 36,000 315 437 0
2019-09-12 09:59:33 GMT 43.058865 26.308987 36,000 315 437 0
2019-09-12 09:59:29 GMT 43.053185 26.316833 36,000 315 437 0
2019-09-12 09:59:25 GMT 43.048065 26.323896 36,000 315 437 0
2019-09-12 09:59:22 GMT 43.043243 26.330587 36,000 315 437 0
2019-09-12 09:59:19 GMT 43.038986 26.336452 36,000 315 437 0
2019-09-12 09:59:12 GMT 43.028458 26.350964 36,000 315 437 0
2019-09-12 09:59:08 GMT 43.023624 26.357639 36,000 315 437 0
2019-09-12 09:59:03 GMT 43.017059 26.366613 36,000 315 438 0
2019-09-12 09:59:00 GMT 43.011662 26.374119 36,000 315 438 0
2019-09-12 09:58:57 GMT 43.007950 26.379196 36,000 315 439 0
2019-09-12 09:58:51 GMT 42.997974 26.392954 36,000 315 439 0
2019-09-12 09:58:48 GMT 42.993118 26.399698 36,000 315 439 0
2019-09-12 09:58:40 GMT 42.982224 26.414646 36,000 315 440 0
2019-09-12 09:58:37 GMT 42.978790 26.419436 36,000 315 441 0
2019-09-12 09:58:30 GMT 42.963619 26.440365 36,000 315 441 0
2019-09-12 09:58:27 GMT 42.963619 26.440365 36,000 315 441 0
2019-09-12 09:58:18 GMT 42.951561 26.456976 36,000 315 441 0
2019-09-12 09:58:15 GMT 42.947800 26.462105 36,000 315 441 0
2019-09-12 09:58:11 GMT 42.941227 26.471231 36,000 315 441 0
2019-09-12 09:58:08 GMT 42.937454 26.476349 36,000 315 441 0
2019-09-12 09:58:05 GMT 42.933128 26.482283 36,000 315 441 0
2019-09-12 09:57:57 GMT 42.920464 26.499613 36,000 315 442 0
2019-09-12 09:57:50 GMT 42.911247 26.512234 36,000 315 442 0
2019-09-12 09:57:46 GMT 42.905430 26.520145 36,000 315 442 0
2019-09-12 09:57:42 GMT 42.900261 26.527208 36,000 315 442 0
2019-09-12 09:57:37 GMT 42.893326 26.536692 36,000 315 443 0
2019-09-12 09:57:34 GMT 42.876518 26.559513 36,000 315 442 0
2019-09-12 09:57:26 GMT 42.876518 26.559513 36,000 315 442 0
2019-09-12 09:57:23 GMT 42.872772 26.564623 36,000 315 441 0
2019-09-12 09:57:19 GMT 42.865265 26.574905 36,000 315 442 0
2019-09-12 09:57:15 GMT 42.861191 26.580399 36,000 315 442 0
2019-09-12 09:57:12 GMT 42.856270 26.587046 36,000 315 441 0
2019-09-12 09:57:09 GMT 42.851944 26.592981 36,000 315 442 0
2019-09-12 09:57:05 GMT 42.845284 26.602020 36,000 315 442 0
2019-09-12 09:57:02 GMT 42.840675 26.608297 36,000 315 441 0
2019-09-12 09:56:59 GMT 42.837479 26.612656 36,000 315 442 0
2019-09-12 09:56:53 GMT 42.829128 26.624058 36,000 315 441 0
2019-09-12 09:56:49 GMT 42.823357 26.631907 36,000 315 441 64
2019-09-12 09:56:46 GMT 42.818436 26.638588 36,000 315 441 64
2019-09-12 09:56:43 GMT 42.814407 26.644081 36,000 315 441 0
2019-09-12 09:56:39 GMT 42.798496 26.665735 36,000 315 442 0
2019-09-12 09:56:33 GMT 42.798496 26.665735 36,000 315 441 0
2019-09-12 09:56:30 GMT 42.795612 26.669630 36,000 315 441 0
2019-09-12 09:56:22 GMT 42.783188 26.686541 36,000 315 441 0
2019-09-12 09:56:17 GMT 42.777130 26.694798 36,000 315 442 0
2019-09-12 09:56:09 GMT 42.764694 26.711634 36,000 315 442 0
2019-09-12 09:56:01 GMT 42.752274 26.728523 36,000 315 442 0
2019-09-12 09:55:58 GMT 42.748489 26.733606 36,000 315 442 0
2019-09-12 09:55:49 GMT 42.733185 26.754393 36,000 315 441 64
2019-09-12 09:55:39 GMT 42.721081 26.770870 36,000 315 441 0
2019-09-12 09:55:36 GMT 42.717590 26.775534 36,000 315 441 0
2019-09-12 09:55:25 GMT 42.702042 26.796740 36,000 315 441 0
2019-09-12 09:55:16 GMT 42.687881 26.815943 36,000 315 441 0
2019-09-12 09:55:13 GMT 42.684723 26.820246 36,000 315 441 0
2019-09-12 09:55:07 GMT 42.675201 26.833170 36,000 315 441 0
2019-09-12 09:55:02 GMT 42.669174 26.841389 36,000 315 441 0
2019-09-12 09:54:54 GMT 42.653580 26.862467 36,000 315 441 0
2019-09-12 09:54:44 GMT 42.643200 26.876583 36,000 315 441 0
2019-09-12 09:54:40 GMT 42.638306 26.883232 36,000 315 441 0
2019-09-12 09:54:33 GMT 42.625626 26.900461 36,000 315 441 0
2019-09-12 09:54:28 GMT 42.619598 26.908648 36,000 315 441 0
2019-09-12 09:54:24 GMT 42.613827 26.916504 36,000 315 441 0
2019-09-12 09:54:21 GMT 42.610657 26.920811 36,000 316 441 0
2019-09-12 09:54:18 GMT 42.605724 26.927425 36,000 315 441 0
2019-09-12 09:54:13 GMT 42.589279 26.949650 36,000 316 441 0
2019-09-12 09:54:07 GMT 42.589279 26.949650 36,000 316 441 0
2019-09-12 09:54:03 GMT 42.583195 26.957830 36,000 316 441 0
2019-09-12 09:53:55 GMT 42.572208 26.972649 36,000 316 441 64
2019-09-12 09:53:52 GMT 42.567856 26.978489 36,000 316 441 0
2019-09-12 09:53:49 GMT 42.562088 26.986231 36,000 316 441 0
2019-09-12 09:53:45 GMT 42.557465 26.992472 36,000 316 441 0
2019-09-12 09:53:42 GMT 42.552246 26.999462 36,000 316 441 0
2019-09-12 09:53:38 GMT 42.546432 27.007265 36,000 316 441 0
2019-09-12 09:53:31 GMT 42.536877 27.020044 36,000 316 440 0
2019-09-12 09:53:19 GMT 42.520676 27.041761 36,000 316 440 0
2019-09-12 09:53:13 GMT 42.512283 27.053022 36,000 316 440 64
2019-09-12 09:53:08 GMT 42.504181 27.063883 36,000 316 439 0
2019-09-12 09:53:04 GMT 42.499260 27.070440 36,000 316 440 0
2019-09-12 09:52:59 GMT 42.490311 27.082422 36,000 316 439 0
2019-09-12 09:52:51 GMT 42.479919 27.096342 36,000 316 439 0
2019-09-12 09:52:48 GMT 42.475052 27.102951 36,000 316 438 0
2019-09-12 09:52:43 GMT 42.468163 27.112213 36,000 316 438 0
2019-09-12 09:52:37 GMT 42.459553 27.123775 36,000 316 437 0
2019-09-12 09:52:33 GMT 42.454384 27.130737 36,000 316 437 0
2019-09-12 09:52:26 GMT 42.444050 27.144663 36,000 316 437 0
2019-09-12 09:52:23 GMT 42.437763 27.153093 36,000 316 437 0
2019-09-12 09:52:18 GMT 42.432907 27.159700 36,000 316 437 0
2019-09-12 09:52:15 GMT 42.428036 27.166250 36,000 316 437 0
2019-09-12 09:52:10 GMT 42.420273 27.176619 36,000 316 437 -128
2019-09-12 09:52:06 GMT 42.414551 27.184359 36,000 316 436 -128
2019-09-12 09:51:56 GMT 42.399628 27.204332 35,950 316 437 960
2019-09-12 09:51:53 GMT 42.396149 27.208952 35,925 316 437 896
2019-09-12 09:51:45 GMT 42.384930 27.223928 35,800 316 438 896
2019-09-12 09:51:41 GMT 42.379715 27.230827 35,775 316 439 896
2019-09-12 09:51:38 GMT 42.374546 27.237726 35,650 316 439 896
2019-09-12 09:51:33 GMT 42.367859 27.246593 35,650 316 439 960
2019-09-12 09:51:30 GMT 42.364120 27.251652 35,600 316 440 1024
2019-09-12 09:51:27 GMT 42.358860 27.258549 35,525 316 441 960
2019-09-12 09:51:23 GMT 42.353943 27.265133 35,475 316 441 1024
2019-09-12 09:51:20 GMT 42.348991 27.271708 35,425 316 443 960
2019-09-12 09:51:17 GMT 42.344055 27.278240 35,375 316 441 1024
2019-09-12 09:51:13 GMT 42.338242 27.285982 35,300 316 441 1024
2019-09-12 09:51:06 GMT 42.327759 27.299902 35,175 316 441 960
2019-09-12 09:51:03 GMT 42.318420 27.312262 35,100 316 443 960
2019-09-12 09:50:59 GMT 42.318420 27.312262 35,075 316 443 960
2019-09-12 09:50:55 GMT 42.311096 27.321976 35,000 316 443 960
2019-09-12 09:50:49 GMT 42.302032 27.333921 34,900 316 444 960
2019-09-12 09:50:45 GMT 42.296768 27.340914 34,650 316 444 960
2019-09-12 09:50:41 GMT 42.291779 27.347527 34,800 316 444 960
2019-09-12 09:50:38 GMT 42.287682 27.352955 34,750 316 444 960
2019-09-12 09:50:35 GMT 42.281525 27.361137 34,700 316 445 960
2019-09-12 09:50:31 GMT 42.275391 27.369307 34,625 316 445 960
2019-09-12 09:50:27 GMT 42.272141 27.373560 34,550 316 446 960
2019-09-12 09:50:24 GMT 42.265091 27.382923 34,525 316 447 1024
2019-09-12 09:50:19 GMT 42.260681 27.388788 34,475 316 447 1024
2019-09-12 09:50:16 GMT 42.254162 27.397411 34,400 316 448 1024
2019-09-12 09:50:13 GMT 42.248856 27.404436 34,325 316 448 1088
2019-09-12 09:50:09 GMT 42.245319 27.409164 34,300 316 448 1088
2019-09-12 09:50:05 GMT 42.238243 27.418554 34,025 316 448 1088
2019-09-12 09:50:01 GMT 42.231167 27.427942 34,125 316 449 1024
2019-09-12 09:49:58 GMT 42.228516 27.431488 34,100 316 449 960
2019-09-12 09:49:54 GMT 42.223206 27.438604 34,000 316 449 64
2019-09-12 09:49:48 GMT 42.207275 27.459827 34,000 316 449 0
2019-09-12 09:49:44 GMT 42.197800 27.472376 34,000 316 449 0
2019-09-12 09:49:38 GMT 42.194229 27.477119 34,000 316 451 0
2019-09-12 09:49:25 GMT 42.178711 27.497656 33,975 316 455 64
2019-09-12 09:49:17 GMT 42.166924 27.513151 34,000 316 459 0
2019-09-12 09:49:13 GMT 42.161476 27.520369 34,000 316 459 0
2019-09-12 09:49:07 GMT 42.153004 27.531548 34,000 316 459 0
2019-09-12 09:49:04 GMT 42.146954 27.539595 34,000 316 459 0
2019-09-12 09:48:58 GMT 42.137222 27.552370 34,000 316 459 0
2019-09-12 09:48:54 GMT 42.131779 27.559587 34,000 316 459 64
2019-09-12 09:48:51 GMT 42.126938 27.565975 34,000 316 459 64
2019-09-12 09:48:46 GMT 42.119339 27.575996 34,000 316 459 0
2019-09-12 09:48:43 GMT 42.114182 27.582773 34,000 316 459 0
2019-09-12 09:48:38 GMT 42.109039 27.589603 34,000 316 459 0
2019-09-12 09:48:32 GMT 42.099335 27.602400 34,000 316 459 0
2019-09-12 09:48:28 GMT 42.093292 27.610390 34,000 316 459 0
2019-09-12 09:48:22 GMT 42.082947 27.623936 34,000 316 459 0
2019-09-12 09:48:11 GMT 42.067154 27.644724 34,000 316 460 64
2019-09-12 09:48:01 GMT 42.051662 27.665043 34,000 316 460 -64
2019-09-12 09:47:55 GMT 42.042538 27.677052 34,000 316 460 0
2019-09-12 09:47:51 GMT 42.035831 27.685802 34,000 316 460 0
2019-09-12 09:47:47 GMT 42.030670 27.692600 34,000 316 460 0
2019-09-12 09:47:44 GMT 42.025177 27.699780 34,000 316 460 0
2019-09-12 09:47:39 GMT 42.019447 27.707329 34,000 316 460 0
2019-09-12 09:47:34 GMT 42.011215 27.718069 34,000 316 459 0
2019-09-12 09:47:29 GMT 42.003296 27.728432 34,000 313 458 0
2019-09-12 09:47:22 GMT 41.994076 27.741053 34,000 314 459 -128
2019-09-12 09:47:19 GMT 41.987743 27.750252 34,000 312 457 320
2019-09-12 09:47:08 GMT 41.973545 27.772736 33,875 309 457 960
2019-09-12 09:47:02 GMT 41.966583 27.784861 33,800 307 457 960
2019-09-12 09:46:58 GMT 41.959953 27.797262 33,725 305 456 896
2019-09-12 09:46:47 GMT 41.947105 27.823833 33,550 301 456 896
2019-09-12 09:46:35 GMT 41.935841 27.850407 33,375 300 457 1024
2019-09-12 09:46:27 GMT 41.926296 27.873144 33,225 300 458 960
2019-09-12 09:46:24 GMT 41.924248 27.878063 33,200 300 458 960
2019-09-12 09:46:15 GMT 41.914902 27.900343 33,075 300 459 896
2019-09-12 09:46:04 GMT 41.903439 27.927692 32,925 300 460 896
2019-09-12 09:45:52 GMT 41.890961 27.957521 32,725 300 461 960
2019-09-12 09:45:44 GMT 41.881744 27.979431 32,600 300 461 1024
2019-09-12 09:45:41 GMT 41.880489 27.982368 32,575 300 461 1024
2019-09-12 09:45:33 GMT 41.868340 28.011240 32,350 300 461 1280
2019-09-12 09:45:26 GMT 41.863312 28.023186 32,250 300 461 1152
2019-09-12 09:45:21 GMT 41.858654 28.034107 32,175 300 461 1152
2019-09-12 09:45:17 GMT 41.853626 28.045988 32,075 300 460 1152
2019-09-12 09:45:12 GMT 41.848183 28.058889 32,000 300 460 1152
2019-09-12 09:45:07 GMT 41.843811 28.069319 31,900 300 460 1152
2019-09-12 09:44:59 GMT 41.835434 28.089170 31,775 300 460 1152
2019-09-12 09:44:56 GMT 41.831421 28.098557 31,700 300 459 1088
2019-09-12 09:44:49 GMT 41.824951 28.113890 31,575 300 459 1088
2019-09-12 09:44:46 GMT 41.821198 28.122814 31,325 300 459 1088
2019-09-12 09:44:38 GMT 41.814514 28.138609 31,400 300 458 1152
2019-09-12 09:44:35 GMT 41.809891 28.149469 31,325 300 458 1088
2019-09-12 09:44:31 GMT 41.806797 28.156874 31,275 300 457 1088
2019-09-12 09:44:27 GMT 41.802189 28.167667 31,200 300 457 1088
2019-09-12 09:44:23 GMT 41.797806 28.177998 31,125 300 457 1088
2019-09-12 09:44:17 GMT 41.792404 28.190731 31,025 300 456 1088
2019-09-12 09:44:11 GMT 41.784897 28.208397 30,900 300 455 1088
2019-09-12 09:44:07 GMT 41.781189 28.217197 30,775 300 454 1088
2019-09-12 09:43:59 GMT 41.773090 28.236269 30,700 300 454 1216
2019-09-12 09:43:56 GMT 41.769974 28.243603 30,625 300 454 1216
2019-09-12 09:43:50 GMT 41.759777 28.267504 30,475 300 454 1152
2019-09-12 09:43:47 GMT 41.759777 28.267504 30,450 300 453 1216
2019-09-12 09:43:39 GMT 41.751911 28.285961 30,275 300 453 1472
2019-09-12 09:43:36 GMT 41.747955 28.295225 30,200 300 454 1536
2019-09-12 09:43:27 GMT 41.740082 28.313765 30,000 300 454 1600
2019-09-12 09:43:23 GMT 41.736549 28.322050 29,875 300 454 1664
2019-09-12 09:43:17 GMT 41.730103 28.337173 29,750 300 455 1536
2019-09-12 09:43:14 GMT 41.726540 28.345493 29,675 300 455 1600
2019-09-12 09:43:11 GMT 41.724072 28.351370 29,600 300 455 1664
2019-09-12 09:43:04 GMT 41.716160 28.369957 29,425 300 456 1344
2019-09-12 09:43:00 GMT 41.712387 28.378771 29,350 300 456 1216
2019-09-12 09:42:54 GMT 41.704845 28.396400 29,150 300 455 1216
2019-09-12 09:42:43 GMT 41.693802 28.422318 29,000 300 454 1152
2019-09-12 09:42:40 GMT 41.691742 28.427185 28,950 300 454 1152
2019-09-12 09:42:34 GMT 41.683411 28.446663 28,800 300 453 1280
2019-09-12 09:42:30 GMT 41.680481 28.453466 28,750 300 453 1344
2019-09-12 09:42:22 GMT 41.672607 28.471943 28,600 300 453 1216
2019-09-12 09:42:19 GMT 41.668854 28.480682 28,525 300 452 1280
2019-09-12 09:42:11 GMT 41.659698 28.502031 28,375 300 452 1408
2019-09-12 09:42:07 GMT 41.656815 28.508835 28,275 300 452 1280
2019-09-12 09:42:02 GMT 41.650799 28.522871 28,125 300 451 1600
2019-09-12 09:41:59 GMT 41.648705 28.527725 28,025 300 451 1600
2019-09-12 09:41:56 GMT 41.645599 28.534990 28,025 300 451 1600
2019-09-12 09:41:50 GMT 41.639580 28.548996 27,900 300 451 1088
2019-09-12 09:41:46 GMT 41.635437 28.558641 27,825 300 450 1216
2019-09-12 09:41:39 GMT 41.628204 28.575563 27,650 300 450 1472
2019-09-12 09:41:35 GMT 41.623627 28.586176 27,550 300 450 1152
2019-09-12 09:41:27 GMT 41.615753 28.604465 27,300 300 449 1472
2019-09-12 09:41:24 GMT 41.612457 28.612144 27,325 300 449 1408
2019-09-12 09:41:18 GMT 41.606064 28.626986 27,150 300 449 1344
2019-09-12 09:41:14 GMT 41.601547 28.637526 27,100 300 447 1472
2019-09-12 09:41:06 GMT 41.592888 28.657644 26,925 300 447 1344
2019-09-12 09:41:02 GMT 41.589432 28.665766 26,850 300 447 1344
2019-09-12 09:40:57 GMT 41.583904 28.678659 26,725 300 445 1472
2019-09-12 09:40:53 GMT 41.580227 28.687220 26,575 300 444 1408
2019-09-12 09:40:44 GMT 41.570984 28.708649 26,475 300 444 1472
2019-09-12 09:40:41 GMT 41.568558 28.714329 26,375 300 443 1536
2019-09-12 09:40:34 GMT 41.560162 28.733784 26,175 300 443 1472
2019-09-12 09:40:30 GMT 41.556702 28.741795 26,100 300 443 1472
2019-09-12 09:40:23 GMT 41.548553 28.760710 25,925 300 441 1472
2019-09-12 09:40:20 GMT 41.546494 28.765453 25,875 300 440 1536
2019-09-12 09:40:14 GMT 41.540611 28.779070 25,725 300 440 1600
2019-09-12 09:40:10 GMT 41.531254 28.800659 25,575 300 439 1600
2019-09-12 09:40:06 GMT 41.531254 28.800659 25,500 300 438 1664
2019-09-12 09:40:02 GMT 41.527405 28.809523 25,375 300 438 1728
2019-09-12 09:39:57 GMT 41.523151 28.819374 25,275 300 438 1728
2019-09-12 09:39:50 GMT 41.512894 28.843168 25,050 300 437 1728
2019-09-12 09:39:47 GMT 41.512894 28.843168 25,000 300 436 1792
2019-09-12 09:39:44 GMT 41.509838 28.850163 24,900 300 436 1856

Making use of Plane Finder data

You are free to use the raw flight data, aircraft information and images provided in this report for your own purposes provided the data is correctly attributed to Plane Finder. We ask that you please credit Plane Finder and link to planefinder.net in close proximity to the content.

Optionally one of the following logos (no smaller then 150x24px) can be used and must link to planefinder.net

Embedding the Plane Finder map

You are welcome to embed the Plane Finder playback map on your website to offer visitors a more interactive experience. We suggest using the following HTML code:

<iframe src="//planefinder.net/data/report/PC1161-TC-ANP-7700-squawk-2019-09-12/map" width="800" height="600" seamless="seamless"></iframe>

Where our data comes from

Plane Finder has a global network of data feeds and antenna radars that receive data broadcast directly from aircraft. The primary technologies used are ADS-B and MLAT. We also show feeds from the FAA and a FLARM glider feed.

Click here to find out more about the Plane Finder network.

How we collect our data